<?xml version='1.0' encoding='UTF-8'?><gpx version="1.1" creator="JPX - https://github.com/jenetics/jpx" xmlns="http://www.topografix.com/GPX/1/1"><trk><trkseg><trkpt lat="43.968182175149295" lon="12.749259232528523"><ele>0.0</ele><time>2026-04-05T09:16:54Z</time></trkpt><trkpt lat="43.96818846173875" lon="12.74936491857063"><ele>0.0</ele><time>2026-04-05T09:16:56Z</time></trkpt><trkpt lat="43.96819310076891" lon="12.749485164630439"><ele>0.0</ele><time>2026-04-05T09:16:59Z</time></trkpt><trkpt lat="43.96820801825393" lon="12.749596849021943"><ele>0.0</ele><time>2026-04-05T09:17:02Z</time></trkpt><trkpt lat="43.968200722488476" lon="12.749711289291609"><ele>0.0</ele><time>2026-04-05T09:17:05Z</time></trkpt><trkpt lat="43.96816350030882" lon="12.749800690478265"><ele>0.0</ele><time>2026-04-05T09:17:07Z</time></trkpt><trkpt lat="43.96817122396495" lon="12.74992012798162"><ele>0.0</ele><time>2026-04-05T09:17:10Z</time></trkpt><trkpt lat="43.96817810957938" lon="12.75003705535655"><ele>0.0</ele><time>2026-04-05T09:17:13Z</time></trkpt><trkpt lat="43.968174575311416" lon="12.750157180756831"><ele>0.0</ele><time>2026-04-05T09:17:16Z</time></trkpt><trkpt lat="43.968161777804305" lon="12.750283693160299"><ele>0.0</ele><time>2026-04-05T09:17:19Z</time></trkpt><trkpt lat="43.96814959212844" lon="12.75039295939196"><ele>0.0</ele><time>2026-04-05T09:17:22Z</time></trkpt><trkpt lat="43.96812423942138" lon="12.750474302578024"><ele>0.0</ele><time>2026-04-05T09:17:26Z</time></trkpt><trkpt lat="43.96806893104264" lon="12.750552075250187"><ele>0.3333333333333333</ele><time>2026-04-05T09:17:29Z</time></trkpt><trkpt lat="43.96800085597014" lon="12.750588399594415"><ele>0.6666666666666666</ele><time>2026-04-05T09:17:31Z</time></trkpt><trkpt lat="43.96792801666512" lon="12.750603879535108"><ele>1.0</ele><time>2026-04-05T09:17:33Z</time></trkpt><trkpt lat="43.96783522547119" lon="12.750610044579547"><ele>1.3333333333333333</ele><time>2026-04-05T09:17:36Z</time></trkpt><trkpt lat="43.967739422798395" lon="12.75059737073454"><ele>1.6666666666666665</ele><time>2026-04-05T09:17:39Z</time></trkpt><trkpt lat="43.96766697281513" lon="12.750635005719396"><ele>2.0</ele><time>2026-04-05T09:17:42Z</time></trkpt><trkpt lat="43.96758647309425" lon="12.750642959780249"><ele>2.333333333333333</ele><time>2026-04-05T09:17:45Z</time></trkpt><trkpt lat="43.96750300357155" lon="12.750660106255161"><ele>2.6666666666666665</ele><time>2026-04-05T09:17:48Z</time></trkpt><trkpt lat="43.96743115207222" lon="12.750744764005072"><ele>3.0</ele><time>2026-04-05T09:17:51Z</time></trkpt><trkpt lat="43.96737161791408" lon="12.750775135562705"><ele>3.333333333333333</ele><time>2026-04-05T09:17:53Z</time></trkpt><trkpt lat="43.96732759109928" lon="12.750851442613783"><ele>3.6666666666666665</ele><time>2026-04-05T09:17:56Z</time></trkpt><trkpt lat="43.9672432995106" lon="12.750938795899105"><ele>4.0</ele><time>2026-04-05T09:17:59Z</time></trkpt><trkpt lat="43.9671803447854" lon="12.750988647553612"><ele>3.9999999999999996</ele><time>2026-04-05T09:18:03Z</time></trkpt><trkpt lat="43.967122187505815" lon="12.751037309682431"><ele>4.0</ele><time>2026-04-05T09:18:06Z</time></trkpt><trkpt lat="43.96704488430816" lon="12.751097088253763"><ele>4.0</ele><time>2026-04-05T09:18:09Z</time></trkpt><trkpt lat="43.96695693812052" lon="12.751151103387205"><ele>4.0</ele><time>2026-04-05T09:18:13Z</time></trkpt><trkpt lat="43.966882451449756" lon="12.751201234018366"><ele>3.9999999999999996</ele><time>2026-04-05T09:18:16Z</time></trkpt><trkpt lat="43.9668110564762" lon="12.751258969258851"><ele>4.0</ele><time>2026-04-05T09:18:19Z</time></trkpt><trkpt lat="43.96673942485409" lon="12.751317003905626"><ele>4.166666666666666</ele><time>2026-04-05T09:18:22Z</time></trkpt><trkpt lat="43.96667889987478" lon="12.751357826359207"><ele>4.333333333333333</ele><time>2026-04-05T09:18:25Z</time></trkpt><trkpt lat="43.96661208680738" lon="12.751410547653155"><ele>4.5</ele><time>2026-04-05T09:18:28Z</time></trkpt><trkpt lat="43.96653900953034" lon="12.751422389944722"><ele>4.666666666666667</ele><time>2026-04-05T09:18:31Z</time></trkpt><trkpt lat="43.96648039447453" lon="12.751487358146843"><ele>4.833333333333334</ele><time>2026-04-05T09:18:33Z</time></trkpt><trkpt lat="43.966411234079786" lon="12.751540198097336"><ele>5.0</ele><time>2026-04-05T09:18:36Z</time></trkpt><trkpt lat="43.96634947049225" lon="12.751615334086752"><ele>5.0</ele><time>2026-04-05T09:18:39Z</time></trkpt><trkpt lat="43.9663947431868" lon="12.751721530525801"><ele>5.0</ele><time>2026-04-05T09:18:43Z</time></trkpt><trkpt lat="43.96642973986137" lon="12.751834455562179"><ele>5.0</ele><time>2026-04-05T09:18:46Z</time></trkpt><trkpt lat="43.96647017773692" lon="12.751921114762677"><ele>5.0</ele><time>2026-04-05T09:18:48Z</time></trkpt><trkpt lat="43.966444381429326" lon="12.752026627920491"><ele>5.0</ele><time>2026-04-05T09:18:53Z</time></trkpt><trkpt lat="43.96641070563305" lon="12.752120299626643"><ele>5.0</ele><time>2026-04-05T09:19:07Z</time></trkpt><trkpt lat="43.96635847064586" lon="12.752196609782017"><ele>5.166666666666667</ele><time>2026-04-05T09:19:09Z</time></trkpt><trkpt lat="43.96629630090512" lon="12.752258427609402"><ele>5.333333333333334</ele><time>2026-04-05T09:19:12Z</time></trkpt><trkpt lat="43.96622870954116" lon="12.752337686734348"><ele>5.5</ele><time>2026-04-05T09:19:15Z</time></trkpt><trkpt lat="43.9661734645148" lon="12.75244133940646"><ele>5.666666666666667</ele><time>2026-04-05T09:19:18Z</time></trkpt><trkpt lat="43.96615003255412" lon="12.75255066236023"><ele>5.833333333333333</ele><time>2026-04-05T09:19:21Z</time></trkpt><trkpt lat="43.96610180553391" lon="12.75264799272976"><ele>6.0</ele><time>2026-04-05T09:19:24Z</time></trkpt><trkpt lat="43.96605698139894" lon="12.752738463362833"><ele>6.0</ele><time>2026-04-05T09:19:27Z</time></trkpt><trkpt lat="43.96602684523895" lon="12.752846465380998"><ele>6.0</ele><time>2026-04-05T09:19:30Z</time></trkpt><trkpt lat="43.96601013572925" lon="12.752964964211916"><ele>6.0</ele><time>2026-04-05T09:19:33Z</time></trkpt><trkpt lat="43.965986355973676" lon="12.753048549400695"><ele>6.0</ele><time>2026-04-05T09:19:35Z</time></trkpt><trkpt lat="43.965942940058646" lon="12.75315862089641"><ele>6.0</ele><time>2026-04-05T09:19:38Z</time></trkpt><trkpt lat="43.96588084243902" lon="12.75326233971533"><ele>6.0</ele><time>2026-04-05T09:19:41Z</time></trkpt><trkpt lat="43.96584539549215" lon="12.753355566131775"><ele>6.0</ele><time>2026-04-05T09:19:44Z</time></trkpt><trkpt lat="43.965813452295976" lon="12.75343604603782"><ele>6.0</ele><time>2026-04-05T09:19:46Z</time></trkpt><trkpt lat="43.96578335462471" lon="12.753541503765511"><ele>6.0</ele><time>2026-04-05T09:19:49Z</time></trkpt><trkpt lat="43.965749820621085" lon="12.753645476206882"><ele>6.0</ele><time>2026-04-05T09:19:52Z</time></trkpt><trkpt lat="43.9656931464522" lon="12.75374599972231"><ele>6.0</ele><time>2026-04-05T09:19:55Z</time></trkpt><trkpt lat="43.96563368956017" lon="12.753818992020014"><ele>6.0</ele><time>2026-04-05T09:19:58Z</time></trkpt><trkpt lat="43.965573691563904" lon="12.753896385282477"><ele>6.142857142857142</ele><time>2026-04-05T09:20:01Z</time></trkpt><trkpt lat="43.965552279986085" lon="12.753997725326734"><ele>6.285714285714286</ele><time>2026-04-05T09:20:03Z</time></trkpt><trkpt lat="43.96550803799386" lon="12.754078363282314"><ele>6.428571428571429</ele><time>2026-04-05T09:20:06Z</time></trkpt><trkpt lat="43.96545875735609" lon="12.754167881801424"><ele>6.571428571428571</ele><time>2026-04-05T09:20:09Z</time></trkpt><trkpt lat="43.965418441964175" lon="12.754235096590122"><ele>6.714285714285714</ele><time>2026-04-05T09:20:12Z</time></trkpt><trkpt lat="43.96537507261748" lon="12.754303643541872"><ele>6.857142857142857</ele><time>2026-04-05T09:20:14Z</time></trkpt><trkpt lat="43.96532822742575" lon="12.7543663164896"><ele>7.0</ele><time>2026-04-05T09:20:16Z</time></trkpt><trkpt lat="43.965272936244475" lon="12.754455067322509"><ele>7.142857142857142</ele><time>2026-04-05T09:20:19Z</time></trkpt><trkpt lat="43.965228680445854" lon="12.754554867747357"><ele>7.285714285714286</ele><time>2026-04-05T09:20:22Z</time></trkpt><trkpt lat="43.96524933149747" lon="12.754639202817451"><ele>7.428571428571429</ele><time>2026-04-05T09:20:24Z</time></trkpt><trkpt lat="43.965311097540734" lon="12.754706497518539"><ele>7.571428571428571</ele><time>2026-04-05T09:20:27Z</time></trkpt><trkpt lat="43.96536266519788" lon="12.754757336770961"><ele>7.7142857142857135</ele><time>2026-04-05T09:20:30Z</time></trkpt><trkpt lat="43.965418546223425" lon="12.754818306341058"><ele>7.857142857142857</ele><time>2026-04-05T09:20:33Z</time></trkpt><trkpt lat="43.965466001925606" lon="12.754882330790709"><ele>8.0</ele><time>2026-04-05T09:20:37Z</time></trkpt><trkpt lat="43.96550327139162" lon="12.754987748716943"><ele>7.999999999999999</ele><time>2026-04-05T09:20:41Z</time></trkpt><trkpt lat="43.965548714810566" lon="12.755059544918497"><ele>8.0</ele><time>2026-04-05T09:20:44Z</time></trkpt><trkpt lat="43.96561850089386" lon="12.755113667942387"><ele>8.0</ele><time>2026-04-05T09:20:48Z</time></trkpt><trkpt lat="43.965676731261915" lon="12.755156303848866"><ele>8.0</ele><time>2026-04-05T09:20:51Z</time></trkpt><trkpt lat="43.96567453540997" lon="12.755255330916134"><ele>7.999999999999999</ele><time>2026-04-05T09:20:54Z</time></trkpt><trkpt lat="43.965619124397136" lon="12.755355214151116"><ele>8.0</ele><time>2026-04-05T09:20:56Z</time></trkpt><trkpt lat="43.965605600571436" lon="12.75548458456823"><ele>7.999999999999999</ele><time>2026-04-05T09:20:59Z</time></trkpt><trkpt lat="43.96555335791051" lon="12.755581607472145"><ele>8.0</ele><time>2026-04-05T09:21:02Z</time></trkpt><trkpt lat="43.96551330544865" lon="12.755661467142891"><ele>8.0</ele><time>2026-04-05T09:21:04Z</time></trkpt><trkpt lat="43.96546425967729" lon="12.755757254776483"><ele>8.0</ele><time>2026-04-05T09:21:07Z</time></trkpt><trkpt lat="43.96543729692127" lon="12.755846053628325"><ele>7.999999999999999</ele><time>2026-04-05T09:21:10Z</time></trkpt><trkpt lat="43.96540708795197" lon="12.755959983405543"><ele>8.0</ele><time>2026-04-05T09:21:13Z</time></trkpt><trkpt lat="43.96539112622818" lon="12.756081748872123"><ele>8.428571428571429</ele><time>2026-04-05T09:21:16Z</time></trkpt><trkpt lat="43.965369301890796" lon="12.75617195397408"><ele>8.857142857142856</ele><time>2026-04-05T09:21:18Z</time></trkpt><trkpt lat="43.96534563168635" lon="12.756258945732487"><ele>9.285714285714285</ele><time>2026-04-05T09:21:20Z</time></trkpt><trkpt lat="43.96531648509548" lon="12.756375467759291"><ele>9.714285714285714</ele><time>2026-04-05T09:21:23Z</time></trkpt><trkpt lat="43.96532710706964" lon="12.756472076113747"><ele>10.142857142857142</ele><time>2026-04-05T09:21:27Z</time></trkpt><trkpt lat="43.96527960474024" lon="12.756535868143756"><ele>10.571428571428571</ele><time>2026-04-05T09:21:32Z</time></trkpt><trkpt lat="43.96534936017868" lon="12.756569227326091"><ele>11.0</ele><time>2026-04-05T09:21:36Z</time></trkpt><trkpt lat="43.965414797835564" lon="12.756623471246476"><ele>11.0</ele><time>2026-04-05T09:21:39Z</time></trkpt><trkpt lat="43.96549031743899" lon="12.756684468102867"><ele>11.0</ele><time>2026-04-05T09:21:42Z</time></trkpt><trkpt lat="43.965539402688876" lon="12.756774343429198"><ele>11.0</ele><time>2026-04-05T09:21:45Z</time></trkpt><trkpt lat="43.96556959717928" lon="12.756864959625773"><ele>11.0</ele><time>2026-04-05T09:21:48Z</time></trkpt><trkpt lat="43.96560263127437" lon="12.757031888646305"><ele>11.0</ele><time>2026-04-05T09:21:52Z</time></trkpt><trkpt lat="43.96561928623303" lon="12.757116717048861"><ele>11.0</ele><time>2026-04-05T09:21:54Z</time></trkpt><trkpt lat="43.96562813852966" lon="12.757236584279173"><ele>11.833333333333332</ele><time>2026-04-05T09:21:57Z</time></trkpt><trkpt lat="43.9656380957194" lon="12.757333029223627"><ele>12.666666666666666</ele><time>2026-04-05T09:22:00Z</time></trkpt><trkpt lat="43.96567337266268" lon="12.757415212759561"><ele>13.5</ele><time>2026-04-05T09:22:03Z</time></trkpt><trkpt lat="43.96569791763627" lon="12.757529510395972"><ele>14.333333333333332</ele><time>2026-04-05T09:22:06Z</time></trkpt><trkpt lat="43.96574394825078" lon="12.757614233056465"><ele>15.166666666666666</ele><time>2026-04-05T09:22:08Z</time></trkpt><trkpt lat="43.96577470872386" lon="12.757694456715956"><ele>16.0</ele><time>2026-04-05T09:22:10Z</time></trkpt><trkpt lat="43.96584068774907" lon="12.75777200246427"><ele>14.833333333333332</ele><time>2026-04-05T09:22:12Z</time></trkpt><trkpt lat="43.965866067190134" lon="12.757907052793284"><ele>13.666666666666666</ele><time>2026-04-05T09:22:16Z</time></trkpt><trkpt lat="43.96590698686911" lon="12.75801383360269"><ele>12.5</ele><time>2026-04-05T09:22:19Z</time></trkpt><trkpt lat="43.965910715965464" lon="12.758103687862443"><ele>11.333333333333332</ele><time>2026-04-05T09:22:21Z</time></trkpt><trkpt lat="43.96593844140436" lon="12.758201173048194"><ele>10.166666666666666</ele><time>2026-04-05T09:22:24Z</time></trkpt><trkpt lat="43.96595036198244" lon="12.758331739146547"><ele>9.0</ele><time>2026-04-05T09:22:27Z</time></trkpt><trkpt lat="43.96596341981777" lon="12.75841990715468"><ele>8.833333333333334</ele><time>2026-04-05T09:22:29Z</time></trkpt><trkpt lat="43.965969871931186" lon="12.758536863490066"><ele>8.666666666666666</ele><time>2026-04-05T09:22:32Z</time></trkpt><trkpt lat="43.965970771079256" lon="12.75863154290097"><ele>8.5</ele><time>2026-04-05T09:22:35Z</time></trkpt><trkpt lat="43.965913698446506" lon="12.7587188988496"><ele>8.333333333333332</ele><time>2026-04-05T09:22:38Z</time></trkpt><trkpt lat="43.965844245184854" lon="12.758774465830832"><ele>8.166666666666666</ele><time>2026-04-05T09:22:41Z</time></trkpt><trkpt lat="43.965770828276966" lon="12.758801849996923"><ele>8.0</ele><time>2026-04-05T09:22:44Z</time></trkpt><trkpt lat="43.96571430641088" lon="12.758866040198901"><ele>9.285714285714285</ele><time>2026-04-05T09:22:47Z</time></trkpt><trkpt lat="43.96567485972533" lon="12.758941363792317"><ele>10.57142857142857</ele><time>2026-04-05T09:22:50Z</time></trkpt><trkpt lat="43.9656615130238" lon="12.759048753762364"><ele>11.857142857142856</ele><time>2026-04-05T09:22:54Z</time></trkpt><trkpt lat="43.96563422135173" lon="12.759129142954308"><ele>13.142857142857142</ele><time>2026-04-05T09:22:56Z</time></trkpt><trkpt lat="43.965595244831626" lon="12.759233409421542"><ele>14.428571428571427</ele><time>2026-04-05T09:22:59Z</time></trkpt><trkpt lat="43.965548736441974" lon="12.759298638912295"><ele>15.714285714285712</ele><time>2026-04-05T09:23:02Z</time></trkpt><trkpt lat="43.96549527919158" lon="12.75936577377594"><ele>17.0</ele><time>2026-04-05T09:23:06Z</time></trkpt><trkpt lat="43.96544540998569" lon="12.75944989948299"><ele>17.166666666666668</ele><time>2026-04-05T09:23:09Z</time></trkpt><trkpt lat="43.96541311772387" lon="12.759564782003475"><ele>17.333333333333336</ele><time>2026-04-05T09:23:12Z</time></trkpt><trkpt lat="43.96538403494029" lon="12.759652663964598"><ele>17.5</ele><time>2026-04-05T09:23:14Z</time></trkpt><trkpt lat="43.965329015924794" lon="12.759725658379201"><ele>17.666666666666668</ele><time>2026-04-05T09:23:16Z</time></trkpt><trkpt lat="43.96525032318184" lon="12.759698921151422"><ele>17.833333333333332</ele><time>2026-04-05T09:23:19Z</time></trkpt><trkpt lat="43.9651765656146" lon="12.759640921071364"><ele>18.0</ele><time>2026-04-05T09:23:23Z</time></trkpt><trkpt lat="43.96508948954406" lon="12.759655430685264"><ele>19.42857142857143</ele><time>2026-04-05T09:23:26Z</time></trkpt><trkpt lat="43.96501553365266" lon="12.759656794658644"><ele>20.857142857142858</ele><time>2026-04-05T09:23:29Z</time></trkpt><trkpt lat="43.96494190182536" lon="12.7596264557315"><ele>22.285714285714285</ele><time>2026-04-05T09:23:32Z</time></trkpt><trkpt lat="43.96485566530068" lon="12.759633809018815"><ele>23.714285714285715</ele><time>2026-04-05T09:23:35Z</time></trkpt><trkpt lat="43.96479112780415" lon="12.759660243805788"><ele>25.142857142857142</ele><time>2026-04-05T09:23:38Z</time></trkpt><trkpt lat="43.96472409150691" lon="12.759675041191588"><ele>26.571428571428573</ele><time>2026-04-05T09:23:41Z</time></trkpt><trkpt lat="43.96465352663212" lon="12.759694312406616"><ele>28.0</ele><time>2026-04-05T09:23:45Z</time></trkpt><trkpt lat="43.96456710933871" lon="12.759697871910403"><ele>28.0</ele><time>2026-04-05T09:23:49Z</time></trkpt><trkpt lat="43.96448879689434" lon="12.75966921518719"><ele>28.0</ele><time>2026-04-05T09:23:53Z</time></trkpt><trkpt lat="43.96441351776455" lon="12.759668193629947"><ele>28.0</ele><time>2026-04-05T09:23:57Z</time></trkpt><trkpt lat="43.964341674240124" lon="12.759621565328516"><ele>28.0</ele><time>2026-04-05T09:24:01Z</time></trkpt><trkpt lat="43.96427244612942" lon="12.759609227367656"><ele>28.0</ele><time>2026-04-05T09:24:05Z</time></trkpt><trkpt lat="43.96421125001247" lon="12.759581856364047"><ele>28.0</ele><time>2026-04-05T09:24:08Z</time></trkpt><trkpt lat="43.96416191551639" lon="12.759519239205323"><ele>28.0</ele><time>2026-04-05T09:24:11Z</time></trkpt><trkpt lat="43.96408373138783" lon="12.759513825694517"><ele>29.857142857142858</ele><time>2026-04-05T09:24:16Z</time></trkpt><trkpt lat="43.9640189746017" lon="12.759542637666675"><ele>31.714285714285715</ele><time>2026-04-05T09:24:20Z</time></trkpt><trkpt lat="43.963960957630036" lon="12.759585885206956"><ele>33.57142857142857</ele><time>2026-04-05T09:24:23Z</time></trkpt><trkpt lat="43.96389262681356" lon="12.759606095354998"><ele>35.42857142857143</ele><time>2026-04-05T09:24:26Z</time></trkpt><trkpt lat="43.963822324177684" lon="12.759643973546337"><ele>37.285714285714285</ele><time>2026-04-05T09:24:30Z</time></trkpt><trkpt lat="43.963748946259045" lon="12.759672809467833"><ele>39.14285714285714</ele><time>2026-04-05T09:24:34Z</time></trkpt><trkpt lat="43.963686052614925" lon="12.759667582658064"><ele>41.0</ele><time>2026-04-05T09:24:39Z</time></trkpt><trkpt lat="43.96362335783187" lon="12.759685778890006"><ele>40.99999999999999</ele><time>2026-04-05T09:24:43Z</time></trkpt><trkpt lat="43.963556592341625" lon="12.759682349975183"><ele>41.0</ele><time>2026-04-05T09:24:47Z</time></trkpt><trkpt lat="43.96349298644243" lon="12.759692315147262"><ele>41.0</ele><time>2026-04-05T09:24:51Z</time></trkpt><trkpt lat="43.96342178059319" lon="12.759689756602707"><ele>41.0</ele><time>2026-04-05T09:24:56Z</time></trkpt><trkpt lat="43.96336573939911" lon="12.759739081716672"><ele>41.0</ele><time>2026-04-05T09:25:01Z</time></trkpt><trkpt lat="43.963295042431895" lon="12.759808880465144"><ele>40.99999999999999</ele><time>2026-04-05T09:25:06Z</time></trkpt><trkpt lat="43.96325870653961" lon="12.759883236364836"><ele>41.0</ele><time>2026-04-05T09:25:10Z</time></trkpt><trkpt lat="43.96326959244945" lon="12.75999555248388"><ele>43.14285714285714</ele><time>2026-04-05T09:25:14Z</time></trkpt><trkpt lat="43.963288044759224" lon="12.76009652937388"><ele>45.285714285714285</ele><time>2026-04-05T09:25:18Z</time></trkpt><trkpt lat="43.96330356692899" lon="12.760189425667441"><ele>47.42857142857143</ele><time>2026-04-05T09:25:22Z</time></trkpt><trkpt lat="43.96331355915147" lon="12.760287074936443"><ele>49.57142857142857</ele><time>2026-04-05T09:25:26Z</time></trkpt><trkpt lat="43.963314050515216" lon="12.760381515263676"><ele>51.714285714285715</ele><time>2026-04-05T09:25:30Z</time></trkpt><trkpt lat="43.96332855255478" lon="12.760486760749915"><ele>53.857142857142854</ele><time>2026-04-05T09:25:35Z</time></trkpt><trkpt lat="43.963321294970996" lon="12.760591511486387"><ele>56.0</ele><time>2026-04-05T09:25:39Z</time></trkpt><trkpt lat="43.96330821153352" lon="12.760697186919174"><ele>55.57142857142857</ele><time>2026-04-05T09:25:44Z</time></trkpt><trkpt lat="43.963317558880675" lon="12.760784331431697"><ele>55.14285714285714</ele><time>2026-04-05T09:25:47Z</time></trkpt><trkpt lat="43.96335327083541" lon="12.760870885572151"><ele>54.714285714285715</ele><time>2026-04-05T09:25:50Z</time></trkpt><trkpt lat="43.96339265926172" lon="12.760966636447208"><ele>54.285714285714285</ele><time>2026-04-05T09:25:54Z</time></trkpt><trkpt lat="43.963404542122085" lon="12.761066426176383"><ele>53.857142857142854</ele><time>2026-04-05T09:25:57Z</time></trkpt><trkpt lat="43.96339005412988" lon="12.761158326513678"><ele>53.42857142857143</ele><time>2026-04-05T09:26:00Z</time></trkpt><trkpt lat="43.96338546044543" lon="12.761247700950705"><ele>53.0</ele><time>2026-04-05T09:26:04Z</time></trkpt><trkpt lat="43.963337569161865" lon="12.761342115517055"><ele>55.85714285714286</ele><time>2026-04-05T09:26:07Z</time></trkpt><trkpt lat="43.963306993877694" lon="12.761426350111773"><ele>58.71428571428571</ele><time>2026-04-05T09:26:10Z</time></trkpt><trkpt lat="43.96326894210459" lon="12.761511477691787"><ele>61.57142857142857</ele><time>2026-04-05T09:26:13Z</time></trkpt><trkpt lat="43.96322126018045" lon="12.76158436058984"><ele>64.42857142857143</ele><time>2026-04-05T09:26:16Z</time></trkpt><trkpt lat="43.96319906963228" lon="12.761673857883588"><ele>67.28571428571429</ele><time>2026-04-05T09:26:19Z</time></trkpt><trkpt lat="43.963155972466865" lon="12.761768981017298"><ele>70.14285714285714</ele><time>2026-04-05T09:26:23Z</time></trkpt><trkpt lat="43.96311037255505" lon="12.761838756514123"><ele>73.0</ele><time>2026-04-05T09:26:26Z</time></trkpt><trkpt lat="43.96306474241573" lon="12.761941786039156"><ele>73.42857142857143</ele><time>2026-04-05T09:26:30Z</time></trkpt><trkpt lat="43.963041854014776" lon="12.762024993983083"><ele>73.85714285714286</ele><time>2026-04-05T09:26:33Z</time></trkpt><trkpt lat="43.962997242653934" lon="12.762121655683462"><ele>74.28571428571428</ele><time>2026-04-05T09:26:37Z</time></trkpt><trkpt lat="43.96297264299802" lon="12.762206861164834"><ele>74.71428571428572</ele><time>2026-04-05T09:26:40Z</time></trkpt><trkpt lat="43.96295347040018" lon="12.762305959257139"><ele>75.14285714285715</ele><time>2026-04-05T09:26:43Z</time></trkpt><trkpt lat="43.962934007778706" lon="12.76239217672657"><ele>75.57142857142857</ele><time>2026-04-05T09:26:46Z</time></trkpt><trkpt lat="43.96292786433557" lon="12.762508828565524"><ele>76.0</ele><time>2026-04-05T09:26:50Z</time></trkpt><trkpt lat="43.962915527821195" lon="12.762622837105486"><ele>75.83333333333333</ele><time>2026-04-05T09:26:54Z</time></trkpt><trkpt lat="43.96291786056191" lon="12.762731442481412"><ele>75.66666666666666</ele><time>2026-04-05T09:26:58Z</time></trkpt><trkpt lat="43.96292139423172" lon="12.762846221527635"><ele>75.5</ele><time>2026-04-05T09:27:02Z</time></trkpt><trkpt lat="43.96292637969654" lon="12.76295883677688"><ele>75.33333333333333</ele><time>2026-04-05T09:27:06Z</time></trkpt><trkpt lat="43.962932026273116" lon="12.763055177516039"><ele>75.16666666666667</ele><time>2026-04-05T09:27:09Z</time></trkpt><trkpt lat="43.962950326005966" lon="12.763145328252765"><ele>75.0</ele><time>2026-04-05T09:27:12Z</time></trkpt><trkpt lat="43.9629486384202" lon="12.76325208674308"><ele>74.99999999999999</ele><time>2026-04-05T09:27:15Z</time></trkpt><trkpt lat="43.96295956822386" lon="12.763341111502305"><ele>75.0</ele><time>2026-04-05T09:27:18Z</time></trkpt><trkpt lat="43.962972793135904" lon="12.763441030996898"><ele>75.0</ele><time>2026-04-05T09:27:22Z</time></trkpt><trkpt lat="43.96298581093933" lon="12.763547577164303"><ele>75.0</ele><time>2026-04-05T09:27:25Z</time></trkpt><trkpt lat="43.96299675380109" lon="12.763642095856795"><ele>75.0</ele><time>2026-04-05T09:27:28Z</time></trkpt><trkpt lat="43.96301537874238" lon="12.763728190464533"><ele>74.99999999999999</ele><time>2026-04-05T09:27:31Z</time></trkpt><trkpt lat="43.96301918660127" lon="12.76381638901203"><ele>75.0</ele><time>2026-04-05T09:27:34Z</time></trkpt><trkpt lat="43.96302532262733" lon="12.763915016305356"><ele>74.66666666666667</ele><time>2026-04-05T09:27:37Z</time></trkpt><trkpt lat="43.96304414998078" lon="12.764020726918577"><ele>74.33333333333333</ele><time>2026-04-05T09:27:41Z</time></trkpt><trkpt lat="43.963060763020984" lon="12.764120133486916"><ele>74.0</ele><time>2026-04-05T09:27:44Z</time></trkpt><trkpt lat="43.963078113632385" lon="12.764226219945268"><ele>73.66666666666666</ele><time>2026-04-05T09:27:47Z</time></trkpt><trkpt lat="43.963087180613634" lon="12.764337942769812"><ele>73.33333333333333</ele><time>2026-04-05T09:27:51Z</time></trkpt><trkpt lat="43.96310352654067" lon="12.76445020488983"><ele>73.0</ele><time>2026-04-05T09:27:55Z</time></trkpt><trkpt lat="43.96311482712631" lon="12.764548877880316"><ele>73.83333333333333</ele><time>2026-04-05T09:27:58Z</time></trkpt><trkpt lat="43.96312488204015" lon="12.76466164008331"><ele>74.66666666666666</ele><time>2026-04-05T09:28:01Z</time></trkpt><trkpt lat="43.96311838744024" lon="12.76478990396341"><ele>75.5</ele><time>2026-04-05T09:28:04Z</time></trkpt><trkpt lat="43.963131822709194" lon="12.764890938055629"><ele>76.33333333333333</ele><time>2026-04-05T09:28:07Z</time></trkpt><trkpt lat="43.9631316441265" lon="12.765003867081257"><ele>77.16666666666667</ele><time>2026-04-05T09:28:10Z</time></trkpt><trkpt lat="43.96314671943757" lon="12.76508987836359"><ele>78.0</ele><time>2026-04-05T09:28:13Z</time></trkpt><trkpt lat="43.96316812895135" lon="12.765183689384521"><ele>79.5</ele><time>2026-04-05T09:28:16Z</time></trkpt><trkpt lat="43.963181680243416" lon="12.765296875699716"><ele>81.0</ele><time>2026-04-05T09:28:20Z</time></trkpt><trkpt lat="43.963192354210406" lon="12.765409430304443"><ele>82.5</ele><time>2026-04-05T09:28:23Z</time></trkpt><trkpt lat="43.96320940204709" lon="12.765514966876422"><ele>84.0</ele><time>2026-04-05T09:28:26Z</time></trkpt><trkpt lat="43.963220602641954" lon="12.765619042052027"><ele>85.5</ele><time>2026-04-05T09:28:29Z</time></trkpt><trkpt lat="43.96323579346622" lon="12.765710155220011"><ele>87.0</ele><time>2026-04-05T09:28:33Z</time></trkpt><trkpt lat="43.963260770157355" lon="12.765801283553527"><ele>87.0</ele><time>2026-04-05T09:28:37Z</time></trkpt><trkpt lat="43.96330929383797" lon="12.765914564510698"><ele>87.0</ele><time>2026-04-05T09:28:40Z</time></trkpt><trkpt lat="43.963331804810274" lon="12.766013019685856"><ele>87.0</ele><time>2026-04-05T09:28:43Z</time></trkpt><trkpt lat="43.96335502962167" lon="12.766114395354432"><ele>87.0</ele><time>2026-04-05T09:28:46Z</time></trkpt><trkpt lat="43.963382962786824" lon="12.76621289538398"><ele>87.0</ele><time>2026-04-05T09:28:49Z</time></trkpt><trkpt lat="43.963408633978155" lon="12.7662951504554"><ele>87.0</ele><time>2026-04-05T09:28:52Z</time></trkpt><trkpt lat="43.963432557095224" lon="12.76640169416252"><ele>85.14285714285714</ele><time>2026-04-05T09:28:56Z</time></trkpt><trkpt lat="43.96346012078683" lon="12.766497073043183"><ele>83.28571428571429</ele><time>2026-04-05T09:28:59Z</time></trkpt><trkpt lat="43.96347542109008" lon="12.766597426261411"><ele>81.42857142857143</ele><time>2026-04-05T09:29:02Z</time></trkpt><trkpt lat="43.96348152372784" lon="12.766702847070608"><ele>79.57142857142857</ele><time>2026-04-05T09:29:05Z</time></trkpt><trkpt lat="43.963474597604495" lon="12.76679250590919"><ele>77.71428571428571</ele><time>2026-04-05T09:29:08Z</time></trkpt><trkpt lat="43.963460912405374" lon="12.76688599810283"><ele>75.85714285714286</ele><time>2026-04-05T09:29:11Z</time></trkpt><trkpt lat="43.96345034964128" lon="12.766991356563706"><ele>74.0</ele><time>2026-04-05T09:29:14Z</time></trkpt><trkpt lat="43.96344762929612" lon="12.767091141217785"><ele>74.0</ele><time>2026-04-05T09:29:17Z</time></trkpt><trkpt lat="43.96342835677749" lon="12.767214181994747"><ele>74.0</ele><time>2026-04-05T09:29:21Z</time></trkpt><trkpt lat="43.963427386806295" lon="12.7673138790712"><ele>74.0</ele><time>2026-04-05T09:29:24Z</time></trkpt><trkpt lat="43.963438188725334" lon="12.767400791191667"><ele>74.0</ele><time>2026-04-05T09:29:27Z</time></trkpt><trkpt lat="43.96345872042213" lon="12.76751986257201"><ele>74.0</ele><time>2026-04-05T09:29:30Z</time></trkpt><trkpt lat="43.96348227619784" lon="12.76760784529042"><ele>74.0</ele><time>2026-04-05T09:29:33Z</time></trkpt><trkpt lat="43.963499536022624" lon="12.767717632098158"><ele>74.71428571428572</ele><time>2026-04-05T09:29:37Z</time></trkpt><trkpt lat="43.96351857124833" lon="12.767833508509623"><ele>75.42857142857143</ele><time>2026-04-05T09:29:41Z</time></trkpt><trkpt lat="43.963539504823984" lon="12.767919356128283"><ele>76.14285714285714</ele><time>2026-04-05T09:29:44Z</time></trkpt><trkpt lat="43.963566143975335" lon="12.768026559695581"><ele>76.85714285714286</ele><time>2026-04-05T09:29:47Z</time></trkpt><trkpt lat="43.96359469332036" lon="12.768106702188023"><ele>77.57142857142857</ele><time>2026-04-05T09:29:50Z</time></trkpt><trkpt lat="43.96360503250641" lon="12.768197212681986"><ele>78.28571428571429</ele><time>2026-04-05T09:29:53Z</time></trkpt><trkpt lat="43.96361079975347" lon="12.768305489505394"><ele>79.0</ele><time>2026-04-05T09:29:56Z</time></trkpt><trkpt lat="43.963596314755925" lon="12.768401688429066"><ele>79.0</ele><time>2026-04-05T09:29:59Z</time></trkpt><trkpt lat="43.96357051433983" lon="12.768499778890309"><ele>79.0</ele><time>2026-04-05T09:30:02Z</time></trkpt><trkpt lat="43.9635462029341" lon="12.768614197653879"><ele>79.0</ele><time>2026-04-05T09:30:05Z</time></trkpt><trkpt lat="43.963520106373764" lon="12.768726994585307"><ele>79.0</ele><time>2026-04-05T09:30:08Z</time></trkpt><trkpt lat="43.96349226499547" lon="12.768829226882957"><ele>79.0</ele><time>2026-04-05T09:30:11Z</time></trkpt><trkpt lat="43.96346309065535" lon="12.76891040305263"><ele>79.0</ele><time>2026-04-05T09:30:14Z</time></trkpt><trkpt lat="43.96344621784891" lon="12.76901777477743"><ele>79.5</ele><time>2026-04-05T09:30:17Z</time></trkpt><trkpt lat="43.96344534846952" lon="12.769127429806472"><ele>80.0</ele><time>2026-04-05T09:30:20Z</time></trkpt><trkpt lat="43.9634526824259" lon="12.76923972478177"><ele>80.5</ele><time>2026-04-05T09:30:24Z</time></trkpt><trkpt lat="43.96345583758407" lon="12.769351546473013"><ele>81.0</ele><time>2026-04-05T09:30:27Z</time></trkpt><trkpt lat="43.96347531667901" lon="12.76945799819103"><ele>81.5</ele><time>2026-04-05T09:30:31Z</time></trkpt><trkpt lat="43.9634860133446" lon="12.769549801119314"><ele>82.0</ele><time>2026-04-05T09:30:34Z</time></trkpt><trkpt lat="43.963493115620075" lon="12.769637098509374"><ele>82.28571428571428</ele><time>2026-04-05T09:30:37Z</time></trkpt><trkpt lat="43.96350170230302" lon="12.769741017896877"><ele>82.57142857142857</ele><time>2026-04-05T09:30:41Z</time></trkpt><trkpt lat="43.96348076531875" lon="12.76983284229525"><ele>82.85714285714286</ele><time>2026-04-05T09:30:44Z</time></trkpt><trkpt lat="43.963475800083735" lon="12.7699439549059"><ele>83.14285714285714</ele><time>2026-04-05T09:30:48Z</time></trkpt><trkpt lat="43.96346096218962" lon="12.770042116899718"><ele>83.42857142857143</ele><time>2026-04-05T09:30:51Z</time></trkpt><trkpt lat="43.96342484467784" lon="12.77013937589734"><ele>83.71428571428571</ele><time>2026-04-05T09:30:54Z</time></trkpt><trkpt lat="43.96340047758973" lon="12.770222070845756"><ele>84.0</ele><time>2026-04-05T09:30:57Z</time></trkpt><trkpt lat="43.96338167899257" lon="12.77032633129396"><ele>88.83333333333333</ele><time>2026-04-05T09:31:01Z</time></trkpt><trkpt lat="43.96336088777572" lon="12.770433758746227"><ele>93.66666666666666</ele><time>2026-04-05T09:31:04Z</time></trkpt><trkpt lat="43.96335182801144" lon="12.770522909789955"><ele>98.5</ele><time>2026-04-05T09:31:07Z</time></trkpt><trkpt lat="43.96335486878917" lon="12.770654989039173"><ele>103.33333333333333</ele><time>2026-04-05T09:31:11Z</time></trkpt><trkpt lat="43.963355466142325" lon="12.770753201467924"><ele>108.16666666666666</ele><time>2026-04-05T09:31:14Z</time></trkpt><trkpt lat="43.96335258246793" lon="12.770863833975659"><ele>113.0</ele><time>2026-04-05T09:31:18Z</time></trkpt><trkpt lat="43.96336326847446" lon="12.770952785174417"><ele>111.33333333333333</ele><time>2026-04-05T09:31:21Z</time></trkpt><trkpt lat="43.96337951954642" lon="12.771052560925767"><ele>109.66666666666666</ele><time>2026-04-05T09:31:24Z</time></trkpt><trkpt lat="43.96341132165318" lon="12.77117437334849"><ele>108.0</ele><time>2026-04-05T09:31:28Z</time></trkpt><trkpt lat="43.96341373300446" lon="12.771278263625895"><ele>106.33333333333334</ele><time>2026-04-05T09:31:31Z</time></trkpt><trkpt lat="43.96341404198266" lon="12.77141036460399"><ele>104.66666666666667</ele><time>2026-04-05T09:31:35Z</time></trkpt><trkpt lat="43.963428802577475" lon="12.771503019175746"><ele>103.0</ele><time>2026-04-05T09:31:39Z</time></trkpt><trkpt lat="43.963434269032675" lon="12.771625886321697"><ele>102.99999999999999</ele><time>2026-04-05T09:31:43Z</time></trkpt><trkpt lat="43.96343643695116" lon="12.771730737084935"><ele>103.0</ele><time>2026-04-05T09:31:48Z</time></trkpt><trkpt lat="43.96346554060964" lon="12.771832730306068"><ele>103.0</ele><time>2026-04-05T09:31:52Z</time></trkpt><trkpt lat="43.96351272317223" lon="12.771897317868598"><ele>103.0</ele><time>2026-04-05T09:31:55Z</time></trkpt><trkpt lat="43.9635415668658" lon="12.771977295417486"><ele>103.0</ele><time>2026-04-05T09:31:59Z</time></trkpt><trkpt lat="43.96350063613844" lon="12.772045662257971"><ele>102.99999999999999</ele><time>2026-04-05T09:32:02Z</time></trkpt><trkpt lat="43.963459605810144" lon="12.772115963575024"><ele>103.0</ele><time>2026-04-05T09:32:04Z</time></trkpt><trkpt lat="43.96342019430498" lon="12.772206582898393"><ele>105.83333333333334</ele><time>2026-04-05T09:32:06Z</time></trkpt><trkpt lat="43.963373298995414" lon="12.772290860983802"><ele>108.66666666666667</ele><time>2026-04-05T09:32:09Z</time></trkpt><trkpt lat="43.96333933563141" lon="12.77238957746362"><ele>111.5</ele><time>2026-04-05T09:32:11Z</time></trkpt><trkpt lat="43.963309187296325" lon="12.77252036070924"><ele>114.33333333333334</ele><time>2026-04-05T09:32:14Z</time></trkpt><trkpt lat="43.963268937061" lon="12.772609031567955"><ele>117.16666666666667</ele><time>2026-04-05T09:32:17Z</time></trkpt><trkpt lat="43.96323277309554" lon="12.772686554202958"><ele>120.0</ele><time>2026-04-05T09:32:20Z</time></trkpt><trkpt lat="43.96318393666098" lon="12.772753438947131"><ele>121.5</ele><time>2026-04-05T09:32:23Z</time></trkpt><trkpt lat="43.9631463490828" lon="12.772844899190597"><ele>123.0</ele><time>2026-04-05T09:32:26Z</time></trkpt><trkpt lat="43.96310450676142" lon="12.772927006393317"><ele>124.5</ele><time>2026-04-05T09:32:28Z</time></trkpt><trkpt lat="43.963049166484566" lon="12.773021620464656"><ele>126.0</ele><time>2026-04-05T09:32:31Z</time></trkpt><trkpt lat="43.96297929151552" lon="12.773096052032594"><ele>127.5</ele><time>2026-04-05T09:32:34Z</time></trkpt><trkpt lat="43.962935370624244" lon="12.77318268802774"><ele>129.0</ele><time>2026-04-05T09:32:37Z</time></trkpt><trkpt lat="43.96290170292038" lon="12.7732692136463"><ele>129.0</ele><time>2026-04-05T09:32:39Z</time></trkpt><trkpt lat="43.96284342670041" lon="12.773380588005617"><ele>129.0</ele><time>2026-04-05T09:32:42Z</time></trkpt><trkpt lat="43.96276497900918" lon="12.773425859012509"><ele>129.0</ele><time>2026-04-05T09:32:45Z</time></trkpt><trkpt lat="43.96270682477035" lon="12.773480163720253"><ele>129.0</ele><time>2026-04-05T09:32:47Z</time></trkpt><trkpt lat="43.96271384255651" lon="12.773576709088935"><ele>129.0</ele><time>2026-04-05T09:32:49Z</time></trkpt><trkpt lat="43.96278061072359" lon="12.773644901045618"><ele>129.0</ele><time>2026-04-05T09:32:51Z</time></trkpt><trkpt lat="43.96283693917262" lon="12.773710224782377"><ele>127.42857142857142</ele><time>2026-04-05T09:32:54Z</time></trkpt><trkpt lat="43.96288010607851" lon="12.773788189599626"><ele>125.85714285714286</ele><time>2026-04-05T09:33:19Z</time></trkpt><trkpt lat="43.962904723367004" lon="12.773890712876868"><ele>124.28571428571428</ele><time>2026-04-05T09:33:23Z</time></trkpt><trkpt lat="43.96294601027995" lon="12.773969327183538"><ele>122.71428571428571</ele><time>2026-04-05T09:33:25Z</time></trkpt><trkpt lat="43.96299630568942" lon="12.774022042400087"><ele>121.14285714285714</ele><time>2026-04-05T09:33:27Z</time></trkpt><trkpt lat="43.9630619381294" lon="12.77411316180822"><ele>119.57142857142857</ele><time>2026-04-05T09:33:30Z</time></trkpt><trkpt lat="43.963115671086214" lon="12.774175288494575"><ele>118.0</ele><time>2026-04-05T09:33:33Z</time></trkpt><trkpt lat="43.963178339700626" lon="12.774234288075542"><ele>118.00000000000001</ele><time>2026-04-05T09:33:36Z</time></trkpt><trkpt lat="43.963251165955015" lon="12.774311092469691"><ele>118.0</ele><time>2026-04-05T09:33:39Z</time></trkpt><trkpt lat="43.963310785496446" lon="12.774402833124283"><ele>118.0</ele><time>2026-04-05T09:33:42Z</time></trkpt><trkpt lat="43.96334121482199" lon="12.77448346936043"><ele>118.0</ele><time>2026-04-05T09:33:44Z</time></trkpt><trkpt lat="43.963388662721165" lon="12.774566500303983"><ele>118.00000000000001</ele><time>2026-04-05T09:33:46Z</time></trkpt><trkpt lat="43.963428885016214" lon="12.774661798659285"><ele>118.0</ele><time>2026-04-05T09:33:49Z</time></trkpt><trkpt lat="43.96349593650036" lon="12.77474493119562"><ele>115.42857142857143</ele><time>2026-04-05T09:33:52Z</time></trkpt><trkpt lat="43.96354955329503" lon="12.774807138196394"><ele>112.85714285714286</ele><time>2026-04-05T09:33:54Z</time></trkpt><trkpt lat="43.96362528450452" lon="12.774890987179958"><ele>110.28571428571429</ele><time>2026-04-05T09:33:57Z</time></trkpt><trkpt lat="43.96366568357349" lon="12.77495923693414"><ele>107.71428571428572</ele><time>2026-04-05T09:33:59Z</time></trkpt><trkpt lat="43.96370203504944" lon="12.775051144559804"><ele>105.14285714285714</ele><time>2026-04-05T09:34:01Z</time></trkpt><trkpt lat="43.96374777154428" lon="12.775113445429204"><ele>102.57142857142858</ele><time>2026-04-05T09:34:03Z</time></trkpt><trkpt lat="43.96379074251792" lon="12.775178923621837"><ele>100.0</ele><time>2026-04-05T09:34:05Z</time></trkpt><trkpt lat="43.96384220623088" lon="12.775255773170297"><ele>98.33333333333334</ele><time>2026-04-05T09:34:07Z</time></trkpt><trkpt lat="43.96388923197349" lon="12.775323131326902"><ele>96.66666666666667</ele><time>2026-04-05T09:34:09Z</time></trkpt><trkpt lat="43.96392787199747" lon="12.775404275371368"><ele>95.0</ele><time>2026-04-05T09:34:11Z</time></trkpt><trkpt lat="43.963980173444085" lon="12.775500141405091"><ele>93.33333333333334</ele><time>2026-04-05T09:34:14Z</time></trkpt><trkpt lat="43.96400067161703" lon="12.77563547323221"><ele>91.66666666666667</ele><time>2026-04-05T09:34:18Z</time></trkpt><trkpt lat="43.964015721913086" lon="12.775758571962232"><ele>90.0</ele><time>2026-04-05T09:34:20Z</time></trkpt><trkpt lat="43.96402364255832" lon="12.775866874754227"><ele>90.0</ele><time>2026-04-05T09:34:22Z</time></trkpt><trkpt lat="43.96402935627265" lon="12.775987855106765"><ele>90.0</ele><time>2026-04-05T09:34:25Z</time></trkpt><trkpt lat="43.96403029477812" lon="12.776116082808175"><ele>90.0</ele><time>2026-04-05T09:34:28Z</time></trkpt><trkpt lat="43.9640384927181" lon="12.776215780269613"><ele>90.0</ele><time>2026-04-05T09:34:30Z</time></trkpt><trkpt lat="43.96402451299392" lon="12.776319887669327"><ele>90.0</ele><time>2026-04-05T09:34:34Z</time></trkpt><trkpt lat="43.96402116118328" lon="12.776418857736328"><ele>90.0</ele><time>2026-04-05T09:34:37Z</time></trkpt><trkpt lat="43.96401577978229" lon="12.77650918217902"><ele>89.16666666666667</ele><time>2026-04-05T09:34:39Z</time></trkpt><trkpt lat="43.96401168346378" lon="12.776607307944222"><ele>88.33333333333333</ele><time>2026-04-05T09:34:42Z</time></trkpt><trkpt lat="43.96400430262695" lon="12.776701037015691"><ele>87.5</ele><time>2026-04-05T09:34:44Z</time></trkpt><trkpt lat="43.96400163705676" lon="12.77679042751909"><ele>86.66666666666666</ele><time>2026-04-05T09:34:47Z</time></trkpt><trkpt lat="43.96399888698731" lon="12.776895537352635"><ele>85.83333333333333</ele><time>2026-04-05T09:34:50Z</time></trkpt><trkpt lat="43.963989015215944" lon="12.777053364497123"><ele>85.0</ele><time>2026-04-05T09:34:53Z</time></trkpt><trkpt lat="43.96397726976244" lon="12.77715281841211"><ele>84.16666666666666</ele><time>2026-04-05T09:34:55Z</time></trkpt><trkpt lat="43.96397610354343" lon="12.777259977585235"><ele>83.33333333333333</ele><time>2026-04-05T09:34:58Z</time></trkpt><trkpt lat="43.96394535909382" lon="12.777370742616199"><ele>82.5</ele><time>2026-04-05T09:35:01Z</time></trkpt><trkpt lat="43.96391269804973" lon="12.777483003174332"><ele>81.66666666666667</ele><time>2026-04-05T09:35:04Z</time></trkpt><trkpt lat="43.963889551463225" lon="12.77758073576077"><ele>80.83333333333334</ele><time>2026-04-05T09:35:07Z</time></trkpt><trkpt lat="43.96383967572556" lon="12.77766180450447"><ele>80.0</ele><time>2026-04-05T09:35:10Z</time></trkpt><trkpt lat="43.9637973126415" lon="12.777738109704929"><ele>80.0</ele><time>2026-04-05T09:35:13Z</time></trkpt><trkpt lat="43.96373111582473" lon="12.777804065441869"><ele>80.0</ele><time>2026-04-05T09:35:16Z</time></trkpt><trkpt lat="43.96369091811653" lon="12.777884621932566"><ele>80.0</ele><time>2026-04-05T09:35:19Z</time></trkpt><trkpt lat="43.963633633735675" lon="12.777946628664493"><ele>80.0</ele><time>2026-04-05T09:35:22Z</time></trkpt><trkpt lat="43.96357511672318" lon="12.778005421180241"><ele>80.0</ele><time>2026-04-05T09:35:26Z</time></trkpt><trkpt lat="43.96350628491348" lon="12.778046445819149"><ele>80.0</ele><time>2026-04-05T09:35:29Z</time></trkpt><trkpt lat="43.96343434508914" lon="12.778110370661624"><ele>80.0</ele><time>2026-04-05T09:35:33Z</time></trkpt><trkpt lat="43.963370920524476" lon="12.778139435457774"><ele>80.0</ele><time>2026-04-05T09:35:36Z</time></trkpt><trkpt lat="43.963304120523645" lon="12.778185483847263"><ele>80.0</ele><time>2026-04-05T09:35:39Z</time></trkpt><trkpt lat="43.96322557413021" lon="12.77823263479091"><ele>80.0</ele><time>2026-04-05T09:35:42Z</time></trkpt><trkpt lat="43.96313957731208" lon="12.778267759353264"><ele>80.0</ele><time>2026-04-05T09:35:45Z</time></trkpt><trkpt lat="43.963067284109094" lon="12.778304496890925"><ele>80.0</ele><time>2026-04-05T09:35:48Z</time></trkpt><trkpt lat="43.9629772245441" lon="12.778311903025134"><ele>82.66666666666667</ele><time>2026-04-05T09:35:51Z</time></trkpt><trkpt lat="43.962889459906975" lon="12.77831654459218"><ele>85.33333333333334</ele><time>2026-04-05T09:35:54Z</time></trkpt><trkpt lat="43.96281272759027" lon="12.77831989948329"><ele>88.0</ele><time>2026-04-05T09:35:57Z</time></trkpt><trkpt lat="43.962734830061656" lon="12.778301965758345"><ele>90.66666666666667</ele><time>2026-04-05T09:36:00Z</time></trkpt><trkpt lat="43.962652301686994" lon="12.778287471257247"><ele>93.33333333333333</ele><time>2026-04-05T09:36:03Z</time></trkpt><trkpt lat="43.96257555972963" lon="12.778269645231148"><ele>96.0</ele><time>2026-04-05T09:36:06Z</time></trkpt><trkpt lat="43.962502475407824" lon="12.778272596011039"><ele>96.0</ele><time>2026-04-05T09:36:09Z</time></trkpt><trkpt lat="43.962417518211986" lon="12.778288189999637"><ele>96.0</ele><time>2026-04-05T09:36:12Z</time></trkpt><trkpt lat="43.962342508771286" lon="12.778335792727427"><ele>96.0</ele><time>2026-04-05T09:36:15Z</time></trkpt><trkpt lat="43.962306533368704" lon="12.778435694607937"><ele>96.0</ele><time>2026-04-05T09:36:18Z</time></trkpt><trkpt lat="43.96228858552638" lon="12.778537663024618"><ele>96.0</ele><time>2026-04-05T09:36:21Z</time></trkpt><trkpt lat="43.96230540656665" lon="12.778628326166276"><ele>96.0</ele><time>2026-04-05T09:36:24Z</time></trkpt><trkpt lat="43.96231586261177" lon="12.778731358040973"><ele>97.66666666666667</ele><time>2026-04-05T09:36:27Z</time></trkpt><trkpt lat="43.96233735811333" lon="12.778837007492234"><ele>99.33333333333334</ele><time>2026-04-05T09:36:30Z</time></trkpt><trkpt lat="43.96236830534968" lon="12.7789530358596"><ele>101.0</ele><time>2026-04-05T09:36:34Z</time></trkpt><trkpt lat="43.96239272452009" lon="12.77903591537598"><ele>102.66666666666667</ele><time>2026-04-05T09:36:37Z</time></trkpt><trkpt lat="43.962427187608434" lon="12.779135314581273"><ele>104.33333333333334</ele><time>2026-04-05T09:36:40Z</time></trkpt><trkpt lat="43.962448708717446" lon="12.779218778154934"><ele>106.0</ele><time>2026-04-05T09:36:43Z</time></trkpt><trkpt lat="43.96245793120751" lon="12.779323023618415"><ele>106.57142857142857</ele><time>2026-04-05T09:36:46Z</time></trkpt><trkpt lat="43.96246263135867" lon="12.77942017972026"><ele>107.14285714285714</ele><time>2026-04-05T09:36:49Z</time></trkpt><trkpt lat="43.9624847196776" lon="12.779509088681928"><ele>107.71428571428571</ele><time>2026-04-05T09:36:52Z</time></trkpt><trkpt lat="43.962468250007696" lon="12.779595620243876"><ele>108.28571428571428</ele><time>2026-04-05T09:36:54Z</time></trkpt><trkpt lat="43.962496726422444" lon="12.779698851115308"><ele>108.85714285714286</ele><time>2026-04-05T09:36:58Z</time></trkpt><trkpt lat="43.96248413158582" lon="12.779805629454314"><ele>109.42857142857142</ele><time>2026-04-05T09:37:01Z</time></trkpt><trkpt lat="43.96245328785001" lon="12.779899221317914"><ele>110.0</ele><time>2026-04-05T09:37:04Z</time></trkpt><trkpt lat="43.9624591117031" lon="12.78000142031338"><ele>109.99999999999999</ele><time>2026-04-05T09:37:07Z</time></trkpt><trkpt lat="43.96243878232952" lon="12.780091355156577"><ele>110.0</ele><time>2026-04-05T09:37:10Z</time></trkpt><trkpt lat="43.96240694736965" lon="12.780190818137399"><ele>110.0</ele><time>2026-04-05T09:37:13Z</time></trkpt><trkpt lat="43.96240087247915" lon="12.780300267106833"><ele>110.0</ele><time>2026-04-05T09:37:16Z</time></trkpt><trkpt lat="43.962366006863434" lon="12.780403201274806"><ele>110.0</ele><time>2026-04-05T09:37:19Z</time></trkpt><trkpt lat="43.96234123365964" lon="12.78050251082457"><ele>109.99999999999999</ele><time>2026-04-05T09:37:23Z</time></trkpt><trkpt lat="43.96231676368335" lon="12.780588611609476"><ele>110.0</ele><time>2026-04-05T09:37:26Z</time></trkpt><trkpt lat="43.96227610920921" lon="12.78067167453921"><ele>111.14285714285714</ele><time>2026-04-05T09:37:29Z</time></trkpt><trkpt lat="43.9622289907575" lon="12.780770985568891"><ele>112.28571428571428</ele><time>2026-04-05T09:37:33Z</time></trkpt><trkpt lat="43.96217875443595" lon="12.780856123030548"><ele>113.42857142857142</ele><time>2026-04-05T09:37:36Z</time></trkpt><trkpt lat="43.96215486821836" lon="12.780962000385982"><ele>114.57142857142857</ele><time>2026-04-05T09:37:39Z</time></trkpt><trkpt lat="43.96211915758163" lon="12.781047123278507"><ele>115.71428571428572</ele><time>2026-04-05T09:37:42Z</time></trkpt><trkpt lat="43.96208743334413" lon="12.781126933071535"><ele>116.85714285714285</ele><time>2026-04-05T09:37:45Z</time></trkpt><trkpt lat="43.96205677430853" lon="12.781211572367635"><ele>118.0</ele><time>2026-04-05T09:37:48Z</time></trkpt><trkpt lat="43.96203835282619" lon="12.781302547013643"><ele>118.16666666666667</ele><time>2026-04-05T09:37:51Z</time></trkpt><trkpt lat="43.96200651988718" lon="12.781395083756921"><ele>118.33333333333334</ele><time>2026-04-05T09:37:54Z</time></trkpt><trkpt lat="43.961969402169984" lon="12.781491163813444"><ele>118.5</ele><time>2026-04-05T09:37:58Z</time></trkpt><trkpt lat="43.96194034247021" lon="12.781588864247063"><ele>118.66666666666666</ele><time>2026-04-05T09:38:02Z</time></trkpt><trkpt lat="43.96189824672846" lon="12.781689403443073"><ele>118.83333333333333</ele><time>2026-04-05T09:38:06Z</time></trkpt><trkpt lat="43.96186405596982" lon="12.781787877274077"><ele>119.0</ele><time>2026-04-05T09:38:09Z</time></trkpt><trkpt lat="43.96183387044296" lon="12.781869535495023"><ele>119.14285714285714</ele><time>2026-04-05T09:38:12Z</time></trkpt><trkpt lat="43.961800741986615" lon="12.781971260323665"><ele>119.28571428571428</ele><time>2026-04-05T09:38:16Z</time></trkpt><trkpt lat="43.961773267230456" lon="12.782080008530592"><ele>119.42857142857143</ele><time>2026-04-05T09:38:19Z</time></trkpt><trkpt lat="43.961752503969926" lon="12.782168850460625"><ele>119.57142857142857</ele><time>2026-04-05T09:38:21Z</time></trkpt><trkpt lat="43.961720921999856" lon="12.782253770213762"><ele>119.71428571428571</ele><time>2026-04-05T09:38:24Z</time></trkpt><trkpt lat="43.96168217193867" lon="12.782328042449034"><ele>119.85714285714286</ele><time>2026-04-05T09:38:26Z</time></trkpt><trkpt lat="43.961637143524534" lon="12.782424879903237"><ele>120.0</ele><time>2026-04-05T09:38:29Z</time></trkpt><trkpt lat="43.96159405512345" lon="12.782506477969216"><ele>120.0</ele><time>2026-04-05T09:38:32Z</time></trkpt><trkpt lat="43.96155807536109" lon="12.782602494164383"><ele>120.0</ele><time>2026-04-05T09:38:35Z</time></trkpt><trkpt lat="43.96150305060355" lon="12.782677815482806"><ele>120.0</ele><time>2026-04-05T09:38:38Z</time></trkpt><trkpt lat="43.96145856292883" lon="12.78277490632018"><ele>120.0</ele><time>2026-04-05T09:38:42Z</time></trkpt><trkpt lat="43.9614179631311" lon="12.782847981663119"><ele>120.0</ele><time>2026-04-05T09:38:45Z</time></trkpt><trkpt lat="43.96137059032923" lon="12.782941221011704"><ele>120.0</ele><time>2026-04-05T09:38:48Z</time></trkpt><trkpt lat="43.96131426319293" lon="12.78301174907687"><ele>119.16666666666667</ele><time>2026-04-05T09:38:50Z</time></trkpt><trkpt lat="43.96126747075507" lon="12.783081274418512"><ele>118.33333333333334</ele><time>2026-04-05T09:38:52Z</time></trkpt><trkpt lat="43.96120906875103" lon="12.783164010698405"><ele>117.5</ele><time>2026-04-05T09:38:55Z</time></trkpt><trkpt lat="43.96115402648617" lon="12.783210169720515"><ele>116.66666666666667</ele><time>2026-04-05T09:38:57Z</time></trkpt><trkpt lat="43.96108360704935" lon="12.783280339128964"><ele>115.83333333333334</ele><time>2026-04-05T09:39:00Z</time></trkpt><trkpt lat="43.96101126590362" lon="12.783340350824417"><ele>115.0</ele><time>2026-04-05T09:39:03Z</time></trkpt><trkpt lat="43.96093289721659" lon="12.783383788061814"><ele>115.83333333333334</ele><time>2026-04-05T09:39:06Z</time></trkpt><trkpt lat="43.960840616489236" lon="12.783424305572241"><ele>116.66666666666667</ele><time>2026-04-05T09:39:09Z</time></trkpt><trkpt lat="43.96075716253539" lon="12.783463080943344"><ele>117.5</ele><time>2026-04-05T09:39:12Z</time></trkpt><trkpt lat="43.96067208525345" lon="12.783488141511853"><ele>118.33333333333334</ele><time>2026-04-05T09:39:15Z</time></trkpt><trkpt lat="43.96059300267275" lon="12.783497278128877"><ele>119.16666666666667</ele><time>2026-04-05T09:39:18Z</time></trkpt><trkpt lat="43.9605324227942" lon="12.78346369033845"><ele>120.0</ele><time>2026-04-05T09:39:20Z</time></trkpt><trkpt lat="43.96043898156623" lon="12.783442554493222"><ele>120.0</ele><time>2026-04-05T09:39:23Z</time></trkpt><trkpt lat="43.96035410829302" lon="12.783418691542654"><ele>120.0</ele><time>2026-04-05T09:39:26Z</time></trkpt><trkpt lat="43.96026921526668" lon="12.783391526792405"><ele>120.0</ele><time>2026-04-05T09:39:30Z</time></trkpt><trkpt lat="43.96018868837614" lon="12.783390149315103"><ele>120.0</ele><time>2026-04-05T09:39:33Z</time></trkpt><trkpt lat="43.96013288704973" lon="12.783432309015064"><ele>120.0</ele><time>2026-04-05T09:39:37Z</time></trkpt><trkpt lat="43.96015284616734" lon="12.783527534381296"><ele>120.0</ele><time>2026-04-05T09:39:41Z</time></trkpt><trkpt lat="43.96013485188089" lon="12.783645949775352"><ele>117.14285714285715</ele><time>2026-04-05T09:39:44Z</time></trkpt><trkpt lat="43.96017774739304" lon="12.783736792007366"><ele>114.28571428571428</ele><time>2026-04-05T09:39:50Z</time></trkpt><trkpt lat="43.96023872590603" lon="12.783709035823966"><ele>111.42857142857143</ele><time>2026-04-05T09:39:54Z</time></trkpt><trkpt lat="43.96030686178824" lon="12.783692770647756"><ele>108.57142857142858</ele><time>2026-04-05T09:39:58Z</time></trkpt><trkpt lat="43.960375532703" lon="12.783710643213745"><ele>105.71428571428572</ele><time>2026-04-05T09:40:01Z</time></trkpt><trkpt lat="43.96045273505492" lon="12.783762710132317"><ele>102.85714285714286</ele><time>2026-04-05T09:40:04Z</time></trkpt><trkpt lat="43.96051910000585" lon="12.783729022423964"><ele>100.0</ele><time>2026-04-05T09:40:09Z</time></trkpt><trkpt lat="43.960604810322586" lon="12.783718559806818"><ele>100.00000000000001</ele><time>2026-04-05T09:40:13Z</time></trkpt><trkpt lat="43.96067346186268" lon="12.78372210899854"><ele>100.0</ele><time>2026-04-05T09:40:15Z</time></trkpt><trkpt lat="43.96075366593616" lon="12.7837392252809"><ele>100.0</ele><time>2026-04-05T09:40:18Z</time></trkpt><trkpt lat="43.960803784342986" lon="12.783805815282218"><ele>100.0</ele><time>2026-04-05T09:40:21Z</time></trkpt><trkpt lat="43.96085662207828" lon="12.783877680300254"><ele>100.0</ele><time>2026-04-05T09:40:24Z</time></trkpt><trkpt lat="43.96091437585651" lon="12.78393230378144"><ele>100.00000000000001</ele><time>2026-04-05T09:40:28Z</time></trkpt><trkpt lat="43.96094390077324" lon="12.784021317461425"><ele>100.0</ele><time>2026-04-05T09:40:31Z</time></trkpt><trkpt lat="43.96095840217036" lon="12.784129749399362"><ele>99.66666666666667</ele><time>2026-04-05T09:40:35Z</time></trkpt><trkpt lat="43.96090928762817" lon="12.784197598143605"><ele>99.33333333333334</ele><time>2026-04-05T09:41:03Z</time></trkpt><trkpt lat="43.960999826187326" lon="12.784222611584468"><ele>99.0</ele><time>2026-04-05T09:42:50Z</time></trkpt><trkpt lat="43.96106947310583" lon="12.78430309421305"><ele>98.66666666666666</ele><time>2026-04-05T09:42:54Z</time></trkpt><trkpt lat="43.961048443496836" lon="12.784395691518988"><ele>98.33333333333333</ele><time>2026-04-05T09:42:57Z</time></trkpt><trkpt lat="43.96101276667229" lon="12.784481369518375"><ele>98.0</ele><time>2026-04-05T09:43:00Z</time></trkpt><trkpt lat="43.961009866141" lon="12.784579153631547"><ele>94.0</ele><time>2026-04-05T09:43:04Z</time></trkpt><trkpt lat="43.96099068989817" lon="12.784681595775787"><ele>90.0</ele><time>2026-04-05T09:43:15Z</time></trkpt><trkpt lat="43.96099479444948" lon="12.784801282788196"><ele>86.0</ele><time>2026-04-05T09:43:21Z</time></trkpt><trkpt lat="43.96098464772645" lon="12.784911249737258"><ele>82.0</ele><time>2026-04-05T09:43:27Z</time></trkpt><trkpt lat="43.96095015541094" lon="12.78498865376048"><ele>78.0</ele><time>2026-04-05T09:43:30Z</time></trkpt><trkpt lat="43.96092483169665" lon="12.785078489290482"><ele>74.0</ele><time>2026-04-05T09:43:33Z</time></trkpt><trkpt lat="43.960985832758666" lon="12.78512729232105"><ele>70.0</ele><time>2026-04-05T09:43:39Z</time></trkpt><trkpt lat="43.96104168723101" lon="12.785195600405798"><ele>64.83333333333333</ele><time>2026-04-05T09:43:43Z</time></trkpt><trkpt lat="43.961087278016066" lon="12.785261738982177"><ele>59.666666666666664</ele><time>2026-04-05T09:43:47Z</time></trkpt><trkpt lat="43.96107287905889" lon="12.785358075005204"><ele>54.5</ele><time>2026-04-05T09:43:51Z</time></trkpt><trkpt lat="43.96112067993895" lon="12.78542920427375"><ele>49.33333333333333</ele><time>2026-04-05T09:43:54Z</time></trkpt><trkpt lat="43.96119625656284" lon="12.78546849925846"><ele>44.166666666666664</ele><time>2026-04-05T09:43:57Z</time></trkpt><trkpt lat="43.961230697434466" lon="12.785563373856037"><ele>39.0</ele><time>2026-04-05T09:44:01Z</time></trkpt><trkpt lat="43.96129083653588" lon="12.785662867615862"><ele>39.0</ele><time>2026-04-05T09:44:03Z</time></trkpt><trkpt lat="43.96137731672835" lon="12.785673593416396"><ele>39.0</ele><time>2026-04-05T09:44:05Z</time></trkpt><trkpt lat="43.96145043495267" lon="12.785636965239071"><ele>39.0</ele><time>2026-04-05T09:44:09Z</time></trkpt><trkpt lat="43.96151034448937" lon="12.785685269740613"><ele>39.0</ele><time>2026-04-05T09:44:12Z</time></trkpt><trkpt lat="43.96154754011806" lon="12.785784603132615"><ele>39.0</ele><time>2026-04-05T09:44:20Z</time></trkpt><trkpt lat="43.961570618059035" lon="12.785892726207967"><ele>39.0</ele><time>2026-04-05T09:44:23Z</time></trkpt><trkpt lat="43.96154552155968" lon="12.785985552940812"><ele>36.666666666666664</ele><time>2026-04-05T09:44:27Z</time></trkpt><trkpt lat="43.96148800977061" lon="12.786045485386278"><ele>34.333333333333336</ele><time>2026-04-05T09:44:29Z</time></trkpt><trkpt lat="43.96146596339757" lon="12.786131557219404"><ele>32.0</ele><time>2026-04-05T09:44:32Z</time></trkpt><trkpt lat="43.9614097286531" lon="12.786235855295528"><ele>29.666666666666668</ele><time>2026-04-05T09:44:35Z</time></trkpt><trkpt lat="43.961332560776945" lon="12.786273635041248"><ele>27.333333333333336</ele><time>2026-04-05T09:44:38Z</time></trkpt><trkpt lat="43.96126181951812" lon="12.786259064998115"><ele>25.0</ele><time>2026-04-05T09:44:41Z</time></trkpt><trkpt lat="43.96118222638031" lon="12.786271001585197"><ele>25.000000000000004</ele><time>2026-04-05T09:44:44Z</time></trkpt><trkpt lat="43.96110923236676" lon="12.78629405210979"><ele>25.0</ele><time>2026-04-05T09:44:47Z</time></trkpt><trkpt lat="43.961031876421444" lon="12.786313167212334"><ele>25.0</ele><time>2026-04-05T09:44:50Z</time></trkpt><trkpt lat="43.96096143106285" lon="12.786334913667673"><ele>25.0</ele><time>2026-04-05T09:44:53Z</time></trkpt><trkpt lat="43.960877349482445" lon="12.786376683775595"><ele>25.000000000000004</ele><time>2026-04-05T09:44:56Z</time></trkpt><trkpt lat="43.96081239667888" lon="12.786405204258545"><ele>25.0</ele><time>2026-04-05T09:44:58Z</time></trkpt><trkpt lat="43.96072540016472" lon="12.78644142944751"><ele>25.500000000000004</ele><time>2026-04-05T09:45:01Z</time></trkpt><trkpt lat="43.960651717931206" lon="12.786487217861945"><ele>26.0</ele><time>2026-04-05T09:45:04Z</time></trkpt><trkpt lat="43.960574555381775" lon="12.786554196356402"><ele>26.5</ele><time>2026-04-05T09:45:07Z</time></trkpt><trkpt lat="43.960502033652936" lon="12.786598502911954"><ele>27.0</ele><time>2026-04-05T09:45:10Z</time></trkpt><trkpt lat="43.960430096281854" lon="12.786653121565587"><ele>27.500000000000004</ele><time>2026-04-05T09:45:13Z</time></trkpt><trkpt lat="43.96036195225299" lon="12.786709423532704"><ele>28.0</ele><time>2026-04-05T09:45:16Z</time></trkpt><trkpt lat="43.960290851957524" lon="12.786749566032912"><ele>28.000000000000004</ele><time>2026-04-05T09:45:19Z</time></trkpt><trkpt lat="43.96021986916597" lon="12.786801514435732"><ele>28.0</ele><time>2026-04-05T09:45:22Z</time></trkpt><trkpt lat="43.96015778609911" lon="12.786850747027946"><ele>28.0</ele><time>2026-04-05T09:45:25Z</time></trkpt><trkpt lat="43.96007969721619" lon="12.786916048562944"><ele>28.0</ele><time>2026-04-05T09:45:28Z</time></trkpt><trkpt lat="43.96000395438331" lon="12.786961575562296"><ele>28.000000000000004</ele><time>2026-04-05T09:45:31Z</time></trkpt><trkpt lat="43.95992091430918" lon="12.787008380163766"><ele>28.0</ele><time>2026-04-05T09:45:34Z</time></trkpt><trkpt lat="43.959839447266546" lon="12.787065774593177"><ele>28.42857142857143</ele><time>2026-04-05T09:45:37Z</time></trkpt><trkpt lat="43.959767868298385" lon="12.787136672943525"><ele>28.857142857142858</ele><time>2026-04-05T09:45:40Z</time></trkpt><trkpt lat="43.959711996489666" lon="12.787179951742562"><ele>29.285714285714285</ele><time>2026-04-05T09:45:43Z</time></trkpt><trkpt lat="43.959643157645736" lon="12.787239946854365"><ele>29.714285714285715</ele><time>2026-04-05T09:45:46Z</time></trkpt><trkpt lat="43.95957527865216" lon="12.787284002989317"><ele>30.142857142857146</ele><time>2026-04-05T09:45:49Z</time></trkpt><trkpt lat="43.95952060517271" lon="12.787338809280973"><ele>30.571428571428573</ele><time>2026-04-05T09:45:52Z</time></trkpt><trkpt lat="43.959459268677506" lon="12.787390108776892"><ele>31.0</ele><time>2026-04-05T09:45:55Z</time></trkpt><trkpt lat="43.95940426578435" lon="12.787435572788624"><ele>31.000000000000004</ele><time>2026-04-05T09:45:57Z</time></trkpt><trkpt lat="43.95933994488727" lon="12.787481753096445"><ele>31.0</ele><time>2026-04-05T09:45:59Z</time></trkpt><trkpt lat="43.95927558295419" lon="12.787543251497876"><ele>31.0</ele><time>2026-04-05T09:46:02Z</time></trkpt><trkpt lat="43.959201694722914" lon="12.787590648817694"><ele>31.0</ele><time>2026-04-05T09:46:05Z</time></trkpt><trkpt lat="43.95913927630725" lon="12.787659659519521"><ele>31.000000000000004</ele><time>2026-04-05T09:46:08Z</time></trkpt><trkpt lat="43.95914485917188" lon="12.787771233738898"><ele>31.0</ele><time>2026-04-05T09:46:11Z</time></trkpt><trkpt lat="43.95919714957802" lon="12.787868412006855"><ele>32.0</ele><time>2026-04-05T09:46:14Z</time></trkpt><trkpt lat="43.95925628274132" lon="12.787953398548428"><ele>33.0</ele><time>2026-04-05T09:46:18Z</time></trkpt><trkpt lat="43.959307271171795" lon="12.788007584028058"><ele>34.0</ele><time>2026-04-05T09:46:21Z</time></trkpt><trkpt lat="43.95936413353662" lon="12.788079677153322"><ele>35.0</ele><time>2026-04-05T09:46:24Z</time></trkpt><trkpt lat="43.95942380696744" lon="12.78814926193866"><ele>36.0</ele><time>2026-04-05T09:46:27Z</time></trkpt><trkpt lat="43.95948175400971" lon="12.78821094890402"><ele>37.0</ele><time>2026-04-05T09:46:30Z</time></trkpt><trkpt lat="43.95954451018455" lon="12.788272171214379"><ele>37.0</ele><time>2026-04-05T09:46:33Z</time></trkpt><trkpt lat="43.95960549387181" lon="12.788316127079888"><ele>37.0</ele><time>2026-04-05T09:46:36Z</time></trkpt><trkpt lat="43.959665079925564" lon="12.788359584186514"><ele>37.0</ele><time>2026-04-05T09:46:39Z</time></trkpt><trkpt lat="43.9597198121922" lon="12.788432240573242"><ele>37.0</ele><time>2026-04-05T09:46:43Z</time></trkpt><trkpt lat="43.95976526976756" lon="12.788507276189321"><ele>37.0</ele><time>2026-04-05T09:46:46Z</time></trkpt><trkpt lat="43.959830672703454" lon="12.788550790822125"><ele>37.0</ele><time>2026-04-05T09:46:50Z</time></trkpt><trkpt lat="43.9598894117607" lon="12.78863075378344"><ele>37.0</ele><time>2026-04-05T09:46:54Z</time></trkpt><trkpt lat="43.95994391193199" lon="12.788679253822156"><ele>38.16666666666667</ele><time>2026-04-05T09:46:57Z</time></trkpt><trkpt lat="43.959997291860525" lon="12.788763655284939"><ele>39.333333333333336</ele><time>2026-04-05T09:47:01Z</time></trkpt><trkpt lat="43.96003686692028" lon="12.788851624023268"><ele>40.5</ele><time>2026-04-05T09:47:05Z</time></trkpt><trkpt lat="43.960094109015955" lon="12.788929605912308"><ele>41.666666666666664</ele><time>2026-04-05T09:47:09Z</time></trkpt><trkpt lat="43.96015291683417" lon="12.789013359640824"><ele>42.83333333333333</ele><time>2026-04-05T09:47:14Z</time></trkpt><trkpt lat="43.960206618082374" lon="12.789094973579687"><ele>44.0</ele><time>2026-04-05T09:47:17Z</time></trkpt><trkpt lat="43.96024053969108" lon="12.789177293332807"><ele>44.0</ele><time>2026-04-05T09:47:20Z</time></trkpt><trkpt lat="43.96027963960943" lon="12.789251203972718"><ele>44.0</ele><time>2026-04-05T09:47:24Z</time></trkpt><trkpt lat="43.960319958821195" lon="12.789328930644642"><ele>44.0</ele><time>2026-04-05T09:47:28Z</time></trkpt><trkpt lat="43.96034912240084" lon="12.789412729581297"><ele>44.0</ele><time>2026-04-05T09:47:31Z</time></trkpt><trkpt lat="43.96040129425684" lon="12.789485141600263"><ele>44.0</ele><time>2026-04-05T09:47:35Z</time></trkpt><trkpt lat="43.96046738922301" lon="12.789502376778975"><ele>44.0</ele><time>2026-04-05T09:47:38Z</time></trkpt><trkpt lat="43.960533926037606" lon="12.789504313621356"><ele>44.0</ele><time>2026-04-05T09:47:41Z</time></trkpt><trkpt lat="43.96060281636756" lon="12.789499796130716"><ele>45.0</ele><time>2026-04-05T09:47:44Z</time></trkpt><trkpt lat="43.96069753422783" lon="12.78949436433697"><ele>46.0</ele><time>2026-04-05T09:47:47Z</time></trkpt><trkpt lat="43.960765293682016" lon="12.789484883219599"><ele>47.0</ele><time>2026-04-05T09:47:50Z</time></trkpt><trkpt lat="43.96084060081708" lon="12.789463387118412"><ele>48.0</ele><time>2026-04-05T09:47:53Z</time></trkpt><trkpt lat="43.960911612188" lon="12.789445641857622"><ele>49.00000000000001</ele><time>2026-04-05T09:47:56Z</time></trkpt><trkpt lat="43.96099385315183" lon="12.789403959785531"><ele>50.0</ele><time>2026-04-05T09:47:59Z</time></trkpt><trkpt lat="43.96106029159729" lon="12.78936751607666"><ele>49.57142857142858</ele><time>2026-04-05T09:48:01Z</time></trkpt><trkpt lat="43.96112872792661" lon="12.789354671577799"><ele>49.142857142857146</ele><time>2026-04-05T09:48:03Z</time></trkpt><trkpt lat="43.96120490045933" lon="12.789320109625963"><ele>48.714285714285715</ele><time>2026-04-05T09:48:06Z</time></trkpt><trkpt lat="43.96127678900564" lon="12.789302941927371"><ele>48.28571428571429</ele><time>2026-04-05T09:48:09Z</time></trkpt><trkpt lat="43.96132337637549" lon="12.789380495948622"><ele>47.857142857142854</ele><time>2026-04-05T09:48:12Z</time></trkpt><trkpt lat="43.96136365566068" lon="12.789465890382136"><ele>47.42857142857143</ele><time>2026-04-05T09:48:15Z</time></trkpt><trkpt lat="43.96138591437609" lon="12.789560027546445"><ele>47.0</ele><time>2026-04-05T09:48:18Z</time></trkpt><trkpt lat="43.96141862521806" lon="12.789640626091687"><ele>48.714285714285715</ele><time>2026-04-05T09:48:21Z</time></trkpt><trkpt lat="43.96144582305953" lon="12.78972190659523"><ele>50.42857142857143</ele><time>2026-04-05T09:48:25Z</time></trkpt><trkpt lat="43.961462419169436" lon="12.789818494869413"><ele>52.14285714285714</ele><time>2026-04-05T09:48:29Z</time></trkpt><trkpt lat="43.96149158399452" lon="12.789899848537463"><ele>53.85714285714286</ele><time>2026-04-05T09:48:33Z</time></trkpt><trkpt lat="43.96152415039608" lon="12.78997512177722"><ele>55.57142857142858</ele><time>2026-04-05T09:48:38Z</time></trkpt><trkpt lat="43.961556124122296" lon="12.790062108763076"><ele>57.285714285714285</ele><time>2026-04-05T09:48:44Z</time></trkpt><trkpt lat="43.96161136867802" lon="12.79011155162709"><ele>59.0</ele><time>2026-04-05T09:48:51Z</time></trkpt><trkpt lat="43.96165592201854" lon="12.790174782168911"><ele>62.57142857142857</ele><time>2026-04-05T09:48:56Z</time></trkpt><trkpt lat="43.96170897297772" lon="12.790228498286881"><ele>66.14285714285714</ele><time>2026-04-05T09:49:04Z</time></trkpt><trkpt lat="43.96176683197882" lon="12.790277622567094"><ele>69.71428571428572</ele><time>2026-04-05T09:49:12Z</time></trkpt><trkpt lat="43.96181578106732" lon="12.790339911458567"><ele>73.28571428571428</ele><time>2026-04-05T09:49:18Z</time></trkpt><trkpt lat="43.96186233834847" lon="12.79040282013248"><ele>76.85714285714286</ele><time>2026-04-05T09:49:23Z</time></trkpt><trkpt lat="43.96192070315577" lon="12.790464785985954"><ele>80.42857142857143</ele><time>2026-04-05T09:49:30Z</time></trkpt><trkpt lat="43.96198298427698" lon="12.790507268576414"><ele>84.0</ele><time>2026-04-05T09:49:37Z</time></trkpt><trkpt lat="43.962039425062905" lon="12.790560127771231"><ele>84.0</ele><time>2026-04-05T09:49:43Z</time></trkpt><trkpt lat="43.962103696624226" lon="12.790584604136221"><ele>84.0</ele><time>2026-04-05T09:49:50Z</time></trkpt><trkpt lat="43.962169638124195" lon="12.79062129532747"><ele>84.0</ele><time>2026-04-05T09:49:57Z</time></trkpt><trkpt lat="43.96219930434644" lon="12.790700962237093"><ele>84.0</ele><time>2026-04-05T09:50:02Z</time></trkpt><trkpt lat="43.9622576175434" lon="12.790777479056768"><ele>84.0</ele><time>2026-04-05T09:50:05Z</time></trkpt><trkpt lat="43.962315867306714" lon="12.79083501821799"><ele>84.0</ele><time>2026-04-05T09:50:11Z</time></trkpt><trkpt lat="43.96237594988351" lon="12.790888535666852"><ele>84.0</ele><time>2026-04-05T09:50:18Z</time></trkpt><trkpt lat="43.96245266559272" lon="12.790798553312769"><ele>84.0</ele><time>2026-04-05T09:50:39Z</time></trkpt><trkpt lat="43.96251690606334" lon="12.790809185375458"><ele>84.0</ele><time>2026-04-05T09:50:45Z</time></trkpt><trkpt lat="43.96257584789284" lon="12.790749360785169"><ele>84.0</ele><time>2026-04-05T09:50:51Z</time></trkpt><trkpt lat="43.96263625979478" lon="12.790692624767464"><ele>84.0</ele><time>2026-04-05T09:50:55Z</time></trkpt><trkpt lat="43.96270092075886" lon="12.790690008769854"><ele>84.0</ele><time>2026-04-05T09:50:58Z</time></trkpt><trkpt lat="43.96277696896278" lon="12.790666734717359"><ele>84.0</ele><time>2026-04-05T09:51:02Z</time></trkpt><trkpt lat="43.96284254180041" lon="12.790704616476553"><ele>84.0</ele><time>2026-04-05T09:51:06Z</time></trkpt><trkpt lat="43.962904338746064" lon="12.790742854004588"><ele>85.0</ele><time>2026-04-05T09:51:09Z</time></trkpt><trkpt lat="43.962967774112" lon="12.790752277094686"><ele>86.0</ele><time>2026-04-05T09:51:13Z</time></trkpt><trkpt lat="43.96300791845094" lon="12.790836577523455"><ele>87.0</ele><time>2026-04-05T09:51:18Z</time></trkpt><trkpt lat="43.963024441909646" lon="12.790922135222635"><ele>88.0</ele><time>2026-04-05T09:51:24Z</time></trkpt><trkpt lat="43.96302528749567" lon="12.791014119979314"><ele>89.0</ele><time>2026-04-05T09:51:29Z</time></trkpt><trkpt lat="43.96302491455207" lon="12.791122034830703"><ele>90.0</ele><time>2026-04-05T09:51:35Z</time></trkpt><trkpt lat="43.96304373764499" lon="12.79120906541706"><ele>91.0</ele><time>2026-04-05T09:51:39Z</time></trkpt><trkpt lat="43.96308721707106" lon="12.791302322043805"><ele>89.57142857142857</ele><time>2026-04-05T09:51:45Z</time></trkpt><trkpt lat="43.96315027280076" lon="12.791339260960894"><ele>88.14285714285714</ele><time>2026-04-05T09:52:00Z</time></trkpt><trkpt lat="43.963215981720815" lon="12.791395581887233"><ele>86.71428571428572</ele><time>2026-04-05T09:52:05Z</time></trkpt><trkpt lat="43.963269999855704" lon="12.791458111152304"><ele>85.28571428571428</ele><time>2026-04-05T09:52:10Z</time></trkpt><trkpt lat="43.96333506299231" lon="12.791523182129389"><ele>83.85714285714286</ele><time>2026-04-05T09:52:14Z</time></trkpt><trkpt lat="43.963384758177945" lon="12.791603796028383"><ele>82.42857142857143</ele><time>2026-04-05T09:52:18Z</time></trkpt><trkpt lat="43.96343843862309" lon="12.791671691804487"><ele>81.0</ele><time>2026-04-05T09:52:22Z</time></trkpt><trkpt lat="43.963495765019886" lon="12.791736228190013"><ele>81.0</ele><time>2026-04-05T09:52:26Z</time></trkpt><trkpt lat="43.963543905896486" lon="12.79181555458419"><ele>81.0</ele><time>2026-04-05T09:52:30Z</time></trkpt><trkpt lat="43.96359959964703" lon="12.791878394242207"><ele>81.0</ele><time>2026-04-05T09:52:34Z</time></trkpt><trkpt lat="43.96362670806479" lon="12.791984867353243"><ele>81.0</ele><time>2026-04-05T09:52:38Z</time></trkpt><trkpt lat="43.963650409749256" lon="12.792078791095328"><ele>81.0</ele><time>2026-04-05T09:52:42Z</time></trkpt><trkpt lat="43.96368249282" lon="12.79218232882423"><ele>81.0</ele><time>2026-04-05T09:52:46Z</time></trkpt><trkpt lat="43.96370087478567" lon="12.792283397174934"><ele>81.83333333333333</ele><time>2026-04-05T09:52:50Z</time></trkpt><trkpt lat="43.963665999653806" lon="12.792367838333918"><ele>82.66666666666667</ele><time>2026-04-05T09:52:54Z</time></trkpt><trkpt lat="43.96365494049947" lon="12.792477208871285"><ele>83.5</ele><time>2026-04-05T09:52:57Z</time></trkpt><trkpt lat="43.96366247499205" lon="12.792570404305046"><ele>84.33333333333334</ele><time>2026-04-05T09:53:00Z</time></trkpt><trkpt lat="43.963669710624714" lon="12.792691010215792"><ele>85.16666666666667</ele><time>2026-04-05T09:53:03Z</time></trkpt><trkpt lat="43.963669686358365" lon="12.792802284225923"><ele>86.0</ele><time>2026-04-05T09:53:06Z</time></trkpt><trkpt lat="43.96368814700794" lon="12.792903294453454"><ele>86.0</ele><time>2026-04-05T09:53:09Z</time></trkpt><trkpt lat="43.96373207833364" lon="12.792982073729807"><ele>86.0</ele><time>2026-04-05T09:53:13Z</time></trkpt><trkpt lat="43.96373536782365" lon="12.793082892903517"><ele>86.0</ele><time>2026-04-05T09:53:17Z</time></trkpt><trkpt lat="43.96370482862628" lon="12.793189896323048"><ele>86.0</ele><time>2026-04-05T09:53:21Z</time></trkpt><trkpt lat="43.96369950733047" lon="12.79328893367509"><ele>86.0</ele><time>2026-04-05T09:53:25Z</time></trkpt><trkpt lat="43.96372785958574" lon="12.793408150479348"><ele>86.0</ele><time>2026-04-05T09:53:29Z</time></trkpt><trkpt lat="43.96374546162845" lon="12.793495092420509"><ele>87.71428571428572</ele><time>2026-04-05T09:53:32Z</time></trkpt><trkpt lat="43.963788325943874" lon="12.793569701363845"><ele>89.42857142857143</ele><time>2026-04-05T09:53:36Z</time></trkpt><trkpt lat="43.963835883150566" lon="12.793638276723495"><ele>91.14285714285714</ele><time>2026-04-05T09:53:42Z</time></trkpt><trkpt lat="43.9638870465316" lon="12.793711675571437"><ele>92.85714285714286</ele><time>2026-04-05T09:53:47Z</time></trkpt><trkpt lat="43.963910297253925" lon="12.793803426976588"><ele>94.57142857142857</ele><time>2026-04-05T09:53:51Z</time></trkpt><trkpt lat="43.963896865393906" lon="12.793897966350828"><ele>96.28571428571429</ele><time>2026-04-05T09:53:55Z</time></trkpt><trkpt lat="43.963907580961404" lon="12.794008890924585"><ele>98.0</ele><time>2026-04-05T09:54:28Z</time></trkpt><trkpt lat="43.963921035594446" lon="12.79411489569371"><ele>98.0</ele><time>2026-04-05T09:54:32Z</time></trkpt><trkpt lat="43.96393371699532" lon="12.794200682141932"><ele>98.0</ele><time>2026-04-05T09:54:35Z</time></trkpt><trkpt lat="43.96391369295063" lon="12.794289362346031"><ele>98.0</ele><time>2026-04-05T09:54:38Z</time></trkpt><trkpt lat="43.963874478516146" lon="12.794376316874148"><ele>98.0</ele><time>2026-04-05T09:54:41Z</time></trkpt><trkpt lat="43.963848345860974" lon="12.794471870781273"><ele>98.0</ele><time>2026-04-05T09:54:44Z</time></trkpt><trkpt lat="43.9638029020765" lon="12.794556844531897"><ele>98.0</ele><time>2026-04-05T09:54:48Z</time></trkpt><trkpt lat="43.96376043183442" lon="12.794647113595861"><ele>98.0</ele><time>2026-04-05T09:54:52Z</time></trkpt><trkpt lat="43.96376307378374" lon="12.794740904568837"><ele>98.14285714285714</ele><time>2026-04-05T09:54:55Z</time></trkpt><trkpt lat="43.96380134636919" lon="12.794852361502073"><ele>98.28571428571428</ele><time>2026-04-05T09:54:59Z</time></trkpt><trkpt lat="43.963807953811944" lon="12.794951870275385"><ele>98.42857142857143</ele><time>2026-04-05T09:55:02Z</time></trkpt><trkpt lat="43.96378424502441" lon="12.795045866657464"><ele>98.57142857142857</ele><time>2026-04-05T09:55:06Z</time></trkpt><trkpt lat="43.96377203828247" lon="12.795141722083823"><ele>98.71428571428571</ele><time>2026-04-05T09:55:10Z</time></trkpt><trkpt lat="43.96377130934824" lon="12.795232660712523"><ele>98.85714285714286</ele><time>2026-04-05T09:55:14Z</time></trkpt><trkpt lat="43.96374609456953" lon="12.795333155150054"><ele>99.0</ele><time>2026-04-05T09:55:18Z</time></trkpt><trkpt lat="43.96372380259348" lon="12.795415051432112"><ele>97.71428571428572</ele><time>2026-04-05T09:55:22Z</time></trkpt><trkpt lat="43.963694494426576" lon="12.795503798017574"><ele>96.42857142857142</ele><time>2026-04-05T09:55:26Z</time></trkpt><trkpt lat="43.96364631438106" lon="12.795583483917552"><ele>95.14285714285714</ele><time>2026-04-05T09:55:30Z</time></trkpt><trkpt lat="43.96359824713117" lon="12.79564221308968"><ele>93.85714285714286</ele><time>2026-04-05T09:55:34Z</time></trkpt><trkpt lat="43.963529614617535" lon="12.795689192481635"><ele>92.57142857142858</ele><time>2026-04-05T09:55:38Z</time></trkpt><trkpt lat="43.9634598736254" lon="12.795729147053226"><ele>91.28571428571428</ele><time>2026-04-05T09:55:42Z</time></trkpt><trkpt lat="43.96339773425558" lon="12.795748089734643"><ele>90.0</ele><time>2026-04-05T09:55:45Z</time></trkpt><trkpt lat="43.96332346520108" lon="12.795787339847164"><ele>92.42857142857143</ele><time>2026-04-05T09:55:49Z</time></trkpt><trkpt lat="43.96325027064907" lon="12.795804845261827"><ele>94.85714285714286</ele><time>2026-04-05T09:55:53Z</time></trkpt><trkpt lat="43.9631723133412" lon="12.795796732012612"><ele>97.28571428571429</ele><time>2026-04-05T09:55:57Z</time></trkpt><trkpt lat="43.96310797557308" lon="12.795828712982313"><ele>99.71428571428572</ele><time>2026-04-05T09:56:03Z</time></trkpt><trkpt lat="43.96306663596826" lon="12.795919596350949"><ele>102.14285714285714</ele><time>2026-04-05T09:56:31Z</time></trkpt><trkpt lat="43.96300063127494" lon="12.795961109419311"><ele>104.57142857142858</ele><time>2026-04-05T09:56:34Z</time></trkpt><trkpt lat="43.96294307103377" lon="12.796013176861493"><ele>107.0</ele><time>2026-04-05T09:56:38Z</time></trkpt><trkpt lat="43.96287202828933" lon="12.796016357248469"><ele>106.99999999999999</ele><time>2026-04-05T09:56:41Z</time></trkpt><trkpt lat="43.96281574759229" lon="12.796076570280713"><ele>107.0</ele><time>2026-04-05T09:56:44Z</time></trkpt><trkpt lat="43.962781825820635" lon="12.796168254677633"><ele>107.0</ele><time>2026-04-05T09:56:47Z</time></trkpt><trkpt lat="43.962758378068486" lon="12.79626972681377"><ele>107.0</ele><time>2026-04-05T09:56:51Z</time></trkpt><trkpt lat="43.96275652846484" lon="12.796386498000507"><ele>106.99999999999999</ele><time>2026-04-05T09:56:55Z</time></trkpt><trkpt lat="43.9627620430551" lon="12.796487014669745"><ele>107.0</ele><time>2026-04-05T09:56:59Z</time></trkpt><trkpt lat="43.962729507065916" lon="12.796587293851632"><ele>107.00000000000001</ele><time>2026-04-05T09:57:03Z</time></trkpt><trkpt lat="43.96269408841841" lon="12.796673827659978"><ele>107.0</ele><time>2026-04-05T09:57:06Z</time></trkpt><trkpt lat="43.962682359545454" lon="12.796783598245991"><ele>107.0</ele><time>2026-04-05T09:57:10Z</time></trkpt><trkpt lat="43.96264392875308" lon="12.796887394398892"><ele>107.0</ele><time>2026-04-05T09:57:14Z</time></trkpt><trkpt lat="43.96260438859452" lon="12.796957893962828"><ele>107.0</ele><time>2026-04-05T09:57:17Z</time></trkpt><trkpt lat="43.96255913833833" lon="12.797027626126333"><ele>107.00000000000001</ele><time>2026-04-05T09:57:20Z</time></trkpt><trkpt lat="43.96251679764866" lon="12.797110812240977"><ele>107.0</ele><time>2026-04-05T09:57:23Z</time></trkpt><trkpt lat="43.96247608458413" lon="12.797196836772596"><ele>110.71428571428572</ele><time>2026-04-05T09:57:26Z</time></trkpt><trkpt lat="43.96242204643749" lon="12.797246979123795"><ele>114.42857142857143</ele><time>2026-04-05T09:57:29Z</time></trkpt><trkpt lat="43.962366034719096" lon="12.797288577901346"><ele>118.14285714285714</ele><time>2026-04-05T09:57:32Z</time></trkpt><trkpt lat="43.96230190749728" lon="12.797331986723336"><ele>121.85714285714286</ele><time>2026-04-05T09:57:35Z</time></trkpt><trkpt lat="43.96224609168287" lon="12.797421103545151"><ele>125.57142857142857</ele><time>2026-04-05T09:57:38Z</time></trkpt><trkpt lat="43.962194745423254" lon="12.797472741507168"><ele>129.28571428571428</ele><time>2026-04-05T09:57:41Z</time></trkpt><trkpt lat="43.96211045830446" lon="12.797488106001014"><ele>133.0</ele><time>2026-04-05T09:57:45Z</time></trkpt><trkpt lat="43.96204082507536" lon="12.797504925897133"><ele>133.0</ele><time>2026-04-05T09:57:48Z</time></trkpt><trkpt lat="43.96195760244283" lon="12.797507467831334"><ele>133.0</ele><time>2026-04-05T09:57:51Z</time></trkpt><trkpt lat="43.961858125247396" lon="12.79756874693623"><ele>133.0</ele><time>2026-04-05T09:57:55Z</time></trkpt><trkpt lat="43.961797468415234" lon="12.797641150876524"><ele>133.0</ele><time>2026-04-05T09:57:59Z</time></trkpt><trkpt lat="43.961751822341775" lon="12.797714030901476"><ele>133.0</ele><time>2026-04-05T09:58:02Z</time></trkpt><trkpt lat="43.961726681449655" lon="12.797800019317792"><ele>133.0</ele><time>2026-04-05T09:58:05Z</time></trkpt><trkpt lat="43.96171994427218" lon="12.797901213579099"><ele>136.14285714285714</ele><time>2026-04-05T09:58:08Z</time></trkpt><trkpt lat="43.9616850475319" lon="12.798003374186816"><ele>139.28571428571428</ele><time>2026-04-05T09:58:12Z</time></trkpt><trkpt lat="43.961654064521106" lon="12.798088864423628"><ele>142.42857142857144</ele><time>2026-04-05T09:58:16Z</time></trkpt><trkpt lat="43.96160311433118" lon="12.798181009838636"><ele>145.57142857142856</ele><time>2026-04-05T09:58:20Z</time></trkpt><trkpt lat="43.96155514365494" lon="12.798243320514807"><ele>148.71428571428572</ele><time>2026-04-05T09:58:24Z</time></trkpt><trkpt lat="43.96151093305518" lon="12.798309976522393"><ele>151.85714285714286</ele><time>2026-04-05T09:58:28Z</time></trkpt><trkpt lat="43.9614463321822" lon="12.79837147052471"><ele>155.0</ele><time>2026-04-05T09:58:32Z</time></trkpt><trkpt lat="43.96138454460341" lon="12.79841839721409"><ele>155.0</ele><time>2026-04-05T09:58:36Z</time></trkpt><trkpt lat="43.96133003240878" lon="12.798468345357692"><ele>155.0</ele><time>2026-04-05T09:58:40Z</time></trkpt><trkpt lat="43.96125785388658" lon="12.79848208142159"><ele>155.0</ele><time>2026-04-05T09:58:44Z</time></trkpt><trkpt lat="43.961190325825726" lon="12.79846523169516"><ele>155.0</ele><time>2026-04-05T09:58:49Z</time></trkpt><trkpt lat="43.961163629280215" lon="12.798545649680783"><ele>155.0</ele><time>2026-04-05T09:58:56Z</time></trkpt><trkpt lat="43.961083016235854" lon="12.798570219445986"><ele>155.0</ele><time>2026-04-05T10:00:10Z</time></trkpt><trkpt lat="43.96102319202961" lon="12.798646342794564"><ele>155.0</ele><time>2026-04-05T10:00:14Z</time></trkpt><trkpt lat="43.96098471964431" lon="12.79873420577336"><ele>152.14285714285714</ele><time>2026-04-05T10:00:19Z</time></trkpt><trkpt lat="43.960970143034096" lon="12.798845025840432"><ele>149.28571428571428</ele><time>2026-04-05T10:00:23Z</time></trkpt><trkpt lat="43.96095159792788" lon="12.798931883820547"><ele>146.42857142857142</ele><time>2026-04-05T10:00:26Z</time></trkpt><trkpt lat="43.96089826772377" lon="12.798979008874225"><ele>143.57142857142856</ele><time>2026-04-05T10:00:29Z</time></trkpt><trkpt lat="43.960823446083054" lon="12.798996286633406"><ele>140.7142857142857</ele><time>2026-04-05T10:00:32Z</time></trkpt><trkpt lat="43.960750589193196" lon="12.798969004108255"><ele>137.85714285714286</ele><time>2026-04-05T10:00:35Z</time></trkpt><trkpt lat="43.960688784098174" lon="12.798920883609888"><ele>135.0</ele><time>2026-04-05T10:00:38Z</time></trkpt><trkpt lat="43.96064306688034" lon="12.798841976280526"><ele>142.66666666666666</ele><time>2026-04-05T10:00:41Z</time></trkpt><trkpt lat="43.960606503282435" lon="12.798753288136618"><ele>150.33333333333334</ele><time>2026-04-05T10:00:44Z</time></trkpt><trkpt lat="43.9605486392594" lon="12.79866376629837"><ele>158.0</ele><time>2026-04-05T10:00:47Z</time></trkpt><trkpt lat="43.96049925244966" lon="12.798590483903576"><ele>165.66666666666669</ele><time>2026-04-05T10:00:50Z</time></trkpt><trkpt lat="43.96042960521204" lon="12.79853852096596"><ele>173.33333333333334</ele><time>2026-04-05T10:00:53Z</time></trkpt><trkpt lat="43.96036697408185" lon="12.798480754212848"><ele>181.0</ele><time>2026-04-05T10:00:56Z</time></trkpt><trkpt lat="43.960300204972384" lon="12.798443060000654"><ele>181.42857142857142</ele><time>2026-04-05T10:01:00Z</time></trkpt><trkpt lat="43.960317988428514" lon="12.798353221007758"><ele>181.85714285714283</ele><time>2026-04-05T10:01:06Z</time></trkpt><trkpt lat="43.96033725003316" lon="12.798265846987228"><ele>182.28571428571428</ele><time>2026-04-05T10:01:15Z</time></trkpt><trkpt lat="43.9603332483217" lon="12.798356729550639"><ele>182.71428571428572</ele><time>2026-04-05T10:01:37Z</time></trkpt><trkpt lat="43.960295751578414" lon="12.798430696774737"><ele>183.14285714285714</ele><time>2026-04-05T10:01:43Z</time></trkpt><trkpt lat="43.96021452246267" lon="12.798399602105867"><ele>183.57142857142858</ele><time>2026-04-05T10:01:46Z</time></trkpt><trkpt lat="43.96015557443894" lon="12.798322343612961"><ele>184.0</ele><time>2026-04-05T10:01:50Z</time></trkpt><trkpt lat="43.96009315591282" lon="12.798258381270813"><ele>184.5</ele><time>2026-04-05T10:01:53Z</time></trkpt><trkpt lat="43.960033090493674" lon="12.798193655383196"><ele>185.0</ele><time>2026-04-05T10:01:57Z</time></trkpt><trkpt lat="43.95996466217978" lon="12.79812606082758"><ele>185.5</ele><time>2026-04-05T10:02:01Z</time></trkpt><trkpt lat="43.95991421165745" lon="12.798051685988986"><ele>186.0</ele><time>2026-04-05T10:02:03Z</time></trkpt><trkpt lat="43.95986161380681" lon="12.797972875392771"><ele>186.5</ele><time>2026-04-05T10:02:06Z</time></trkpt><trkpt lat="43.9597986647792" lon="12.797933286388924"><ele>187.0</ele><time>2026-04-05T10:02:09Z</time></trkpt><trkpt lat="43.959720645958605" lon="12.797878998252742"><ele>187.0</ele><time>2026-04-05T10:02:12Z</time></trkpt><trkpt lat="43.95966839900467" lon="12.797822935121086"><ele>187.0</ele><time>2026-04-05T10:02:14Z</time></trkpt><trkpt lat="43.95959755597661" lon="12.797732838964686"><ele>187.0</ele><time>2026-04-05T10:02:17Z</time></trkpt><trkpt lat="43.95952923885001" lon="12.797639438190892"><ele>187.0</ele><time>2026-04-05T10:02:20Z</time></trkpt><trkpt lat="43.959471824981364" lon="12.797576982704797"><ele>187.0</ele><time>2026-04-05T10:02:22Z</time></trkpt><trkpt lat="43.959416956843036" lon="12.797517057796844"><ele>187.0</ele><time>2026-04-05T10:02:24Z</time></trkpt><trkpt lat="43.959365564934565" lon="12.797449545492979"><ele>185.33333333333334</ele><time>2026-04-05T10:02:26Z</time></trkpt><trkpt lat="43.95931319860114" lon="12.797374930704356"><ele>183.66666666666669</ele><time>2026-04-05T10:02:29Z</time></trkpt><trkpt lat="43.959257100158446" lon="12.797301244513198"><ele>182.0</ele><time>2026-04-05T10:02:31Z</time></trkpt><trkpt lat="43.959197466618136" lon="12.797213743374032"><ele>180.33333333333334</ele><time>2026-04-05T10:02:34Z</time></trkpt><trkpt lat="43.95914589718431" lon="12.797142633469674"><ele>178.66666666666666</ele><time>2026-04-05T10:02:37Z</time></trkpt><trkpt lat="43.959094697579204" lon="12.797045528148562"><ele>177.0</ele><time>2026-04-05T10:02:40Z</time></trkpt><trkpt lat="43.95906686889638" lon="12.796941156104884"><ele>176.66666666666666</ele><time>2026-04-05T10:02:43Z</time></trkpt><trkpt lat="43.95911942591202" lon="12.796864788822925"><ele>176.33333333333334</ele><time>2026-04-05T10:02:46Z</time></trkpt><trkpt lat="43.9591537290007" lon="12.796782712495345"><ele>176.0</ele><time>2026-04-05T10:02:49Z</time></trkpt><trkpt lat="43.95923540622339" lon="12.796723069061596"><ele>175.66666666666669</ele><time>2026-04-05T10:02:53Z</time></trkpt><trkpt lat="43.95930192620455" lon="12.796662932290475"><ele>175.33333333333334</ele><time>2026-04-05T10:02:58Z</time></trkpt><trkpt lat="43.95935823531695" lon="12.79660478600037"><ele>175.0</ele><time>2026-04-05T10:03:02Z</time></trkpt><trkpt lat="43.9594150747068" lon="12.796527727583118"><ele>173.0</ele><time>2026-04-05T10:03:05Z</time></trkpt><trkpt lat="43.95945549904976" lon="12.79644253383196"><ele>171.0</ele><time>2026-04-05T10:03:07Z</time></trkpt><trkpt lat="43.95949792362958" lon="12.79636708645121"><ele>169.0</ele><time>2026-04-05T10:03:09Z</time></trkpt><trkpt lat="43.95955560249088" lon="12.796264758142883"><ele>167.0</ele><time>2026-04-05T10:03:12Z</time></trkpt><trkpt lat="43.95957562119789" lon="12.796171833780377"><ele>165.0</ele><time>2026-04-05T10:03:14Z</time></trkpt><trkpt lat="43.95959336418531" lon="12.79606178043152"><ele>163.0</ele><time>2026-04-05T10:03:17Z</time></trkpt><trkpt lat="43.95963789367323" lon="12.795969225715424"><ele>160.71428571428572</ele><time>2026-04-05T10:03:20Z</time></trkpt><trkpt lat="43.959656104758025" lon="12.795873897369107"><ele>158.42857142857142</ele><time>2026-04-05T10:03:24Z</time></trkpt><trkpt lat="43.95965661741002" lon="12.795786111072417"><ele>156.14285714285714</ele><time>2026-04-05T10:03:28Z</time></trkpt><trkpt lat="43.959638144231945" lon="12.795676900247601"><ele>153.85714285714286</ele><time>2026-04-05T10:03:32Z</time></trkpt><trkpt lat="43.95957156453592" lon="12.795627381355445"><ele>151.57142857142856</ele><time>2026-04-05T10:03:35Z</time></trkpt><trkpt lat="43.95949870586715" lon="12.79559832364768"><ele>149.28571428571428</ele><time>2026-04-05T10:03:39Z</time></trkpt><trkpt lat="43.95956424418566" lon="12.795617839732886"><ele>147.0</ele><time>2026-04-05T10:03:50Z</time></trkpt><trkpt lat="43.95949674807472" lon="12.79558292871675"><ele>147.0</ele><time>2026-04-05T10:04:02Z</time></trkpt><trkpt lat="43.95943604487958" lon="12.795513262743404"><ele>147.0</ele><time>2026-04-05T10:04:05Z</time></trkpt><trkpt lat="43.959392647784895" lon="12.795436092609016"><ele>147.0</ele><time>2026-04-05T10:04:08Z</time></trkpt><trkpt lat="43.95943031807213" lon="12.795331259402474"><ele>147.0</ele><time>2026-04-05T10:04:12Z</time></trkpt><trkpt lat="43.95946733478126" lon="12.795233313934965"><ele>147.0</ele><time>2026-04-05T10:04:17Z</time></trkpt><trkpt lat="43.959547667084216" lon="12.795068112362975"><ele>144.5</ele><time>2026-04-05T10:04:21Z</time></trkpt><trkpt lat="43.959572178054515" lon="12.794958590978334"><ele>142.0</ele><time>2026-04-05T10:04:24Z</time></trkpt><trkpt lat="43.959553184018816" lon="12.79484357419192"><ele>139.5</ele><time>2026-04-05T10:04:27Z</time></trkpt><trkpt lat="43.95952602894443" lon="12.794751039120955"><ele>137.0</ele><time>2026-04-05T10:04:30Z</time></trkpt><trkpt lat="43.959530059667415" lon="12.794647621247348"><ele>134.5</ele><time>2026-04-05T10:04:32Z</time></trkpt><trkpt lat="43.95958728319395" lon="12.794555582892421"><ele>132.0</ele><time>2026-04-05T10:04:35Z</time></trkpt><trkpt lat="43.95958134676036" lon="12.794453211562553"><ele>132.0</ele><time>2026-04-05T10:04:38Z</time></trkpt><trkpt lat="43.95953471917775" lon="12.794349267796175"><ele>132.0</ele><time>2026-04-05T10:04:41Z</time></trkpt><trkpt lat="43.95952535761334" lon="12.794252443277752"><ele>132.0</ele><time>2026-04-05T10:04:46Z</time></trkpt><trkpt lat="43.95951573386419" lon="12.794141061784558"><ele>132.0</ele><time>2026-04-05T10:04:49Z</time></trkpt><trkpt lat="43.959552785271434" lon="12.794056465908188"><ele>132.0</ele><time>2026-04-05T10:04:52Z</time></trkpt><trkpt lat="43.959570352764125" lon="12.793955418199445"><ele>132.0</ele><time>2026-04-05T10:04:56Z</time></trkpt><trkpt lat="43.95961415001512" lon="12.793883395723201"><ele>129.5</ele><time>2026-04-05T10:04:59Z</time></trkpt><trkpt lat="43.959641431778394" lon="12.793803928187735"><ele>127.0</ele><time>2026-04-05T10:05:02Z</time></trkpt><trkpt lat="43.95965590761176" lon="12.793711586384012"><ele>124.5</ele><time>2026-04-05T10:05:04Z</time></trkpt><trkpt lat="43.95957264225315" lon="12.793647466801088"><ele>122.0</ele><time>2026-04-05T10:05:07Z</time></trkpt><trkpt lat="43.959598685145785" lon="12.793534686721022"><ele>119.5</ele><time>2026-04-05T10:05:11Z</time></trkpt><trkpt lat="43.95952371540811" lon="12.793544432150577"><ele>117.0</ele><time>2026-04-05T10:05:15Z</time></trkpt><trkpt lat="43.95945945470412" lon="12.793521204794741"><ele>114.33333333333333</ele><time>2026-04-05T10:05:18Z</time></trkpt><trkpt lat="43.95938236919535" lon="12.793486158395543"><ele>111.66666666666666</ele><time>2026-04-05T10:05:21Z</time></trkpt><trkpt lat="43.959334446070095" lon="12.793389402011778"><ele>109.0</ele><time>2026-04-05T10:05:24Z</time></trkpt><trkpt lat="43.959353985986915" lon="12.793290892291374"><ele>106.33333333333333</ele><time>2026-04-05T10:05:27Z</time></trkpt><trkpt lat="43.959374341452644" lon="12.793185736242105"><ele>103.66666666666666</ele><time>2026-04-05T10:05:31Z</time></trkpt><trkpt lat="43.959433040991286" lon="12.79312972466642"><ele>101.0</ele><time>2026-04-05T10:05:33Z</time></trkpt><trkpt lat="43.959408162748986" lon="12.793020495802017"><ele>100.99999999999999</ele><time>2026-04-05T10:05:36Z</time></trkpt><trkpt lat="43.95932322534277" lon="12.792952287300523"><ele>101.0</ele><time>2026-04-05T10:05:39Z</time></trkpt><trkpt lat="43.959268463082964" lon="12.792851896210905"><ele>101.0</ele><time>2026-04-05T10:05:42Z</time></trkpt><trkpt lat="43.95922100604389" lon="12.792737012592191"><ele>101.0</ele><time>2026-04-05T10:05:45Z</time></trkpt><trkpt lat="43.959201000899576" lon="12.792620594361471"><ele>100.99999999999999</ele><time>2026-04-05T10:05:48Z</time></trkpt><trkpt lat="43.95919583547587" lon="12.792511372045592"><ele>101.0</ele><time>2026-04-05T10:05:51Z</time></trkpt><trkpt lat="43.959199102338914" lon="12.79240014153151"><ele>101.16666666666666</ele><time>2026-04-05T10:05:54Z</time></trkpt><trkpt lat="43.95918604105602" lon="12.792309207908364"><ele>101.33333333333333</ele><time>2026-04-05T10:05:56Z</time></trkpt><trkpt lat="43.959201934369474" lon="12.792195491682516"><ele>101.5</ele><time>2026-04-05T10:05:59Z</time></trkpt><trkpt lat="43.95918788087951" lon="12.792064907643795"><ele>101.66666666666666</ele><time>2026-04-05T10:06:02Z</time></trkpt><trkpt lat="43.95919079591451" lon="12.791968534982106"><ele>101.83333333333333</ele><time>2026-04-05T10:06:04Z</time></trkpt><trkpt lat="43.959181045641635" lon="12.791870858057349"><ele>102.0</ele><time>2026-04-05T10:06:06Z</time></trkpt><trkpt lat="43.95917946249049" lon="12.791781137167195"><ele>100.16666666666667</ele><time>2026-04-05T10:06:08Z</time></trkpt><trkpt lat="43.959165756500695" lon="12.791691668792215"><ele>98.33333333333333</ele><time>2026-04-05T10:06:10Z</time></trkpt><trkpt lat="43.95916588007378" lon="12.791595499568011"><ele>96.5</ele><time>2026-04-05T10:06:12Z</time></trkpt><trkpt lat="43.95914963235496" lon="12.791461561106363"><ele>94.66666666666666</ele><time>2026-04-05T10:06:15Z</time></trkpt><trkpt lat="43.95912979098391" lon="12.791346020658647"><ele>92.83333333333333</ele><time>2026-04-05T10:06:18Z</time></trkpt><trkpt lat="43.95907872052827" lon="12.791283115820448"><ele>91.0</ele><time>2026-04-05T10:06:20Z</time></trkpt><trkpt lat="43.95899477372591" lon="12.791255842091372"><ele>91.0</ele><time>2026-04-05T10:06:23Z</time></trkpt><trkpt lat="43.95890021499888" lon="12.791260901765185"><ele>91.0</ele><time>2026-04-05T10:06:26Z</time></trkpt><trkpt lat="43.95881629062765" lon="12.791307334183994"><ele>91.0</ele><time>2026-04-05T10:06:29Z</time></trkpt><trkpt lat="43.958744779849056" lon="12.791352508210984"><ele>91.0</ele><time>2026-04-05T10:06:32Z</time></trkpt><trkpt lat="43.95867728920023" lon="12.791404575546506"><ele>91.0</ele><time>2026-04-05T10:06:35Z</time></trkpt><trkpt lat="43.958606853536125" lon="12.791438384354564"><ele>91.0</ele><time>2026-04-05T10:06:38Z</time></trkpt><trkpt lat="43.95852136876775" lon="12.791454451181028"><ele>91.0</ele><time>2026-04-05T10:06:41Z</time></trkpt><trkpt lat="43.95843139510589" lon="12.79148650519522"><ele>91.0</ele><time>2026-04-05T10:06:44Z</time></trkpt><trkpt lat="43.958361422555036" lon="12.79153018628576"><ele>91.0</ele><time>2026-04-05T10:06:46Z</time></trkpt><trkpt lat="43.958285934340424" lon="12.791559052976755"><ele>91.0</ele><time>2026-04-05T10:06:49Z</time></trkpt><trkpt lat="43.958211244831155" lon="12.791567317277435"><ele>91.0</ele><time>2026-04-05T10:06:51Z</time></trkpt><trkpt lat="43.95812839430957" lon="12.79156949919666"><ele>91.0</ele><time>2026-04-05T10:06:54Z</time></trkpt><trkpt lat="43.958034099556976" lon="12.791576375943977"><ele>91.5</ele><time>2026-04-05T10:06:57Z</time></trkpt><trkpt lat="43.957948553720584" lon="12.791617377834186"><ele>92.0</ele><time>2026-04-05T10:07:00Z</time></trkpt><trkpt lat="43.957853630402944" lon="12.791656374952254"><ele>92.5</ele><time>2026-04-05T10:07:03Z</time></trkpt><trkpt lat="43.95779250934854" lon="12.791679129299228"><ele>93.0</ele><time>2026-04-05T10:07:05Z</time></trkpt><trkpt lat="43.95770740067977" lon="12.791714167743585"><ele>93.5</ele><time>2026-04-05T10:07:08Z</time></trkpt><trkpt lat="43.95762531992691" lon="12.791740147144525"><ele>94.0</ele><time>2026-04-05T10:07:11Z</time></trkpt><trkpt lat="43.95754328866968" lon="12.791780763319748"><ele>92.66666666666666</ele><time>2026-04-05T10:07:14Z</time></trkpt><trkpt lat="43.957475353931564" lon="12.791790382775174"><ele>91.33333333333333</ele><time>2026-04-05T10:07:16Z</time></trkpt><trkpt lat="43.9574015136021" lon="12.791792902485074"><ele>90.0</ele><time>2026-04-05T10:07:19Z</time></trkpt><trkpt lat="43.95733790575909" lon="12.791800836848118"><ele>88.66666666666667</ele><time>2026-04-05T10:07:21Z</time></trkpt><trkpt lat="43.95725093888803" lon="12.791838202263298"><ele>87.33333333333334</ele><time>2026-04-05T10:07:24Z</time></trkpt><trkpt lat="43.95717494966498" lon="12.791844105770638"><ele>86.0</ele><time>2026-04-05T10:07:27Z</time></trkpt><trkpt lat="43.957079167818414" lon="12.791853990821506"><ele>88.42857142857143</ele><time>2026-04-05T10:07:30Z</time></trkpt><trkpt lat="43.956998417469116" lon="12.791862858764052"><ele>90.85714285714286</ele><time>2026-04-05T10:07:33Z</time></trkpt><trkpt lat="43.95693379024085" lon="12.791897940967267"><ele>93.28571428571428</ele><time>2026-04-05T10:07:35Z</time></trkpt><trkpt lat="43.956868571835486" lon="12.791931126466359"><ele>95.71428571428572</ele><time>2026-04-05T10:07:37Z</time></trkpt><trkpt lat="43.956796283746186" lon="12.791991229829117"><ele>98.14285714285714</ele><time>2026-04-05T10:07:40Z</time></trkpt><trkpt lat="43.95673779519868" lon="12.792024935365719"><ele>100.57142857142857</ele><time>2026-04-05T10:07:44Z</time></trkpt><trkpt lat="43.95678020790323" lon="12.791942235718935"><ele>103.0</ele><time>2026-04-05T10:07:50Z</time></trkpt><trkpt lat="43.956845437320695" lon="12.791886863794177"><ele>100.57142857142857</ele><time>2026-04-05T10:07:53Z</time></trkpt><trkpt lat="43.95691593092969" lon="12.791827834802818"><ele>98.14285714285714</ele><time>2026-04-05T10:07:57Z</time></trkpt><trkpt lat="43.95698978896539" lon="12.79182773598501"><ele>95.71428571428572</ele><time>2026-04-05T10:08:01Z</time></trkpt><trkpt lat="43.95705683878331" lon="12.791804295073153"><ele>93.28571428571428</ele><time>2026-04-05T10:08:05Z</time></trkpt><trkpt lat="43.95712911074335" lon="12.791772377226827"><ele>90.85714285714286</ele><time>2026-04-05T10:08:08Z</time></trkpt><trkpt lat="43.95719392479911" lon="12.791762090666518"><ele>88.42857142857143</ele><time>2026-04-05T10:08:11Z</time></trkpt><trkpt lat="43.957258235540394" lon="12.791748404234633"><ele>86.0</ele><time>2026-04-05T10:08:14Z</time></trkpt><trkpt lat="43.9573284477228" lon="12.791740404466049"><ele>86.0</ele><time>2026-04-05T10:08:17Z</time></trkpt><trkpt lat="43.957410511047925" lon="12.791722182147074"><ele>86.0</ele><time>2026-04-05T10:08:20Z</time></trkpt><trkpt lat="43.95748821093992" lon="12.791681776730154"><ele>86.0</ele><time>2026-04-05T10:08:23Z</time></trkpt><trkpt lat="43.957568575771994" lon="12.791659045290892"><ele>86.0</ele><time>2026-04-05T10:08:26Z</time></trkpt><trkpt lat="43.957655513904335" lon="12.791642911393312"><ele>86.0</ele><time>2026-04-05T10:08:29Z</time></trkpt><trkpt lat="43.957720811765334" lon="12.79162904174344"><ele>86.0</ele><time>2026-04-05T10:08:32Z</time></trkpt><trkpt lat="43.95778709447791" lon="12.791585114303642"><ele>87.33333333333334</ele><time>2026-04-05T10:08:35Z</time></trkpt><trkpt lat="43.95782018811271" lon="12.791509889047433"><ele>88.66666666666667</ele><time>2026-04-05T10:08:40Z</time></trkpt><trkpt lat="43.957865458450215" lon="12.791422701653369"><ele>90.0</ele><time>2026-04-05T10:08:43Z</time></trkpt><trkpt lat="43.957925625450024" lon="12.791393645460163"><ele>91.33333333333333</ele><time>2026-04-05T10:08:46Z</time></trkpt><trkpt lat="43.958000552339314" lon="12.791340868843895"><ele>92.66666666666666</ele><time>2026-04-05T10:08:50Z</time></trkpt><trkpt lat="43.958068225634875" lon="12.791272935709927"><ele>94.0</ele><time>2026-04-05T10:08:53Z</time></trkpt><trkpt lat="43.95814715999894" lon="12.791232749970114"><ele>94.0</ele><time>2026-04-05T10:08:56Z</time></trkpt><trkpt lat="43.958219887823404" lon="12.791185649598821"><ele>94.0</ele><time>2026-04-05T10:09:00Z</time></trkpt><trkpt lat="43.95827099515556" lon="12.791128561721363"><ele>94.0</ele><time>2026-04-05T10:09:02Z</time></trkpt><trkpt lat="43.95833619443709" lon="12.791072001979524"><ele>94.0</ele><time>2026-04-05T10:09:05Z</time></trkpt><trkpt lat="43.95840411770419" lon="12.79107210400412"><ele>94.0</ele><time>2026-04-05T10:09:08Z</time></trkpt><trkpt lat="43.958479433656194" lon="12.791058905637572"><ele>94.0</ele><time>2026-04-05T10:09:11Z</time></trkpt><trkpt lat="43.95844334668779" lon="12.79097494170053"><ele>94.0</ele><time>2026-04-05T10:09:14Z</time></trkpt><trkpt lat="43.958514018326696" lon="12.790917894740021"><ele>94.0</ele><time>2026-04-05T10:09:17Z</time></trkpt><trkpt lat="43.95847502440139" lon="12.790990013658996"><ele>94.0</ele><time>2026-04-05T10:09:26Z</time></trkpt><trkpt lat="43.95840266186533" lon="12.791023885280538"><ele>94.0</ele><time>2026-04-05T10:09:31Z</time></trkpt><trkpt lat="43.95832737954896" lon="12.791017458710488"><ele>94.0</ele><time>2026-04-05T10:09:35Z</time></trkpt><trkpt lat="43.95832888961326" lon="12.790914430613038"><ele>94.0</ele><time>2026-04-05T10:09:40Z</time></trkpt><trkpt lat="43.9584016644624" lon="12.79086540556877"><ele>94.0</ele><time>2026-04-05T10:09:43Z</time></trkpt><trkpt lat="43.95845616285326" lon="12.79080460588399"><ele>94.0</ele><time>2026-04-05T10:09:46Z</time></trkpt><trkpt lat="43.95848673900009" lon="12.790693300388567"><ele>91.85714285714286</ele><time>2026-04-05T10:09:50Z</time></trkpt><trkpt lat="43.95853167637903" lon="12.790615246071349"><ele>89.71428571428571</ele><time>2026-04-05T10:09:54Z</time></trkpt><trkpt lat="43.958589013273226" lon="12.790538802277672"><ele>87.57142857142858</ele><time>2026-04-05T10:09:56Z</time></trkpt><trkpt lat="43.958644913655974" lon="12.790459302791469"><ele>85.42857142857143</ele><time>2026-04-05T10:10:00Z</time></trkpt><trkpt lat="43.95869787239078" lon="12.790410453989706"><ele>83.28571428571429</ele><time>2026-04-05T10:10:02Z</time></trkpt><trkpt lat="43.958756091908576" lon="12.79034073279978"><ele>81.14285714285715</ele><time>2026-04-05T10:10:05Z</time></trkpt><trkpt lat="43.95877992851636" lon="12.790252090964739"><ele>79.0</ele><time>2026-04-05T10:10:07Z</time></trkpt><trkpt lat="43.9588236589459" lon="12.790176841233038"><ele>76.0</ele><time>2026-04-05T10:10:09Z</time></trkpt><trkpt lat="43.95889274359863" lon="12.790107764718572"><ele>73.0</ele><time>2026-04-05T10:10:12Z</time></trkpt><trkpt lat="43.95898571962953" lon="12.790135741136078"><ele>70.0</ele><time>2026-04-05T10:10:15Z</time></trkpt><trkpt lat="43.959051051986876" lon="12.790111819811662"><ele>67.0</ele><time>2026-04-05T10:10:19Z</time></trkpt><trkpt lat="43.95912640450253" lon="12.79008195943785"><ele>63.99999999999999</ele><time>2026-04-05T10:10:24Z</time></trkpt><trkpt lat="43.959208709581986" lon="12.790106139978414"><ele>61.0</ele><time>2026-04-05T10:10:27Z</time></trkpt><trkpt lat="43.959274402687385" lon="12.790100746188703"><ele>59.85714285714285</ele><time>2026-04-05T10:10:31Z</time></trkpt><trkpt lat="43.959334843943736" lon="12.790076209440205"><ele>58.71428571428571</ele><time>2026-04-05T10:10:33Z</time></trkpt><trkpt lat="43.95939970151544" lon="12.790101565287456"><ele>57.57142857142857</ele><time>2026-04-05T10:10:36Z</time></trkpt><trkpt lat="43.95947212437911" lon="12.790139823645768"><ele>56.42857142857142</ele><time>2026-04-05T10:10:40Z</time></trkpt><trkpt lat="43.959538177490174" lon="12.790164120387361"><ele>55.28571428571428</ele><time>2026-04-05T10:10:43Z</time></trkpt><trkpt lat="43.959474495762684" lon="12.790160841275751"><ele>54.142857142857146</ele><time>2026-04-05T10:10:51Z</time></trkpt><trkpt lat="43.95939898572228" lon="12.790142324546673"><ele>53.0</ele><time>2026-04-05T10:10:56Z</time></trkpt><trkpt lat="43.959332673949156" lon="12.790132475974389"><ele>53.0</ele><time>2026-04-05T10:11:00Z</time></trkpt><trkpt lat="43.95925667219787" lon="12.790149913026323"><ele>53.0</ele><time>2026-04-05T10:11:05Z</time></trkpt><trkpt lat="43.95919820164915" lon="12.79010294148864"><ele>53.0</ele><time>2026-04-05T10:11:10Z</time></trkpt><trkpt lat="43.95920804681785" lon="12.790015806722668"><ele>53.0</ele><time>2026-04-05T10:11:13Z</time></trkpt><trkpt lat="43.95919251741602" lon="12.789917913486034"><ele>53.0</ele><time>2026-04-05T10:11:16Z</time></trkpt><trkpt lat="43.959159507634965" lon="12.789829123727841"><ele>53.0</ele><time>2026-04-05T10:11:21Z</time></trkpt><trkpt lat="43.95907786321592" lon="12.789851385402772"><ele>53.0</ele><time>2026-04-05T10:11:24Z</time></trkpt><trkpt lat="43.958984991708164" lon="12.789826772506705"><ele>54.333333333333336</ele><time>2026-04-05T10:11:28Z</time></trkpt><trkpt lat="43.958900006661715" lon="12.789860067389013"><ele>55.66666666666667</ele><time>2026-04-05T10:11:32Z</time></trkpt><trkpt lat="43.95883384392685" lon="12.789888311689362"><ele>57.0</ele><time>2026-04-05T10:11:35Z</time></trkpt><trkpt lat="43.95874887317209" lon="12.789870299232861"><ele>58.33333333333333</ele><time>2026-04-05T10:11:39Z</time></trkpt><trkpt lat="43.9586856107848" lon="12.789884589653084"><ele>59.666666666666664</ele><time>2026-04-05T10:11:41Z</time></trkpt><trkpt lat="43.95861045425491" lon="12.789914055855498"><ele>61.0</ele><time>2026-04-05T10:11:44Z</time></trkpt><trkpt lat="43.958542040613935" lon="12.789954440162665"><ele>60.99999999999999</ele><time>2026-04-05T10:11:47Z</time></trkpt><trkpt lat="43.95847381189103" lon="12.789968844856428"><ele>61.0</ele><time>2026-04-05T10:11:52Z</time></trkpt><trkpt lat="43.958408949515544" lon="12.78993678649387"><ele>60.99999999999999</ele><time>2026-04-05T10:11:54Z</time></trkpt><trkpt lat="43.95832157692139" lon="12.789913849575582"><ele>60.99999999999999</ele><time>2026-04-05T10:11:57Z</time></trkpt><trkpt lat="43.958262752053045" lon="12.789879943966529"><ele>61.0</ele><time>2026-04-05T10:12:00Z</time></trkpt><trkpt lat="43.95819762419475" lon="12.78985161000428"><ele>60.99999999999999</ele><time>2026-04-05T10:12:02Z</time></trkpt><trkpt lat="43.958117996236446" lon="12.789838530808867"><ele>60.99999999999999</ele><time>2026-04-05T10:12:04Z</time></trkpt><trkpt lat="43.95805271577196" lon="12.789747646470063"><ele>59.99999999999999</ele><time>2026-04-05T10:12:07Z</time></trkpt><trkpt lat="43.95801048925141" lon="12.789673554220055"><ele>59.0</ele><time>2026-04-05T10:12:09Z</time></trkpt><trkpt lat="43.958003001339186" lon="12.789543659329018"><ele>58.0</ele><time>2026-04-05T10:12:12Z</time></trkpt><trkpt lat="43.95802990604725" lon="12.78940391524322"><ele>57.0</ele><time>2026-04-05T10:12:14Z</time></trkpt><trkpt lat="43.958054976709256" lon="12.78930662241298"><ele>55.99999999999999</ele><time>2026-04-05T10:12:16Z</time></trkpt><trkpt lat="43.958082576895315" lon="12.789218277831237"><ele>55.0</ele><time>2026-04-05T10:12:18Z</time></trkpt><trkpt lat="43.95813140178923" lon="12.789122238534963"><ele>53.42857142857142</ele><time>2026-04-05T10:12:21Z</time></trkpt><trkpt lat="43.95819423153775" lon="12.789084007532933"><ele>51.857142857142854</ele><time>2026-04-05T10:12:23Z</time></trkpt><trkpt lat="43.9582660813582" lon="12.789036753443527"><ele>50.285714285714285</ele><time>2026-04-05T10:12:26Z</time></trkpt><trkpt lat="43.958289488975424" lon="12.78893215482465"><ele>48.71428571428571</ele><time>2026-04-05T10:12:29Z</time></trkpt><trkpt lat="43.958283149125684" lon="12.78883547325482"><ele>47.14285714285714</ele><time>2026-04-05T10:12:32Z</time></trkpt><trkpt lat="43.95821457036614" lon="12.78881288129922"><ele>45.57142857142857</ele><time>2026-04-05T10:12:34Z</time></trkpt><trkpt lat="43.95816506965018" lon="12.78873642338081"><ele>44.0</ele><time>2026-04-05T10:12:38Z</time></trkpt><trkpt lat="43.95811578952921" lon="12.788663074432433"><ele>44.0</ele><time>2026-04-05T10:12:41Z</time></trkpt><trkpt lat="43.95804654223631" lon="12.788667324436009"><ele>44.0</ele><time>2026-04-05T10:12:46Z</time></trkpt><trkpt lat="43.95798967094943" lon="12.788734730400172"><ele>44.0</ele><time>2026-04-05T10:12:52Z</time></trkpt><trkpt lat="43.95791803766183" lon="12.78878303784016"><ele>44.0</ele><time>2026-04-05T10:12:56Z</time></trkpt><trkpt lat="43.95784718781238" lon="12.788833035003305"><ele>44.0</ele><time>2026-04-05T10:13:00Z</time></trkpt><trkpt lat="43.957795617001146" lon="12.788901029433628"><ele>44.0</ele><time>2026-04-05T10:13:03Z</time></trkpt><trkpt lat="43.95775266184649" lon="12.788992616573585"><ele>44.0</ele><time>2026-04-05T10:13:07Z</time></trkpt><trkpt lat="43.9577072322773" lon="12.789077535646802"><ele>44.0</ele><time>2026-04-05T10:13:11Z</time></trkpt><trkpt lat="43.95765579935506" lon="12.789153608820346"><ele>44.0</ele><time>2026-04-05T10:13:14Z</time></trkpt><trkpt lat="43.957583456243434" lon="12.78916390906363"><ele>44.0</ele><time>2026-04-05T10:13:17Z</time></trkpt><trkpt lat="43.95751279786548" lon="12.789184610163414"><ele>44.0</ele><time>2026-04-05T10:13:20Z</time></trkpt><trkpt lat="43.957459104324656" lon="12.789261239734524"><ele>44.0</ele><time>2026-04-05T10:13:23Z</time></trkpt><trkpt lat="43.95739870563153" lon="12.789299242033575"><ele>44.0</ele><time>2026-04-05T10:13:26Z</time></trkpt><trkpt lat="43.957330629882314" lon="12.789363877883531"><ele>44.142857142857146</ele><time>2026-04-05T10:13:30Z</time></trkpt><trkpt lat="43.95727617359969" lon="12.789425668309748"><ele>44.285714285714285</ele><time>2026-04-05T10:13:34Z</time></trkpt><trkpt lat="43.957197672373695" lon="12.789395478764344"><ele>44.42857142857143</ele><time>2026-04-05T10:13:37Z</time></trkpt><trkpt lat="43.95714640730994" lon="12.789342544145473"><ele>44.57142857142857</ele><time>2026-04-05T10:13:41Z</time></trkpt><trkpt lat="43.957083628450306" lon="12.789334330387808"><ele>44.714285714285715</ele><time>2026-04-05T10:13:44Z</time></trkpt><trkpt lat="43.957041889845705" lon="12.789255137986705"><ele>44.857142857142854</ele><time>2026-04-05T10:13:49Z</time></trkpt><trkpt lat="43.956992291447406" lon="12.789187422425222"><ele>45.0</ele><time>2026-04-05T10:13:53Z</time></trkpt><trkpt lat="43.95698287887713" lon="12.789080087402752"><ele>45.0</ele><time>2026-04-05T10:13:57Z</time></trkpt><trkpt lat="43.957027511503185" lon="12.78899764387753"><ele>45.0</ele><time>2026-04-05T10:14:01Z</time></trkpt><trkpt lat="43.957067131338874" lon="12.788925308477092"><ele>45.0</ele><time>2026-04-05T10:14:05Z</time></trkpt><trkpt lat="43.95712648820381" lon="12.788845680934424"><ele>45.0</ele><time>2026-04-05T10:14:09Z</time></trkpt><trkpt lat="43.95719630654942" lon="12.788785635473207"><ele>45.0</ele><time>2026-04-05T10:14:12Z</time></trkpt><trkpt lat="43.9572604550698" lon="12.788745156218923"><ele>45.0</ele><time>2026-04-05T10:14:15Z</time></trkpt><trkpt lat="43.95731972865972" lon="12.788697264367437"><ele>45.0</ele><time>2026-04-05T10:14:17Z</time></trkpt><trkpt lat="43.95736943646471" lon="12.78861405586855"><ele>45.0</ele><time>2026-04-05T10:14:20Z</time></trkpt><trkpt lat="43.95729948880498" lon="12.788601184593077"><ele>45.0</ele><time>2026-04-05T10:14:31Z</time></trkpt><trkpt lat="43.95723299588202" lon="12.788612696839094"><ele>45.0</ele><time>2026-04-05T10:14:35Z</time></trkpt><trkpt lat="43.957186923604795" lon="12.788689443206394"><ele>45.0</ele><time>2026-04-05T10:14:39Z</time></trkpt><trkpt lat="43.95713580156272" lon="12.788747506587193"><ele>45.0</ele><time>2026-04-05T10:14:43Z</time></trkpt><trkpt lat="43.95706625453024" lon="12.78876098036269"><ele>45.0</ele><time>2026-04-05T10:14:46Z</time></trkpt><trkpt lat="43.95700305118836" lon="12.788795774203756"><ele>45.0</ele><time>2026-04-05T10:14:50Z</time></trkpt><trkpt lat="43.956935016994855" lon="12.788856585006895"><ele>45.0</ele><time>2026-04-05T10:14:53Z</time></trkpt><trkpt lat="43.95686113392501" lon="12.788863009713053"><ele>45.0</ele><time>2026-04-05T10:14:58Z</time></trkpt><trkpt lat="43.9567998946385" lon="12.788826620437916"><ele>45.0</ele><time>2026-04-05T10:15:02Z</time></trkpt><trkpt lat="43.95672325162883" lon="12.788840171179757"><ele>45.0</ele><time>2026-04-05T10:15:07Z</time></trkpt><trkpt lat="43.95665185518517" lon="12.788845265342673"><ele>45.0</ele><time>2026-04-05T10:15:12Z</time></trkpt><trkpt lat="43.95663028558093" lon="12.788745629435718"><ele>45.0</ele><time>2026-04-05T10:15:17Z</time></trkpt><trkpt lat="43.95657968396209" lon="12.788672313068787"><ele>45.0</ele><time>2026-04-05T10:15:23Z</time></trkpt><trkpt lat="43.9565190779929" lon="12.788643237127024"><ele>46.42857142857142</ele><time>2026-04-05T10:15:27Z</time></trkpt><trkpt lat="43.95651969566433" lon="12.788550360847621"><ele>47.85714285714286</ele><time>2026-04-05T10:15:31Z</time></trkpt><trkpt lat="43.956555142432265" lon="12.78845650116292"><ele>49.285714285714285</ele><time>2026-04-05T10:15:34Z</time></trkpt><trkpt lat="43.9565876353812" lon="12.78838071518224"><ele>50.71428571428571</ele><time>2026-04-05T10:15:36Z</time></trkpt><trkpt lat="43.95661890584845" lon="12.788290292097622"><ele>52.14285714285714</ele><time>2026-04-05T10:15:39Z</time></trkpt><trkpt lat="43.956670842076036" lon="12.788240203292657"><ele>53.57142857142857</ele><time>2026-04-05T10:15:42Z</time></trkpt><trkpt lat="43.956723995896276" lon="12.788158901016523"><ele>55.0</ele><time>2026-04-05T10:15:45Z</time></trkpt><trkpt lat="43.956775079932825" lon="12.788090920217886"><ele>55.14285714285714</ele><time>2026-04-05T10:15:48Z</time></trkpt><trkpt lat="43.956817673896936" lon="12.788025441509276"><ele>55.285714285714285</ele><time>2026-04-05T10:15:50Z</time></trkpt><trkpt lat="43.95689390117295" lon="12.787961945693517"><ele>55.42857142857143</ele><time>2026-04-05T10:15:54Z</time></trkpt><trkpt lat="43.95694162798873" lon="12.787887255903792"><ele>55.57142857142857</ele><time>2026-04-05T10:15:57Z</time></trkpt><trkpt lat="43.95699062143086" lon="12.787819796082603"><ele>55.714285714285715</ele><time>2026-04-05T10:16:00Z</time></trkpt><trkpt lat="43.95705556128193" lon="12.787758598974657"><ele>55.857142857142854</ele><time>2026-04-05T10:16:03Z</time></trkpt><trkpt lat="43.957108495564725" lon="12.787681643165238"><ele>56.0</ele><time>2026-04-05T10:16:06Z</time></trkpt><trkpt lat="43.957164734131624" lon="12.787623906038888"><ele>57.42857142857143</ele><time>2026-04-05T10:16:09Z</time></trkpt><trkpt lat="43.95722987503664" lon="12.787548451331606"><ele>58.85714285714286</ele><time>2026-04-05T10:16:13Z</time></trkpt><trkpt lat="43.9572688953999" lon="12.787478365925336"><ele>60.285714285714285</ele><time>2026-04-05T10:16:16Z</time></trkpt><trkpt lat="43.957283794255034" lon="12.787388525653096"><ele>61.714285714285715</ele><time>2026-04-05T10:16:19Z</time></trkpt><trkpt lat="43.957318024573986" lon="12.787303624973578"><ele>63.142857142857146</ele><time>2026-04-05T10:16:23Z</time></trkpt><trkpt lat="43.957379442436114" lon="12.787246957121823"><ele>64.57142857142857</ele><time>2026-04-05T10:16:27Z</time></trkpt><trkpt lat="43.95740689101115" lon="12.787144788376104"><ele>66.0</ele><time>2026-04-05T10:16:31Z</time></trkpt><trkpt lat="43.95743860845692" lon="12.787058365464537"><ele>66.0</ele><time>2026-04-05T10:16:35Z</time></trkpt><trkpt lat="43.957412692680464" lon="12.786959689842398"><ele>66.0</ele><time>2026-04-05T10:16:40Z</time></trkpt><trkpt lat="43.95735799717387" lon="12.786899628483793"><ele>66.0</ele><time>2026-04-05T10:16:45Z</time></trkpt><trkpt lat="43.95736478287408" lon="12.786800556224378"><ele>66.0</ele><time>2026-04-05T10:16:48Z</time></trkpt><trkpt lat="43.95731969743864" lon="12.786739255494066"><ele>66.0</ele><time>2026-04-05T10:16:51Z</time></trkpt><trkpt lat="43.95727148626857" lon="12.786677875659453"><ele>66.0</ele><time>2026-04-05T10:16:58Z</time></trkpt><trkpt lat="43.95721056809993" lon="12.786614089623964"><ele>66.0</ele><time>2026-04-05T10:17:03Z</time></trkpt><trkpt lat="43.957231191431646" lon="12.786527186973373"><ele>67.0</ele><time>2026-04-05T10:17:06Z</time></trkpt><trkpt lat="43.957219346604795" lon="12.786441147326823"><ele>68.0</ele><time>2026-04-05T10:17:09Z</time></trkpt><trkpt lat="43.95720783030827" lon="12.786347925627101"><ele>69.0</ele><time>2026-04-05T10:17:13Z</time></trkpt><trkpt lat="43.957236768380426" lon="12.786260945106433"><ele>70.0</ele><time>2026-04-05T10:17:18Z</time></trkpt><trkpt lat="43.95724376726059" lon="12.78616881039901"><ele>71.0</ele><time>2026-04-05T10:17:22Z</time></trkpt><trkpt lat="43.95722100006323" lon="12.78608137395559"><ele>72.0</ele><time>2026-04-05T10:17:25Z</time></trkpt><trkpt lat="43.957204918964756" lon="12.785987689949462"><ele>73.0</ele><time>2026-04-05T10:17:28Z</time></trkpt><trkpt lat="43.957199297022356" lon="12.785871045436725"><ele>74.71428571428571</ele><time>2026-04-05T10:17:32Z</time></trkpt><trkpt lat="43.95718398377617" lon="12.785778454082893"><ele>76.42857142857143</ele><time>2026-04-05T10:17:35Z</time></trkpt><trkpt lat="43.957210957440985" lon="12.785683705671829"><ele>78.14285714285714</ele><time>2026-04-05T10:17:39Z</time></trkpt><trkpt lat="43.95723972276517" lon="12.785597461548893"><ele>79.85714285714286</ele><time>2026-04-05T10:17:46Z</time></trkpt><trkpt lat="43.95729855970054" lon="12.78555811728686"><ele>81.57142857142857</ele><time>2026-04-05T10:17:52Z</time></trkpt><trkpt lat="43.95737882633845" lon="12.785556386817841"><ele>83.28571428571429</ele><time>2026-04-05T10:19:02Z</time></trkpt><trkpt lat="43.957410084545316" lon="12.78547250717755"><ele>85.0</ele><time>2026-04-05T10:19:08Z</time></trkpt><trkpt lat="43.9574277538366" lon="12.785383120373142"><ele>85.0</ele><time>2026-04-05T10:19:12Z</time></trkpt><trkpt lat="43.95741924594037" lon="12.785261849755765"><ele>85.0</ele><time>2026-04-05T10:19:16Z</time></trkpt><trkpt lat="43.957419385999145" lon="12.785161394536086"><ele>85.0</ele><time>2026-04-05T10:19:21Z</time></trkpt><trkpt lat="43.95739295259708" lon="12.785074247570686"><ele>85.0</ele><time>2026-04-05T10:19:25Z</time></trkpt><trkpt lat="43.95740160499393" lon="12.784980394378207"><ele>85.0</ele><time>2026-04-05T10:19:30Z</time></trkpt><trkpt lat="43.95742054924719" lon="12.784886524916857"><ele>85.0</ele><time>2026-04-05T10:19:33Z</time></trkpt><trkpt lat="43.95742327803256" lon="12.784764273352467"><ele>86.0</ele><time>2026-04-05T10:19:37Z</time></trkpt><trkpt lat="43.95742413098586" lon="12.784670794791275"><ele>87.0</ele><time>2026-04-05T10:19:40Z</time></trkpt><trkpt lat="43.95742448331124" lon="12.784567610064784"><ele>88.0</ele><time>2026-04-05T10:19:43Z</time></trkpt><trkpt lat="43.957437080691" lon="12.784469927121103"><ele>89.0</ele><time>2026-04-05T10:19:48Z</time></trkpt><trkpt lat="43.957442989749815" lon="12.784359847824808"><ele>90.0</ele><time>2026-04-05T10:19:51Z</time></trkpt><trkpt lat="43.957456520944596" lon="12.784266012496337"><ele>91.0</ele><time>2026-04-05T10:19:54Z</time></trkpt><trkpt lat="43.9574969016918" lon="12.784175062194546"><ele>92.0</ele><time>2026-04-05T10:19:57Z</time></trkpt><trkpt lat="43.95754112926518" lon="12.784073516664675"><ele>92.57142857142857</ele><time>2026-04-05T10:20:00Z</time></trkpt><trkpt lat="43.957610458612905" lon="12.784051508376535"><ele>93.14285714285714</ele><time>2026-04-05T10:20:04Z</time></trkpt><trkpt lat="43.95768193849256" lon="12.784056222819178"><ele>93.71428571428571</ele><time>2026-04-05T10:20:09Z</time></trkpt><trkpt lat="43.9577451891571" lon="12.784038570854193"><ele>94.28571428571428</ele><time>2026-04-05T10:20:14Z</time></trkpt><trkpt lat="43.95781076765771" lon="12.784066462487052"><ele>94.85714285714286</ele><time>2026-04-05T10:20:18Z</time></trkpt><trkpt lat="43.957870656857224" lon="12.784096672565752"><ele>95.42857142857142</ele><time>2026-04-05T10:20:21Z</time></trkpt><trkpt lat="43.957922501816526" lon="12.784014497708515"><ele>96.0</ele><time>2026-04-05T10:20:24Z</time></trkpt><trkpt lat="43.957972214902505" lon="12.78394782796523"><ele>95.99999999999999</ele><time>2026-04-05T10:20:28Z</time></trkpt><trkpt lat="43.95802378616183" lon="12.783893167580393"><ele>96.0</ele><time>2026-04-05T10:20:36Z</time></trkpt><trkpt lat="43.95807668214354" lon="12.783832231952598"><ele>96.0</ele><time>2026-04-05T10:20:45Z</time></trkpt><trkpt lat="43.95812424866487" lon="12.783773801830673"><ele>96.0</ele><time>2026-04-05T10:21:00Z</time></trkpt><trkpt lat="43.95817830426553" lon="12.78371487779382"><ele>96.0</ele><time>2026-04-05T10:21:05Z</time></trkpt><trkpt lat="43.9582264849642" lon="12.783654121889107"><ele>95.99999999999999</ele><time>2026-04-05T10:21:08Z</time></trkpt><trkpt lat="43.95828942660823" lon="12.783612655150367"><ele>96.0</ele><time>2026-04-05T10:21:11Z</time></trkpt><trkpt lat="43.95836262978184" lon="12.78354676871247"><ele>95.66666666666667</ele><time>2026-04-05T10:21:16Z</time></trkpt><trkpt lat="43.95843928908906" lon="12.783496707994178"><ele>95.33333333333333</ele><time>2026-04-05T10:21:19Z</time></trkpt><trkpt lat="43.958509541166144" lon="12.783451775700597"><ele>95.0</ele><time>2026-04-05T10:21:22Z</time></trkpt><trkpt lat="43.958592774112475" lon="12.783411077703668"><ele>94.66666666666666</ele><time>2026-04-05T10:21:25Z</time></trkpt><trkpt lat="43.95853413328104" lon="12.783457164514065"><ele>94.33333333333333</ele><time>2026-04-05T10:21:29Z</time></trkpt><trkpt lat="43.958458471434355" lon="12.783505936738512"><ele>94.0</ele><time>2026-04-05T10:21:32Z</time></trkpt><trkpt lat="43.958398241604975" lon="12.78356092615562"><ele>94.33333333333333</ele><time>2026-04-05T10:21:35Z</time></trkpt><trkpt lat="43.95833827665212" lon="12.783627495145392"><ele>94.66666666666666</ele><time>2026-04-05T10:21:38Z</time></trkpt><trkpt lat="43.95826556079071" lon="12.783650116786355"><ele>95.0</ele><time>2026-04-05T10:21:41Z</time></trkpt><trkpt lat="43.95820036216704" lon="12.783571953970212"><ele>95.33333333333333</ele><time>2026-04-05T10:21:44Z</time></trkpt><trkpt lat="43.95813093846685" lon="12.783523195519175"><ele>95.66666666666667</ele><time>2026-04-05T10:21:47Z</time></trkpt><trkpt lat="43.95807335300103" lon="12.783471963615156"><ele>96.0</ele><time>2026-04-05T10:21:49Z</time></trkpt><trkpt lat="43.9580053536773" lon="12.78346944106613"><ele>97.0</ele><time>2026-04-05T10:21:51Z</time></trkpt><trkpt lat="43.957942839445586" lon="12.783451648687372"><ele>98.0</ele><time>2026-04-05T10:21:54Z</time></trkpt><trkpt lat="43.95786460759209" lon="12.783448585265427"><ele>99.0</ele><time>2026-04-05T10:21:57Z</time></trkpt><trkpt lat="43.957788045833254" lon="12.783368561724547"><ele>100.0</ele><time>2026-04-05T10:22:00Z</time></trkpt><trkpt lat="43.95776344441364" lon="12.783258422745236"><ele>101.0</ele><time>2026-04-05T10:22:03Z</time></trkpt><trkpt lat="43.957730138967406" lon="12.783138011756996"><ele>102.0</ele><time>2026-04-05T10:22:06Z</time></trkpt><trkpt lat="43.95773196937487" lon="12.783049535294147"><ele>102.0</ele><time>2026-04-05T10:22:08Z</time></trkpt><trkpt lat="43.95766824487062" lon="12.783069059936425"><ele>102.0</ele><time>2026-04-05T10:22:16Z</time></trkpt><trkpt lat="43.957605245488125" lon="12.783086105636594"><ele>102.0</ele><time>2026-04-05T10:22:19Z</time></trkpt><trkpt lat="43.95752167247751" lon="12.783151540770227"><ele>102.0</ele><time>2026-04-05T10:22:23Z</time></trkpt><trkpt lat="43.957450531016" lon="12.783231747925798"><ele>102.0</ele><time>2026-04-05T10:22:26Z</time></trkpt><trkpt lat="43.95739081479985" lon="12.78319854103725"><ele>102.0</ele><time>2026-04-05T10:22:28Z</time></trkpt><trkpt lat="43.957327480958135" lon="12.783135547435396"><ele>99.85714285714286</ele><time>2026-04-05T10:22:31Z</time></trkpt><trkpt lat="43.95727214052291" lon="12.783077510182098"><ele>97.71428571428572</ele><time>2026-04-05T10:22:34Z</time></trkpt><trkpt lat="43.95721597736023" lon="12.783035475264832"><ele>95.57142857142857</ele><time>2026-04-05T10:22:36Z</time></trkpt><trkpt lat="43.95714429962547" lon="12.78302083543581"><ele>93.42857142857143</ele><time>2026-04-05T10:22:38Z</time></trkpt><trkpt lat="43.95708087610806" lon="12.782956212322242"><ele>91.28571428571429</ele><time>2026-04-05T10:22:41Z</time></trkpt><trkpt lat="43.95704683723593" lon="12.782881656719315"><ele>89.14285714285714</ele><time>2026-04-05T10:22:43Z</time></trkpt><trkpt lat="43.95708644592587" lon="12.782955651878904"><ele>87.0</ele><time>2026-04-05T10:23:01Z</time></trkpt><trkpt lat="43.957141057868604" lon="12.783001469838187"><ele>87.0</ele><time>2026-04-05T10:23:10Z</time></trkpt><trkpt lat="43.957208516540625" lon="12.783023016670997"><ele>87.0</ele><time>2026-04-05T10:23:18Z</time></trkpt><trkpt lat="43.957257247166964" lon="12.782946304915084"><ele>87.0</ele><time>2026-04-05T10:23:28Z</time></trkpt><trkpt lat="43.957268242432356" lon="12.782849629310334"><ele>87.0</ele><time>2026-04-05T10:23:35Z</time></trkpt><trkpt lat="43.95730621332351" lon="12.782771168609056"><ele>87.0</ele><time>2026-04-05T10:23:40Z</time></trkpt><trkpt lat="43.95737092022332" lon="12.782738917856635"><ele>87.0</ele><time>2026-04-05T10:23:43Z</time></trkpt><trkpt lat="43.95739713666976" lon="12.782639083145334"><ele>87.0</ele><time>2026-04-05T10:23:46Z</time></trkpt><trkpt lat="43.95743585314667" lon="12.7825529999924"><ele>86.16666666666667</ele><time>2026-04-05T10:23:50Z</time></trkpt><trkpt lat="43.95744734951527" lon="12.782455255672065"><ele>85.33333333333333</ele><time>2026-04-05T10:23:53Z</time></trkpt><trkpt lat="43.9574779222985" lon="12.782355287275783"><ele>84.5</ele><time>2026-04-05T10:23:56Z</time></trkpt><trkpt lat="43.957565845415715" lon="12.782361259299"><ele>83.66666666666666</ele><time>2026-04-05T10:24:00Z</time></trkpt><trkpt lat="43.95762502090278" lon="12.782293101613888"><ele>82.83333333333333</ele><time>2026-04-05T10:24:03Z</time></trkpt><trkpt lat="43.957623322068834" lon="12.782198478980192"><ele>82.0</ele><time>2026-04-05T10:24:06Z</time></trkpt><trkpt lat="43.957632291594614" lon="12.782091331372769"><ele>82.16666666666666</ele><time>2026-04-05T10:24:10Z</time></trkpt><trkpt lat="43.957642700664636" lon="12.781987848939732"><ele>82.33333333333333</ele><time>2026-04-05T10:24:12Z</time></trkpt><trkpt lat="43.95768000525103" lon="12.781894754801847"><ele>82.5</ele><time>2026-04-05T10:24:14Z</time></trkpt><trkpt lat="43.95774382328895" lon="12.781839978068296"><ele>82.66666666666667</ele><time>2026-04-05T10:24:16Z</time></trkpt><trkpt lat="43.957821163796055" lon="12.781810206840126"><ele>82.83333333333334</ele><time>2026-04-05T10:24:20Z</time></trkpt><trkpt lat="43.957882474981844" lon="12.78174959954967"><ele>83.0</ele><time>2026-04-05T10:24:23Z</time></trkpt><trkpt lat="43.957950937710905" lon="12.781690886183545"><ele>83.0</ele><time>2026-04-05T10:24:26Z</time></trkpt><trkpt lat="43.958019800616356" lon="12.781620820009211"><ele>83.0</ele><time>2026-04-05T10:24:29Z</time></trkpt><trkpt lat="43.95809328228063" lon="12.781628835793537"><ele>83.0</ele><time>2026-04-05T10:24:34Z</time></trkpt><trkpt lat="43.958174433119325" lon="12.781612140297254"><ele>83.0</ele><time>2026-04-05T10:24:38Z</time></trkpt><trkpt lat="43.95822253348797" lon="12.781536700556845"><ele>83.0</ele><time>2026-04-05T10:24:41Z</time></trkpt><trkpt lat="43.958285230656486" lon="12.781489471199917"><ele>83.0</ele><time>2026-04-05T10:24:44Z</time></trkpt><trkpt lat="43.95836705644745" lon="12.781496002094313"><ele>84.28571428571428</ele><time>2026-04-05T10:24:48Z</time></trkpt><trkpt lat="43.95843335693041" lon="12.781470357704249"><ele>85.57142857142858</ele><time>2026-04-05T10:24:52Z</time></trkpt><trkpt lat="43.958490803913534" lon="12.781532391158077"><ele>86.85714285714286</ele><time>2026-04-05T10:25:01Z</time></trkpt><trkpt lat="43.958512108410694" lon="12.781633082790712"><ele>88.14285714285714</ele><time>2026-04-05T10:25:05Z</time></trkpt><trkpt lat="43.9585466949712" lon="12.781714895442349"><ele>89.42857142857142</ele><time>2026-04-05T10:25:18Z</time></trkpt><trkpt lat="43.958626331357635" lon="12.781742644846833"><ele>90.71428571428572</ele><time>2026-04-05T10:25:23Z</time></trkpt><trkpt lat="43.95867486824728" lon="12.781807852626272"><ele>92.0</ele><time>2026-04-05T10:25:38Z</time></trkpt><trkpt lat="43.958740605974484" lon="12.781832216875767"><ele>92.0</ele><time>2026-04-05T10:25:49Z</time></trkpt><trkpt lat="43.95879859352902" lon="12.781788430114037"><ele>92.0</ele><time>2026-04-05T10:25:51Z</time></trkpt><trkpt lat="43.95887377990868" lon="12.781769598863137"><ele>92.0</ele><time>2026-04-05T10:25:55Z</time></trkpt><trkpt lat="43.95893945610112" lon="12.781732791996014"><ele>92.0</ele><time>2026-04-05T10:25:59Z</time></trkpt><trkpt lat="43.95901503677554" lon="12.781694379949538"><ele>92.0</ele><time>2026-04-05T10:26:03Z</time></trkpt><trkpt lat="43.95906810082311" lon="12.781629565630245"><ele>92.0</ele><time>2026-04-05T10:26:06Z</time></trkpt><trkpt lat="43.95911330506078" lon="12.781530630711654"><ele>92.0</ele><time>2026-04-05T10:26:09Z</time></trkpt><trkpt lat="43.95914789912911" lon="12.781453200506057"><ele>92.0</ele><time>2026-04-05T10:26:12Z</time></trkpt><trkpt lat="43.959170979523925" lon="12.781341769902186"><ele>92.0</ele><time>2026-04-05T10:26:15Z</time></trkpt><trkpt lat="43.95915473875219" lon="12.78125560677266"><ele>92.0</ele><time>2026-04-05T10:26:18Z</time></trkpt><trkpt lat="43.95912132106076" lon="12.781171044761123"><ele>92.0</ele><time>2026-04-05T10:26:21Z</time></trkpt><trkpt lat="43.95911773820424" lon="12.781062597821325"><ele>92.0</ele><time>2026-04-05T10:26:25Z</time></trkpt><trkpt lat="43.95911399452118" lon="12.780951090313565"><ele>92.0</ele><time>2026-04-05T10:26:29Z</time></trkpt><trkpt lat="43.9590669919624" lon="12.780861811516257"><ele>92.5</ele><time>2026-04-05T10:26:33Z</time></trkpt><trkpt lat="43.959050048439295" lon="12.78077217865707"><ele>93.0</ele><time>2026-04-05T10:26:36Z</time></trkpt><trkpt lat="43.959028689598114" lon="12.780665824850242"><ele>93.5</ele><time>2026-04-05T10:26:40Z</time></trkpt><trkpt lat="43.958994816122484" lon="12.780555851420434"><ele>94.0</ele><time>2026-04-05T10:26:44Z</time></trkpt><trkpt lat="43.95894219074121" lon="12.780470996160968"><ele>94.5</ele><time>2026-04-05T10:26:47Z</time></trkpt><trkpt lat="43.95892005361622" lon="12.7803809443624"><ele>95.0</ele><time>2026-04-05T10:26:51Z</time></trkpt><trkpt lat="43.95886808351399" lon="12.780288683686232"><ele>95.0</ele><time>2026-04-05T10:26:55Z</time></trkpt><trkpt lat="43.95885344112506" lon="12.780199995214554"><ele>95.0</ele><time>2026-04-05T10:26:58Z</time></trkpt><trkpt lat="43.95886224817635" lon="12.780105640479922"><ele>95.0</ele><time>2026-04-05T10:27:03Z</time></trkpt><trkpt lat="43.95882968981567" lon="12.779992043489651"><ele>95.0</ele><time>2026-04-05T10:27:07Z</time></trkpt><trkpt lat="43.95877193603724" lon="12.779930500757866"><ele>95.0</ele><time>2026-04-05T10:27:11Z</time></trkpt><trkpt lat="43.95877059096139" lon="12.779840574019504"><ele>95.0</ele><time>2026-04-05T10:27:14Z</time></trkpt><trkpt lat="43.95881576376522" lon="12.779771566771279"><ele>95.0</ele><time>2026-04-05T10:27:20Z</time></trkpt><trkpt lat="43.95885344054041" lon="12.77969736510158"><ele>96.16666666666667</ele><time>2026-04-05T10:27:26Z</time></trkpt><trkpt lat="43.958909274327496" lon="12.779652480714027"><ele>97.33333333333334</ele><time>2026-04-05T10:27:31Z</time></trkpt><trkpt lat="43.9589529201604" lon="12.779576663522736"><ele>98.5</ele><time>2026-04-05T10:27:37Z</time></trkpt><trkpt lat="43.958977052154026" lon="12.779486526943337"><ele>99.66666666666667</ele><time>2026-04-05T10:27:42Z</time></trkpt><trkpt lat="43.958896705972336" lon="12.779449888179167"><ele>100.83333333333333</ele><time>2026-04-05T10:27:46Z</time></trkpt><trkpt lat="43.95881277930198" lon="12.779453861689731"><ele>102.0</ele><time>2026-04-05T10:27:49Z</time></trkpt><trkpt lat="43.95873910196081" lon="12.779508150060423"><ele>102.0</ele><time>2026-04-05T10:27:52Z</time></trkpt><trkpt lat="43.95868108243627" lon="12.779567773822565"><ele>102.0</ele><time>2026-04-05T10:27:54Z</time></trkpt><trkpt lat="43.958649017391494" lon="12.779673645651197"><ele>102.0</ele><time>2026-04-05T10:27:57Z</time></trkpt><trkpt lat="43.95862919224412" lon="12.779781791448478"><ele>102.0</ele><time>2026-04-05T10:28:00Z</time></trkpt><trkpt lat="43.9586471536416" lon="12.779893947827125"><ele>102.0</ele><time>2026-04-05T10:28:03Z</time></trkpt><trkpt lat="43.95867261968594" lon="12.780011173891964"><ele>102.0</ele><time>2026-04-05T10:28:06Z</time></trkpt><trkpt lat="43.9586571733466" lon="12.779900468280054"><ele>102.0</ele><time>2026-04-05T10:28:24Z</time></trkpt><trkpt lat="43.958638288093525" lon="12.779805785726214"><ele>102.0</ele><time>2026-04-05T10:28:28Z</time></trkpt><trkpt lat="43.958629891929355" lon="12.779711573628962"><ele>102.0</ele><time>2026-04-05T10:28:32Z</time></trkpt><trkpt lat="43.95864330979763" lon="12.779620431557658"><ele>102.0</ele><time>2026-04-05T10:28:36Z</time></trkpt><trkpt lat="43.95868016363183" lon="12.779518356056302"><ele>102.0</ele><time>2026-04-05T10:28:41Z</time></trkpt><trkpt lat="43.95872026154438" lon="12.779435341185312"><ele>102.0</ele><time>2026-04-05T10:28:46Z</time></trkpt><trkpt lat="43.95877962328555" lon="12.779399606074977"><ele>102.0</ele><time>2026-04-05T10:28:50Z</time></trkpt><trkpt lat="43.95884701345369" lon="12.779374538918848"><ele>102.0</ele><time>2026-04-05T10:28:54Z</time></trkpt><trkpt lat="43.95891204502722" lon="12.779372828225316"><ele>102.0</ele><time>2026-04-05T10:28:59Z</time></trkpt><trkpt lat="43.95897864488216" lon="12.779415879764176"><ele>102.0</ele><time>2026-04-05T10:29:04Z</time></trkpt><trkpt lat="43.959046470427566" lon="12.779431474429456"><ele>102.0</ele><time>2026-04-05T10:29:09Z</time></trkpt><trkpt lat="43.95909244264215" lon="12.7793646790996"><ele>102.0</ele><time>2026-04-05T10:29:17Z</time></trkpt><trkpt lat="43.9590566607729" lon="12.779278297241044"><ele>102.0</ele><time>2026-04-05T10:29:20Z</time></trkpt><trkpt lat="43.95898656428524" lon="12.779238084531622"><ele>102.0</ele><time>2026-04-05T10:29:23Z</time></trkpt><trkpt lat="43.95890713107859" lon="12.77920380661461"><ele>101.5</ele><time>2026-04-05T10:29:26Z</time></trkpt><trkpt lat="43.95882640208368" lon="12.779176800455046"><ele>101.0</ele><time>2026-04-05T10:29:29Z</time></trkpt><trkpt lat="43.95873285191046" lon="12.77918552689347"><ele>100.5</ele><time>2026-04-05T10:29:32Z</time></trkpt><trkpt lat="43.95866926244833" lon="12.779227025968284"><ele>100.0</ele><time>2026-04-05T10:29:35Z</time></trkpt><trkpt lat="43.95858248650026" lon="12.779253216756647"><ele>99.5</ele><time>2026-04-05T10:29:38Z</time></trkpt><trkpt lat="43.95849157778422" lon="12.779293612234772"><ele>99.0</ele><time>2026-04-05T10:29:41Z</time></trkpt><trkpt lat="43.95842875025151" lon="12.77927321072428"><ele>99.0</ele><time>2026-04-05T10:29:43Z</time></trkpt><trkpt lat="43.95837997058828" lon="12.779199113051027"><ele>99.0</ele><time>2026-04-05T10:29:45Z</time></trkpt><trkpt lat="43.95830987986604" lon="12.779135542821619"><ele>99.0</ele><time>2026-04-05T10:29:48Z</time></trkpt><trkpt lat="43.9582469899394" lon="12.779052334610386"><ele>99.0</ele><time>2026-04-05T10:29:51Z</time></trkpt><trkpt lat="43.95819922707196" lon="12.778990262035963"><ele>99.0</ele><time>2026-04-05T10:29:53Z</time></trkpt><trkpt lat="43.95813482171818" lon="12.778953436426995"><ele>99.0</ele><time>2026-04-05T10:29:55Z</time></trkpt><trkpt lat="43.9580928394046" lon="12.778885062798242"><ele>99.0</ele><time>2026-04-05T10:29:57Z</time></trkpt><trkpt lat="43.95811596169647" lon="12.778801806411225"><ele>97.28571428571429</ele><time>2026-04-05T10:30:17Z</time></trkpt><trkpt lat="43.95818220884327" lon="12.778758017638836"><ele>95.57142857142857</ele><time>2026-04-05T10:30:20Z</time></trkpt><trkpt lat="43.95812591163362" lon="12.778800120248091"><ele>93.85714285714286</ele><time>2026-04-05T10:30:30Z</time></trkpt><trkpt lat="43.95809607771814" lon="12.778885187172802"><ele>92.14285714285714</ele><time>2026-04-05T10:30:44Z</time></trkpt><trkpt lat="43.95812357514876" lon="12.778980836440821"><ele>90.42857142857143</ele><time>2026-04-05T10:31:03Z</time></trkpt><trkpt lat="43.95817969701983" lon="12.779025649928831"><ele>88.71428571428571</ele><time>2026-04-05T10:31:31Z</time></trkpt><trkpt lat="43.95823033994207" lon="12.779083036885993"><ele>87.0</ele><time>2026-04-05T10:31:39Z</time></trkpt><trkpt lat="43.9581836776605" lon="12.779017838471766"><ele>87.0</ele><time>2026-04-05T10:32:00Z</time></trkpt><trkpt lat="43.95812129218393" lon="12.778970617646937"><ele>87.0</ele><time>2026-04-05T10:32:03Z</time></trkpt><trkpt lat="43.95803312541787" lon="12.77896667696229"><ele>87.0</ele><time>2026-04-05T10:32:07Z</time></trkpt><trkpt lat="43.95795293223223" lon="12.779023319118181"><ele>87.0</ele><time>2026-04-05T10:32:10Z</time></trkpt><trkpt lat="43.957886866972174" lon="12.779101974601325"><ele>87.0</ele><time>2026-04-05T10:32:13Z</time></trkpt><trkpt lat="43.95780461556626" lon="12.779092381273855"><ele>87.0</ele><time>2026-04-05T10:32:17Z</time></trkpt><trkpt lat="43.95776037217332" lon="12.778992384015128"><ele>87.0</ele><time>2026-04-05T10:32:20Z</time></trkpt><trkpt lat="43.9577132266235" lon="12.778892993423172"><ele>87.0</ele><time>2026-04-05T10:32:22Z</time></trkpt><trkpt lat="43.957683209387156" lon="12.77879641144081"><ele>87.0</ele><time>2026-04-05T10:32:24Z</time></trkpt><trkpt lat="43.95765578804127" lon="12.778691217724749"><ele>87.0</ele><time>2026-04-05T10:32:27Z</time></trkpt><trkpt lat="43.957639911208744" lon="12.778581094816534"><ele>87.0</ele><time>2026-04-05T10:32:30Z</time></trkpt><trkpt lat="43.957610491522324" lon="12.778474353879995"><ele>87.0</ele><time>2026-04-05T10:32:33Z</time></trkpt><trkpt lat="43.957565315342606" lon="12.778391156913074"><ele>86.14285714285714</ele><time>2026-04-05T10:32:36Z</time></trkpt><trkpt lat="43.9575393111181" lon="12.778306106024846"><ele>85.28571428571429</ele><time>2026-04-05T10:32:38Z</time></trkpt><trkpt lat="43.95753163724002" lon="12.778217657758235"><ele>84.42857142857143</ele><time>2026-04-05T10:32:40Z</time></trkpt><trkpt lat="43.957530923395055" lon="12.778100961714372"><ele>83.57142857142857</ele><time>2026-04-05T10:32:43Z</time></trkpt><trkpt lat="43.95752621283868" lon="12.778008886755789"><ele>82.71428571428571</ele><time>2026-04-05T10:32:45Z</time></trkpt><trkpt lat="43.957520331534326" lon="12.777918783663344"><ele>81.85714285714286</ele><time>2026-04-05T10:32:47Z</time></trkpt><trkpt lat="43.957527175088934" lon="12.777802055540436"><ele>81.0</ele><time>2026-04-05T10:32:50Z</time></trkpt><trkpt lat="43.957531653226646" lon="12.77770171688217"><ele>78.33333333333333</ele><time>2026-04-05T10:32:52Z</time></trkpt><trkpt lat="43.95756197173645" lon="12.777589531331637"><ele>75.66666666666667</ele><time>2026-04-05T10:32:55Z</time></trkpt><trkpt lat="43.957612853604054" lon="12.77748885449562"><ele>73.0</ele><time>2026-04-05T10:32:58Z</time></trkpt><trkpt lat="43.95766462904129" lon="12.777386979865424"><ele>70.33333333333334</ele><time>2026-04-05T10:33:01Z</time></trkpt><trkpt lat="43.95769052806434" lon="12.777280637195016"><ele>67.66666666666667</ele><time>2026-04-05T10:33:04Z</time></trkpt><trkpt lat="43.95772045631904" lon="12.777190159083952"><ele>65.0</ele><time>2026-04-05T10:33:07Z</time></trkpt><trkpt lat="43.95779091115421" lon="12.777109372937451"><ele>65.0</ele><time>2026-04-05T10:33:10Z</time></trkpt><trkpt lat="43.95786471355319" lon="12.777027789551886"><ele>65.0</ele><time>2026-04-05T10:33:13Z</time></trkpt><trkpt lat="43.95793367282913" lon="12.77694277701937"><ele>65.0</ele><time>2026-04-05T10:33:16Z</time></trkpt><trkpt lat="43.957984982658054" lon="12.776875521325433"><ele>65.0</ele><time>2026-04-05T10:33:18Z</time></trkpt><trkpt lat="43.958010080307574" lon="12.7767932868765"><ele>65.0</ele><time>2026-04-05T10:33:20Z</time></trkpt><trkpt lat="43.95803712195691" lon="12.776690794457405"><ele>65.0</ele><time>2026-04-05T10:33:23Z</time></trkpt><trkpt lat="43.95808972354597" lon="12.776629995584795"><ele>62.833333333333336</ele><time>2026-04-05T10:33:25Z</time></trkpt><trkpt lat="43.958154215658546" lon="12.77664086708478"><ele>60.66666666666667</ele><time>2026-04-05T10:33:28Z</time></trkpt><trkpt lat="43.958223819643734" lon="12.776600411713861"><ele>58.5</ele><time>2026-04-05T10:33:30Z</time></trkpt><trkpt lat="43.95830764178457" lon="12.776569646141388"><ele>56.33333333333333</ele><time>2026-04-05T10:33:33Z</time></trkpt><trkpt lat="43.958396514285575" lon="12.776545234686399"><ele>54.166666666666664</ele><time>2026-04-05T10:33:36Z</time></trkpt><trkpt lat="43.95846912822792" lon="12.776533176070583"><ele>52.0</ele><time>2026-04-05T10:33:39Z</time></trkpt><trkpt lat="43.9585429286402" lon="12.776528461850559"><ele>51.49999999999999</ele><time>2026-04-05T10:33:42Z</time></trkpt><trkpt lat="43.958624000810715" lon="12.776520391800121"><ele>51.0</ele><time>2026-04-05T10:33:45Z</time></trkpt><trkpt lat="43.95869730920754" lon="12.776524733479384"><ele>50.5</ele><time>2026-04-05T10:33:48Z</time></trkpt><trkpt lat="43.958769163599555" lon="12.776536312355471"><ele>50.0</ele><time>2026-04-05T10:33:51Z</time></trkpt><trkpt lat="43.95884335711636" lon="12.776553200669236"><ele>49.49999999999999</ele><time>2026-04-05T10:33:54Z</time></trkpt><trkpt lat="43.95891021467338" lon="12.776554279050032"><ele>49.0</ele><time>2026-04-05T10:33:57Z</time></trkpt><trkpt lat="43.95899308587354" lon="12.776556466341285"><ele>49.0</ele><time>2026-04-05T10:34:00Z</time></trkpt><trkpt lat="43.95907114097564" lon="12.77656963491974"><ele>49.0</ele><time>2026-04-05T10:34:03Z</time></trkpt><trkpt lat="43.95913541670516" lon="12.776525180845239"><ele>49.0</ele><time>2026-04-05T10:34:06Z</time></trkpt><trkpt lat="43.959132172656666" lon="12.776429188758227"><ele>49.0</ele><time>2026-04-05T10:34:09Z</time></trkpt><trkpt lat="43.959161546655714" lon="12.77652614078396"><ele>49.0</ele><time>2026-04-05T10:34:21Z</time></trkpt><trkpt lat="43.95918814433993" lon="12.776605941543503"><ele>49.0</ele><time>2026-04-05T10:34:27Z</time></trkpt><trkpt lat="43.95912673109358" lon="12.776582707023339"><ele>49.0</ele><time>2026-04-05T10:34:49Z</time></trkpt><trkpt lat="43.95919677658344" lon="12.77660017796302"><ele>48.42857142857143</ele><time>2026-04-05T10:34:57Z</time></trkpt><trkpt lat="43.95926399595988" lon="12.776599067313356"><ele>47.85714285714286</ele><time>2026-04-05T10:35:03Z</time></trkpt><trkpt lat="43.95932722140797" lon="12.77660917677268"><ele>47.285714285714285</ele><time>2026-04-05T10:35:05Z</time></trkpt><trkpt lat="43.95939785680991" lon="12.77661682465933"><ele>46.714285714285715</ele><time>2026-04-05T10:35:09Z</time></trkpt><trkpt lat="43.95947962752811" lon="12.776630834660928"><ele>46.142857142857146</ele><time>2026-04-05T10:35:19Z</time></trkpt><trkpt lat="43.95954283550229" lon="12.776622148993205"><ele>45.57142857142857</ele><time>2026-04-05T10:35:24Z</time></trkpt><trkpt lat="43.95961977082104" lon="12.776650347693359"><ele>45.0</ele><time>2026-04-05T10:35:28Z</time></trkpt><trkpt lat="43.95968889656725" lon="12.776615630555456"><ele>45.0</ele><time>2026-04-05T10:35:32Z</time></trkpt><trkpt lat="43.95976046683017" lon="12.776592004627629"><ele>45.0</ele><time>2026-04-05T10:35:36Z</time></trkpt><trkpt lat="43.95980873299197" lon="12.776662329452272"><ele>45.0</ele><time>2026-04-05T10:35:45Z</time></trkpt><trkpt lat="43.95980203146521" lon="12.77675058553977"><ele>45.0</ele><time>2026-04-05T10:35:51Z</time></trkpt><trkpt lat="43.95986768196646" lon="12.776748790862037"><ele>45.0</ele><time>2026-04-05T10:35:56Z</time></trkpt><trkpt lat="43.9598862412163" lon="12.776842733072483"><ele>45.0</ele><time>2026-04-05T10:36:00Z</time></trkpt><trkpt lat="43.95985154283671" lon="12.776949394212044"><ele>45.0</ele><time>2026-04-05T10:36:04Z</time></trkpt><trkpt lat="43.9598376386443" lon="12.777040149031064"><ele>46.42857142857142</ele><time>2026-04-05T10:36:08Z</time></trkpt><trkpt lat="43.95981034644832" lon="12.777130957931895"><ele>47.85714285714286</ele><time>2026-04-05T10:36:14Z</time></trkpt><trkpt lat="43.95978501335308" lon="12.777221865251844"><ele>49.285714285714285</ele><time>2026-04-05T10:36:20Z</time></trkpt><trkpt lat="43.95975612223115" lon="12.777303382050071"><ele>50.71428571428571</ele><time>2026-04-05T10:36:34Z</time></trkpt><trkpt lat="43.95969721307343" lon="12.777355813001037"><ele>52.14285714285714</ele><time>2026-04-05T10:36:43Z</time></trkpt><trkpt lat="43.95965190414104" lon="12.777423013016742"><ele>53.57142857142857</ele><time>2026-04-05T10:36:53Z</time></trkpt><trkpt lat="43.95959999132771" lon="12.777475449320267"><ele>55.0</ele><time>2026-04-05T10:37:02Z</time></trkpt><trkpt lat="43.95954026361125" lon="12.777526321461147"><ele>54.99999999999999</ele><time>2026-04-05T10:37:14Z</time></trkpt><trkpt lat="43.95948090026834" lon="12.777582584722078"><ele>55.0</ele><time>2026-04-05T10:37:50Z</time></trkpt><trkpt lat="43.95943439304691" lon="12.77766441967015"><ele>55.0</ele><time>2026-04-05T10:38:05Z</time></trkpt><trkpt lat="43.95938550396371" lon="12.777722922043546"><ele>55.0</ele><time>2026-04-05T10:38:13Z</time></trkpt><trkpt lat="43.9594390826948" lon="12.777656919797208"><ele>55.0</ele><time>2026-04-05T10:38:21Z</time></trkpt><trkpt lat="43.95948755398295" lon="12.777578284020736"><ele>54.99999999999999</ele><time>2026-04-05T10:38:25Z</time></trkpt><trkpt lat="43.95953154297546" lon="12.777509364903645"><ele>55.0</ele><time>2026-04-05T10:38:30Z</time></trkpt><trkpt lat="43.95958923396132" lon="12.777458969579426"><ele>54.99999999999999</ele><time>2026-04-05T10:38:35Z</time></trkpt><trkpt lat="43.95964443266933" lon="12.777409148808864"><ele>55.0</ele><time>2026-04-05T10:38:44Z</time></trkpt><trkpt lat="43.95969227907825" lon="12.777335793141454"><ele>55.0</ele><time>2026-04-05T10:38:51Z</time></trkpt><trkpt lat="43.95974534098992" lon="12.777280145287648"><ele>55.0</ele><time>2026-04-05T10:38:58Z</time></trkpt><trkpt lat="43.95980856051238" lon="12.777345418860227"><ele>55.0</ele><time>2026-04-05T10:39:04Z</time></trkpt><trkpt lat="43.95984895154072" lon="12.777425312714822"><ele>54.99999999999999</ele><time>2026-04-05T10:39:07Z</time></trkpt><trkpt lat="43.95988110493448" lon="12.777535506518655"><ele>55.0</ele><time>2026-04-05T10:39:11Z</time></trkpt><trkpt lat="43.959919496852315" lon="12.777606188511806"><ele>56.71428571428571</ele><time>2026-04-05T10:39:14Z</time></trkpt><trkpt lat="43.959966551417466" lon="12.777698839670729"><ele>58.42857142857143</ele><time>2026-04-05T10:39:18Z</time></trkpt><trkpt lat="43.960003153149486" lon="12.777788488172341"><ele>60.14285714285714</ele><time>2026-04-05T10:39:22Z</time></trkpt><trkpt lat="43.96004632510694" lon="12.77786134847883"><ele>61.857142857142854</ele><time>2026-04-05T10:39:25Z</time></trkpt><trkpt lat="43.96007462688686" lon="12.777948176415261"><ele>63.57142857142857</ele><time>2026-04-05T10:39:29Z</time></trkpt><trkpt lat="43.96011557667596" lon="12.778016247881064"><ele>65.28571428571429</ele><time>2026-04-05T10:39:32Z</time></trkpt><trkpt lat="43.960148020485114" lon="12.778106912689514"><ele>67.0</ele><time>2026-04-05T10:39:35Z</time></trkpt><trkpt lat="43.96019864441679" lon="12.778162367614009"><ele>67.0</ele><time>2026-04-05T10:39:38Z</time></trkpt><trkpt lat="43.960258064896465" lon="12.778222149088222"><ele>67.0</ele><time>2026-04-05T10:39:42Z</time></trkpt><trkpt lat="43.960305025234184" lon="12.778313784179431"><ele>67.0</ele><time>2026-04-05T10:39:46Z</time></trkpt><trkpt lat="43.96034012706775" lon="12.778388645636582"><ele>67.0</ele><time>2026-04-05T10:39:49Z</time></trkpt><trkpt lat="43.96037043354468" lon="12.778477384525823"><ele>67.0</ele><time>2026-04-05T10:39:53Z</time></trkpt><trkpt lat="43.960423639875" lon="12.778537011209728"><ele>67.0</ele><time>2026-04-05T10:39:57Z</time></trkpt><trkpt lat="43.96046859116836" lon="12.778614553975313"><ele>67.0</ele><time>2026-04-05T10:40:00Z</time></trkpt><trkpt lat="43.96052511763075" lon="12.778674709154133"><ele>68.33333333333333</ele><time>2026-04-05T10:40:04Z</time></trkpt><trkpt lat="43.960569068671205" lon="12.77877102416676"><ele>69.66666666666666</ele><time>2026-04-05T10:40:07Z</time></trkpt><trkpt lat="43.960623048874794" lon="12.778827615354247"><ele>71.0</ele><time>2026-04-05T10:40:11Z</time></trkpt><trkpt lat="43.96067401069286" lon="12.778903550475233"><ele>72.33333333333333</ele><time>2026-04-05T10:40:17Z</time></trkpt><trkpt lat="43.96073970083255" lon="12.778932682172778"><ele>73.66666666666667</ele><time>2026-04-05T10:40:20Z</time></trkpt><trkpt lat="43.96081440397944" lon="12.778861804622318"><ele>75.0</ele><time>2026-04-05T10:40:24Z</time></trkpt><trkpt lat="43.96087096125448" lon="12.778811633849209"><ele>76.28571428571428</ele><time>2026-04-05T10:40:27Z</time></trkpt><trkpt lat="43.96092839971989" lon="12.778870276512459"><ele>77.57142857142857</ele><time>2026-04-05T10:40:30Z</time></trkpt><trkpt lat="43.96099592863022" lon="12.778820247676613"><ele>78.85714285714286</ele><time>2026-04-05T10:40:35Z</time></trkpt><trkpt lat="43.96102816515844" lon="12.77872802271273"><ele>80.14285714285714</ele><time>2026-04-05T10:40:39Z</time></trkpt><trkpt lat="43.96104063295633" lon="12.778637110781258"><ele>81.42857142857143</ele><time>2026-04-05T10:40:42Z</time></trkpt><trkpt lat="43.96105422516128" lon="12.778536741216751"><ele>82.71428571428571</ele><time>2026-04-05T10:40:46Z</time></trkpt><trkpt lat="43.96105356266235" lon="12.77844296255612"><ele>84.0</ele><time>2026-04-05T10:40:49Z</time></trkpt><trkpt lat="43.96100382961661" lon="12.778367664201147"><ele>84.16666666666667</ele><time>2026-04-05T10:40:54Z</time></trkpt><trkpt lat="43.960959219131084" lon="12.77827590383723"><ele>84.33333333333333</ele><time>2026-04-05T10:40:58Z</time></trkpt><trkpt lat="43.96091777963414" lon="12.778184149275681"><ele>84.5</ele><time>2026-04-05T10:41:02Z</time></trkpt><trkpt lat="43.960875881863316" lon="12.778103409211358"><ele>84.66666666666666</ele><time>2026-04-05T10:41:05Z</time></trkpt><trkpt lat="43.96081137446574" lon="12.778055738750346"><ele>84.83333333333333</ele><time>2026-04-05T10:41:08Z</time></trkpt><trkpt lat="43.960763887469774" lon="12.77799289985318"><ele>85.0</ele><time>2026-04-05T10:41:10Z</time></trkpt><trkpt lat="43.96071642101386" lon="12.777897211526962"><ele>82.0</ele><time>2026-04-05T10:41:13Z</time></trkpt><trkpt lat="43.96068176828437" lon="12.777796118960932"><ele>79.0</ele><time>2026-04-05T10:41:16Z</time></trkpt><trkpt lat="43.96065368240444" lon="12.777686471848913"><ele>76.0</ele><time>2026-04-05T10:41:20Z</time></trkpt><trkpt lat="43.960634033286325" lon="12.777583679837717"><ele>73.0</ele><time>2026-04-05T10:41:23Z</time></trkpt><trkpt lat="43.96062876776036" lon="12.77746350561096"><ele>70.0</ele><time>2026-04-05T10:41:26Z</time></trkpt><trkpt lat="43.96063245080808" lon="12.777372134022823"><ele>67.0</ele><time>2026-04-05T10:41:28Z</time></trkpt><trkpt lat="43.96063306123736" lon="12.777248780369971"><ele>66.33333333333333</ele><time>2026-04-05T10:41:31Z</time></trkpt><trkpt lat="43.96067921460496" lon="12.77717533246152"><ele>65.66666666666666</ele><time>2026-04-05T10:41:33Z</time></trkpt><trkpt lat="43.96071448447152" lon="12.777092031806257"><ele>65.0</ele><time>2026-04-05T10:41:36Z</time></trkpt><trkpt lat="43.960787144191094" lon="12.777032640039817"><ele>64.33333333333333</ele><time>2026-04-05T10:41:39Z</time></trkpt><trkpt lat="43.96086238856658" lon="12.777049326425447"><ele>63.666666666666664</ele><time>2026-04-05T10:41:42Z</time></trkpt><trkpt lat="43.96093566373525" lon="12.777028846855274"><ele>63.0</ele><time>2026-04-05T10:41:45Z</time></trkpt><trkpt lat="43.961002488738714" lon="12.776974378207715"><ele>62.166666666666664</ele><time>2026-04-05T10:41:48Z</time></trkpt><trkpt lat="43.96106794889424" lon="12.776916805544849"><ele>61.33333333333333</ele><time>2026-04-05T10:41:52Z</time></trkpt><trkpt lat="43.96114367441249" lon="12.776892248816429"><ele>60.5</ele><time>2026-04-05T10:41:55Z</time></trkpt><trkpt lat="43.96122230816646" lon="12.776847107141148"><ele>59.666666666666664</ele><time>2026-04-05T10:41:58Z</time></trkpt><trkpt lat="43.961288511013876" lon="12.776813289853479"><ele>58.83333333333333</ele><time>2026-04-05T10:42:00Z</time></trkpt><trkpt lat="43.961365477490496" lon="12.776793728126856"><ele>58.0</ele><time>2026-04-05T10:42:03Z</time></trkpt><trkpt lat="43.961434996498284" lon="12.776782937398266"><ele>58.00000000000001</ele><time>2026-04-05T10:42:06Z</time></trkpt><trkpt lat="43.96151696505558" lon="12.77676515644282"><ele>58.0</ele><time>2026-04-05T10:42:09Z</time></trkpt><trkpt lat="43.961596075647385" lon="12.776781604332534"><ele>58.00000000000001</ele><time>2026-04-05T10:42:12Z</time></trkpt><trkpt lat="43.96166491571309" lon="12.776765148735546"><ele>58.00000000000001</ele><time>2026-04-05T10:42:15Z</time></trkpt><trkpt lat="43.96173915826773" lon="12.77675551245615"><ele>58.0</ele><time>2026-04-05T10:42:18Z</time></trkpt><trkpt lat="43.96180995352117" lon="12.776736430669"><ele>58.00000000000001</ele><time>2026-04-05T10:42:21Z</time></trkpt><trkpt lat="43.96187553424777" lon="12.776730234841581"><ele>58.00000000000001</ele><time>2026-04-05T10:42:25Z</time></trkpt><trkpt lat="43.96193929947444" lon="12.776742019581944"><ele>59.28571428571429</ele><time>2026-04-05T10:42:28Z</time></trkpt><trkpt lat="43.962003466601516" lon="12.77674353689879"><ele>60.57142857142857</ele><time>2026-04-05T10:42:32Z</time></trkpt><trkpt lat="43.96208551137748" lon="12.776768253601285"><ele>61.85714285714286</ele><time>2026-04-05T10:42:36Z</time></trkpt><trkpt lat="43.9621499519724" lon="12.776780757942646"><ele>63.142857142857146</ele><time>2026-04-05T10:42:39Z</time></trkpt><trkpt lat="43.96221994471057" lon="12.776780010945707"><ele>64.42857142857143</ele><time>2026-04-05T10:42:43Z</time></trkpt><trkpt lat="43.962295647834026" lon="12.776790549479832"><ele>65.71428571428572</ele><time>2026-04-05T10:42:47Z</time></trkpt><trkpt lat="43.962362823723666" lon="12.776807388521476"><ele>67.0</ele><time>2026-04-05T10:42:51Z</time></trkpt><trkpt lat="43.96243505698841" lon="12.77682840394809"><ele>67.0</ele><time>2026-04-05T10:42:55Z</time></trkpt><trkpt lat="43.96252448114025" lon="12.776802617223357"><ele>67.0</ele><time>2026-04-05T10:43:00Z</time></trkpt><trkpt lat="43.96258040729396" lon="12.77675037277191"><ele>67.0</ele><time>2026-04-05T10:43:04Z</time></trkpt><trkpt lat="43.96264294172672" lon="12.776716304663983"><ele>67.0</ele><time>2026-04-05T10:43:08Z</time></trkpt><trkpt lat="43.962721383001096" lon="12.77667431173355"><ele>67.0</ele><time>2026-04-05T10:43:12Z</time></trkpt><trkpt lat="43.962791404574936" lon="12.776644407652567"><ele>67.0</ele><time>2026-04-05T10:43:16Z</time></trkpt><trkpt lat="43.96285499103492" lon="12.776624898114678"><ele>67.0</ele><time>2026-04-05T10:43:20Z</time></trkpt><trkpt lat="43.96292148114404" lon="12.77662029897991"><ele>68.85714285714286</ele><time>2026-04-05T10:43:24Z</time></trkpt><trkpt lat="43.96298827883366" lon="12.776623499419648"><ele>70.71428571428571</ele><time>2026-04-05T10:43:28Z</time></trkpt><trkpt lat="43.963066646897545" lon="12.776655166406213"><ele>72.57142857142857</ele><time>2026-04-05T10:43:33Z</time></trkpt><trkpt lat="43.96313886047444" lon="12.776670776693592"><ele>74.42857142857143</ele><time>2026-04-05T10:43:38Z</time></trkpt><trkpt lat="43.96320497181289" lon="12.776682647129148"><ele>76.28571428571429</ele><time>2026-04-05T10:43:44Z</time></trkpt><trkpt lat="43.96326787161354" lon="12.776730232033463"><ele>78.14285714285714</ele><time>2026-04-05T10:43:50Z</time></trkpt><trkpt lat="43.963331144507315" lon="12.776764218141405"><ele>80.0</ele><time>2026-04-05T10:43:56Z</time></trkpt><trkpt lat="43.963400000912394" lon="12.776785238287745"><ele>79.85714285714286</ele><time>2026-04-05T10:44:03Z</time></trkpt><trkpt lat="43.96346351250183" lon="12.776841477711292"><ele>79.71428571428572</ele><time>2026-04-05T10:44:11Z</time></trkpt><trkpt lat="43.96352841861955" lon="12.77687168655128"><ele>79.57142857142858</ele><time>2026-04-05T10:44:16Z</time></trkpt><trkpt lat="43.963589785447844" lon="12.776919648800693"><ele>79.42857142857143</ele><time>2026-04-05T10:44:24Z</time></trkpt><trkpt lat="43.96365282235893" lon="12.776948295335902"><ele>79.28571428571429</ele><time>2026-04-05T10:44:31Z</time></trkpt><trkpt lat="43.96371664476452" lon="12.776965054700451"><ele>79.14285714285715</ele><time>2026-04-05T10:44:38Z</time></trkpt><trkpt lat="43.96378653998252" lon="12.776980674493226"><ele>79.0</ele><time>2026-04-05T10:44:45Z</time></trkpt><trkpt lat="43.96385896031825" lon="12.776997992837064"><ele>79.0</ele><time>2026-04-05T10:44:53Z</time></trkpt><trkpt lat="43.9639314367672" lon="12.776956577581647"><ele>79.0</ele><time>2026-04-05T10:45:01Z</time></trkpt><trkpt lat="43.96399519521669" lon="12.777003341648031"><ele>79.0</ele><time>2026-04-05T10:45:12Z</time></trkpt><trkpt lat="43.96403075842374" lon="12.776889275381649"><ele>79.0</ele><time>2026-04-05T10:45:48Z</time></trkpt><trkpt lat="43.96403801413043" lon="12.776780721892631"><ele>79.0</ele><time>2026-04-05T10:45:51Z</time></trkpt><trkpt lat="43.96402882715882" lon="12.776674115777624"><ele>79.0</ele><time>2026-04-05T10:45:54Z</time></trkpt><trkpt lat="43.96403733182663" lon="12.776551873852364"><ele>79.85714285714286</ele><time>2026-04-05T10:45:58Z</time></trkpt><trkpt lat="43.96405269335213" lon="12.776466054118194"><ele>80.71428571428572</ele><time>2026-04-05T10:46:01Z</time></trkpt><trkpt lat="43.96407091485178" lon="12.776381277192108"><ele>81.57142857142858</ele><time>2026-04-05T10:46:04Z</time></trkpt><trkpt lat="43.96406334761409" lon="12.776288331284979"><ele>82.42857142857143</ele><time>2026-04-05T10:46:07Z</time></trkpt><trkpt lat="43.96406883472324" lon="12.776195895712407"><ele>83.28571428571428</ele><time>2026-04-05T10:46:10Z</time></trkpt><trkpt lat="43.96407291802107" lon="12.77608349365498"><ele>84.14285714285715</ele><time>2026-04-05T10:46:13Z</time></trkpt><trkpt lat="43.96406503342447" lon="12.775984592590518"><ele>85.0</ele><time>2026-04-05T10:46:16Z</time></trkpt><trkpt lat="43.96406232389626" lon="12.775894634521608"><ele>85.71428571428572</ele><time>2026-04-05T10:46:19Z</time></trkpt><trkpt lat="43.96405246280874" lon="12.775792844370883"><ele>86.42857142857142</ele><time>2026-04-05T10:46:22Z</time></trkpt><trkpt lat="43.964036884269255" lon="12.77569863819783"><ele>87.14285714285714</ele><time>2026-04-05T10:46:25Z</time></trkpt><trkpt lat="43.964004107373064" lon="12.775594817806635"><ele>87.85714285714286</ele><time>2026-04-05T10:46:29Z</time></trkpt><trkpt lat="43.96398317566052" lon="12.775490907143082"><ele>88.57142857142858</ele><time>2026-04-05T10:46:33Z</time></trkpt><trkpt lat="43.96395120532243" lon="12.775414748783604"><ele>89.28571428571428</ele><time>2026-04-05T10:46:37Z</time></trkpt><trkpt lat="43.96390955214594" lon="12.775338683676368"><ele>90.0</ele><time>2026-04-05T10:46:40Z</time></trkpt><trkpt lat="43.96387678935221" lon="12.775240625503491"><ele>91.42857142857143</ele><time>2026-04-05T10:46:44Z</time></trkpt><trkpt lat="43.96382757111698" lon="12.775165252961635"><ele>92.85714285714286</ele><time>2026-04-05T10:46:48Z</time></trkpt><trkpt lat="43.963778915146" lon="12.775097984022194"><ele>94.28571428571429</ele><time>2026-04-05T10:46:52Z</time></trkpt><trkpt lat="43.96372654775455" lon="12.775027876270427"><ele>95.71428571428572</ele><time>2026-04-05T10:46:56Z</time></trkpt><trkpt lat="43.96367868297513" lon="12.774944089673209"><ele>97.14285714285714</ele><time>2026-04-05T10:47:01Z</time></trkpt><trkpt lat="43.9636384244355" lon="12.774863874522728"><ele>98.57142857142858</ele><time>2026-04-05T10:47:06Z</time></trkpt><trkpt lat="43.96358105865045" lon="12.774793594089306"><ele>100.0</ele><time>2026-04-05T10:47:10Z</time></trkpt><trkpt lat="43.96353581532034" lon="12.774716340287355"><ele>100.00000000000001</ele><time>2026-04-05T10:47:16Z</time></trkpt><trkpt lat="43.96348440999406" lon="12.774656149769225"><ele>100.0</ele><time>2026-04-05T10:47:21Z</time></trkpt><trkpt lat="43.963429680779015" lon="12.774611859257922"><ele>100.0</ele><time>2026-04-05T10:47:25Z</time></trkpt><trkpt lat="43.96337988027608" lon="12.774553033194408"><ele>100.0</ele><time>2026-04-05T10:47:30Z</time></trkpt><trkpt lat="43.9633477110684" lon="12.774466640646617"><ele>100.0</ele><time>2026-04-05T10:47:35Z</time></trkpt><trkpt lat="43.96329734067734" lon="12.77438639424152"><ele>100.00000000000001</ele><time>2026-04-05T10:47:39Z</time></trkpt><trkpt lat="43.96324208056784" lon="12.774301732481536"><ele>100.0</ele><time>2026-04-05T10:47:43Z</time></trkpt><trkpt lat="43.963186993927145" lon="12.774233347312013"><ele>103.00000000000001</ele><time>2026-04-05T10:47:48Z</time></trkpt><trkpt lat="43.963128824196914" lon="12.774172737292124"><ele>106.0</ele><time>2026-04-05T10:47:53Z</time></trkpt><trkpt lat="43.963069023981326" lon="12.774096822949465"><ele>109.0</ele><time>2026-04-05T10:47:56Z</time></trkpt><trkpt lat="43.9630140214704" lon="12.774015315928503"><ele>112.0</ele><time>2026-04-05T10:48:00Z</time></trkpt><trkpt lat="43.96296882305693" lon="12.773932416681431"><ele>115.00000000000001</ele><time>2026-04-05T10:48:06Z</time></trkpt><trkpt lat="43.96295761338189" lon="12.773814641014893"><ele>118.0</ele><time>2026-04-05T10:48:10Z</time></trkpt><trkpt lat="43.96290338960521" lon="12.773742208672095"><ele>118.0</ele><time>2026-04-05T10:48:13Z</time></trkpt><trkpt lat="43.96286141691443" lon="12.773647165328532"><ele>118.0</ele><time>2026-04-05T10:48:16Z</time></trkpt><trkpt lat="43.962825080689655" lon="12.773565192381518"><ele>118.0</ele><time>2026-04-05T10:48:20Z</time></trkpt><trkpt lat="43.9627970418227" lon="12.773475000639996"><ele>118.0</ele><time>2026-04-05T10:48:23Z</time></trkpt><trkpt lat="43.962844796335354" lon="12.773398925465106"><ele>118.0</ele><time>2026-04-05T10:48:28Z</time></trkpt><trkpt lat="43.96289192614487" lon="12.773314602979063"><ele>118.0</ele><time>2026-04-05T10:48:33Z</time></trkpt><trkpt lat="43.96291278017724" lon="12.77321421113279"><ele>118.0</ele><time>2026-04-05T10:48:36Z</time></trkpt><trkpt lat="43.96295251198189" lon="12.773141251699952"><ele>119.16666666666667</ele><time>2026-04-05T10:48:39Z</time></trkpt><trkpt lat="43.9630023676057" lon="12.773061689497585"><ele>120.33333333333334</ele><time>2026-04-05T10:48:43Z</time></trkpt><trkpt lat="43.96306527259234" lon="12.772979772055809"><ele>121.5</ele><time>2026-04-05T10:48:47Z</time></trkpt><trkpt lat="43.96310028099662" lon="12.772892061773833"><ele>122.66666666666666</ele><time>2026-04-05T10:48:51Z</time></trkpt><trkpt lat="43.963145092139875" lon="12.772820964714125"><ele>123.83333333333333</ele><time>2026-04-05T10:48:55Z</time></trkpt><trkpt lat="43.96319456857456" lon="12.772733667872822"><ele>125.0</ele><time>2026-04-05T10:48:59Z</time></trkpt><trkpt lat="43.963237657195904" lon="12.772650312814019"><ele>124.99999999999999</ele><time>2026-04-05T10:49:04Z</time></trkpt><trkpt lat="43.96326978575873" lon="12.772548529686745"><ele>125.0</ele><time>2026-04-05T10:49:07Z</time></trkpt><trkpt lat="43.963321497136754" lon="12.772462788819732"><ele>125.0</ele><time>2026-04-05T10:49:10Z</time></trkpt><trkpt lat="43.96337733358429" lon="12.772390586132266"><ele>125.0</ele><time>2026-04-05T10:49:13Z</time></trkpt><trkpt lat="43.96343140156966" lon="12.772311293474063"><ele>124.99999999999999</ele><time>2026-04-05T10:49:16Z</time></trkpt><trkpt lat="43.963465139637044" lon="12.772219297148268"><ele>125.0</ele><time>2026-04-05T10:49:19Z</time></trkpt><trkpt lat="43.96348852862428" lon="12.77211463319072"><ele>124.16666666666666</ele><time>2026-04-05T10:49:22Z</time></trkpt><trkpt lat="43.96346251116804" lon="12.771992728630174"><ele>123.33333333333333</ele><time>2026-04-05T10:49:25Z</time></trkpt><trkpt lat="43.963437919992955" lon="12.771889207137818"><ele>122.5</ele><time>2026-04-05T10:49:29Z</time></trkpt><trkpt lat="43.963450429438325" lon="12.77178685923524"><ele>121.66666666666666</ele><time>2026-04-05T10:49:31Z</time></trkpt><trkpt lat="43.96347370042137" lon="12.771688991306336"><ele>120.83333333333333</ele><time>2026-04-05T10:49:33Z</time></trkpt><trkpt lat="43.96346354836935" lon="12.771547466910805"><ele>120.0</ele><time>2026-04-05T10:49:36Z</time></trkpt><trkpt lat="43.96345479706268" lon="12.771452972536723"><ele>117.57142857142857</ele><time>2026-04-05T10:49:38Z</time></trkpt><trkpt lat="43.963431447273" lon="12.77135329998456"><ele>115.14285714285714</ele><time>2026-04-05T10:49:40Z</time></trkpt><trkpt lat="43.963407648375735" lon="12.77126336570648"><ele>112.71428571428571</ele><time>2026-04-05T10:49:42Z</time></trkpt><trkpt lat="43.96340077141694" lon="12.771155049224367"><ele>110.28571428571428</ele><time>2026-04-05T10:49:45Z</time></trkpt><trkpt lat="43.96339080934195" lon="12.771055042725308"><ele>107.85714285714286</ele><time>2026-04-05T10:49:47Z</time></trkpt><trkpt lat="43.96337943026898" lon="12.770948538723694"><ele>105.42857142857142</ele><time>2026-04-05T10:49:50Z</time></trkpt><trkpt lat="43.96338061475334" lon="12.770859725221099"><ele>103.0</ele><time>2026-04-05T10:49:52Z</time></trkpt><trkpt lat="43.96337250255917" lon="12.770739903167064"><ele>100.50000000000001</ele><time>2026-04-05T10:49:55Z</time></trkpt><trkpt lat="43.9633756982466" lon="12.7706376534142"><ele>98.0</ele><time>2026-04-05T10:49:59Z</time></trkpt><trkpt lat="43.96338897157734" lon="12.770521510726317"><ele>95.5</ele><time>2026-04-05T10:50:02Z</time></trkpt><trkpt lat="43.96341102214265" lon="12.770423013862699"><ele>93.0</ele><time>2026-04-05T10:50:04Z</time></trkpt><trkpt lat="43.963421268073176" lon="12.770323560097145"><ele>90.5</ele><time>2026-04-05T10:50:06Z</time></trkpt><trkpt lat="43.963448291662274" lon="12.77020720805504"><ele>88.0</ele><time>2026-04-05T10:50:09Z</time></trkpt><trkpt lat="43.96347485149512" lon="12.770107465107948"><ele>87.42857142857143</ele><time>2026-04-05T10:50:11Z</time></trkpt><trkpt lat="43.96349333048533" lon="12.770017170176995"><ele>86.85714285714286</ele><time>2026-04-05T10:50:13Z</time></trkpt><trkpt lat="43.96349871379804" lon="12.769922897232815"><ele>86.28571428571428</ele><time>2026-04-05T10:50:16Z</time></trkpt><trkpt lat="43.96350508094146" lon="12.769823999701273"><ele>85.71428571428572</ele><time>2026-04-05T10:50:18Z</time></trkpt><trkpt lat="43.96353723104562" lon="12.769715014321747"><ele>85.14285714285714</ele><time>2026-04-05T10:50:21Z</time></trkpt><trkpt lat="43.96353543214758" lon="12.769625318701904"><ele>84.57142857142857</ele><time>2026-04-05T10:50:23Z</time></trkpt><trkpt lat="43.96353914586861" lon="12.769499596685113"><ele>84.0</ele><time>2026-04-05T10:50:26Z</time></trkpt><trkpt lat="43.963528034129894" lon="12.769370177202457"><ele>83.66666666666667</ele><time>2026-04-05T10:50:29Z</time></trkpt><trkpt lat="43.96352157091886" lon="12.769247203560559"><ele>83.33333333333333</ele><time>2026-04-05T10:50:32Z</time></trkpt><trkpt lat="43.96350220808215" lon="12.76914835692264"><ele>83.0</ele><time>2026-04-05T10:50:35Z</time></trkpt><trkpt lat="43.963490108475376" lon="12.769021887474553"><ele>82.66666666666666</ele><time>2026-04-05T10:50:38Z</time></trkpt><trkpt lat="43.96349554705083" lon="12.768905531456532"><ele>82.33333333333333</ele><time>2026-04-05T10:50:41Z</time></trkpt><trkpt lat="43.96352308062475" lon="12.768788784736028"><ele>82.0</ele><time>2026-04-05T10:50:44Z</time></trkpt><trkpt lat="43.96353989375447" lon="12.76867726943226"><ele>82.0</ele><time>2026-04-05T10:50:47Z</time></trkpt><trkpt lat="43.96357672694164" lon="12.768578013557262"><ele>82.0</ele><time>2026-04-05T10:50:50Z</time></trkpt></trkseg></trk></gpx>